<?xml version="1.0" encoding="UTF-8" standalone="no" ?>
<gpx xmlns="http://www.topografix.com/GPX/1/1" xmlns:xsi="http://www.w3.org/2001/XMLSchema-instance" xsi:schemaLocation="http://www.topografix.com/GPX/1/1 http://www.topografix.com/GPX/1/1/gpx.xsd" version="1.1" creator="VisuGPX - https://www.visugpx.com">
  <metadata>
    <name>Pic de Gourguet 2619m en traversée du lac de l'Oule à Aygues Cluses</name>
    <desc><![CDATA[Traversée du pic de Gourguet 2619m par le vallon d'Estibère.
La premiere moitié du vallon d'Estibère est très sauvage. 
Le haut du cirque est facile toute toute beauté.
le pic de Gourguet se traverse sans problème (en suivant la trace).

[url=http://eal-rando.blogspot.fr/2013/08/le-pic-gourguet-2619m-du-lac-de-loule.html]voir rando[/url] ]]></desc>
  </metadata>
  <trk>
    <name><![CDATA[EWTOUDOU GOURGUET AYGUES]]></name>
    <desc><![CDATA[Total: 9.1km]]></desc>
    <trkseg>
      <trkpt lat="42.83903" lon="0.19592">
        <ele>1837.7</ele>
        <time>2013-08-15T08:48:02Z</time>
      </trkpt>
      <trkpt lat="42.839" lon="0.19589">
        <ele>1838.18</ele>
        <time>2013-08-15T08:48:13Z</time>
      </trkpt>
      <trkpt lat="42.83898" lon="0.19585">
        <ele>1838.66</ele>
        <time>2013-08-15T08:48:19Z</time>
      </trkpt>
      <trkpt lat="42.8389" lon="0.1958">
        <ele>1840.58</ele>
        <time>2013-08-15T08:48:33Z</time>
      </trkpt>
      <trkpt lat="42.83884" lon="0.19581">
        <ele>1842.02</ele>
        <time>2013-08-15T08:48:45Z</time>
      </trkpt>
      <trkpt lat="42.8388" lon="0.19581">
        <ele>1843.95</ele>
        <time>2013-08-15T08:48:59Z</time>
      </trkpt>
      <trkpt lat="42.83873" lon="0.19578">
        <ele>1844.91</ele>
        <time>2013-08-15T08:49:12Z</time>
      </trkpt>
      <trkpt lat="42.83869" lon="0.19576">
        <ele>1846.83</ele>
        <time>2013-08-15T08:49:23Z</time>
      </trkpt>
      <trkpt lat="42.83864" lon="0.19575">
        <ele>1847.79</ele>
        <time>2013-08-15T08:49:32Z</time>
      </trkpt>
      <trkpt lat="42.83857" lon="0.19577">
        <ele>1848.75</ele>
        <time>2013-08-15T08:49:43Z</time>
      </trkpt>
      <trkpt lat="42.83853" lon="0.19572">
        <ele>1850.19</ele>
        <time>2013-08-15T08:49:53Z</time>
      </trkpt>
      <trkpt lat="42.83853" lon="0.19573">
        <ele>1849.71</ele>
        <time>2013-08-15T08:50:11Z</time>
      </trkpt>
      <trkpt lat="42.83853" lon="0.19571">
        <ele>1849.71</ele>
        <time>2013-08-15T08:50:22Z</time>
      </trkpt>
      <trkpt lat="42.83853" lon="0.19571">
        <ele>1849.71</ele>
        <time>2013-08-15T08:50:42Z</time>
      </trkpt>
      <trkpt lat="42.83852" lon="0.1957">
        <ele>1849.23</ele>
        <time>2013-08-15T08:50:57Z</time>
      </trkpt>
      <trkpt lat="42.83853" lon="0.19571">
        <ele>1849.23</ele>
        <time>2013-08-15T08:51:15Z</time>
      </trkpt>
      <trkpt lat="42.83853" lon="0.19571">
        <ele>1848.75</ele>
        <time>2013-08-15T08:51:38Z</time>
      </trkpt>
      <trkpt lat="42.83853" lon="0.19571">
        <ele>1849.23</ele>
        <time>2013-08-15T08:52:02Z</time>
      </trkpt>
      <trkpt lat="42.83853" lon="0.19571">
        <ele>1848.75</ele>
        <time>2013-08-15T08:52:25Z</time>
      </trkpt>
      <trkpt lat="42.83853" lon="0.19571">
        <ele>1848.75</ele>
        <time>2013-08-15T08:52:42Z</time>
      </trkpt>
      <trkpt lat="42.83853" lon="0.19571">
        <ele>1848.75</ele>
        <time>2013-08-15T08:53:02Z</time>
      </trkpt>
      <trkpt lat="42.83852" lon="0.19571">
        <ele>1848.27</ele>
        <time>2013-08-15T08:53:23Z</time>
      </trkpt>
      <trkpt lat="42.83852" lon="0.19571">
        <ele>1848.75</ele>
        <time>2013-08-15T08:53:48Z</time>
      </trkpt>
      <trkpt lat="42.83852" lon="0.19571">
        <ele>1847.79</ele>
        <time>2013-08-15T08:54:12Z</time>
      </trkpt>
      <trkpt lat="42.83853" lon="0.19571">
        <ele>1849.71</ele>
        <time>2013-08-15T08:54:40Z</time>
      </trkpt>
      <trkpt lat="42.83849" lon="0.1957">
        <ele>1848.27</ele>
        <time>2013-08-15T08:54:51Z</time>
      </trkpt>
      <trkpt lat="42.83848" lon="0.19571">
        <ele>1848.27</ele>
        <time>2013-08-15T08:54:52Z</time>
      </trkpt>
      <trkpt lat="42.83846" lon="0.19571">
        <ele>1848.27</ele>
        <time>2013-08-15T08:54:54Z</time>
      </trkpt>
      <trkpt lat="42.83839" lon="0.19566">
        <ele>1847.79</ele>
        <time>2013-08-15T08:55:08Z</time>
      </trkpt>
      <trkpt lat="42.83829" lon="0.1956">
        <ele>1849.71</ele>
        <time>2013-08-15T08:55:24Z</time>
      </trkpt>
      <trkpt lat="42.83828" lon="0.19559">
        <ele>1849.71</ele>
        <time>2013-08-15T08:55:26Z</time>
      </trkpt>
      <trkpt lat="42.83819" lon="0.19556">
        <ele>1851.16</ele>
        <time>2013-08-15T08:55:40Z</time>
      </trkpt>
      <trkpt lat="42.83812" lon="0.19556">
        <ele>1853.56</ele>
        <time>2013-08-15T08:55:55Z</time>
      </trkpt>
      <trkpt lat="42.83805" lon="0.19556">
        <ele>1855</ele>
        <time>2013-08-15T08:56:10Z</time>
      </trkpt>
      <trkpt lat="42.83802" lon="0.19556">
        <ele>1857.4</ele>
        <time>2013-08-15T08:56:27Z</time>
      </trkpt>
      <trkpt lat="42.83798" lon="0.19551">
        <ele>1860.29</ele>
        <time>2013-08-15T08:56:46Z</time>
      </trkpt>
      <trkpt lat="42.83793" lon="0.19548">
        <ele>1861.73</ele>
        <time>2013-08-15T08:57:02Z</time>
      </trkpt>
      <trkpt lat="42.83791" lon="0.19544">
        <ele>1863.65</ele>
        <time>2013-08-15T08:57:18Z</time>
      </trkpt>
      <trkpt lat="42.83787" lon="0.19536">
        <ele>1865.09</ele>
        <time>2013-08-15T08:57:35Z</time>
      </trkpt>
      <trkpt lat="42.83784" lon="0.19528">
        <ele>1866.54</ele>
        <time>2013-08-15T08:57:48Z</time>
      </trkpt>
      <trkpt lat="42.83784" lon="0.19523">
        <ele>1867.98</ele>
        <time>2013-08-15T08:58:01Z</time>
      </trkpt>
      <trkpt lat="42.83786" lon="0.19519">
        <ele>1869.9</ele>
        <time>2013-08-15T08:58:17Z</time>
      </trkpt>
      <trkpt lat="42.83787" lon="0.19512">
        <ele>1871.34</ele>
        <time>2013-08-15T08:58:34Z</time>
      </trkpt>
      <trkpt lat="42.83786" lon="0.19509">
        <ele>1872.3</ele>
        <time>2013-08-15T08:58:51Z</time>
      </trkpt>
      <trkpt lat="42.83788" lon="0.19505">
        <ele>1874.23</ele>
        <time>2013-08-15T08:59:04Z</time>
      </trkpt>
      <trkpt lat="42.83787" lon="0.19501">
        <ele>1875.67</ele>
        <time>2013-08-15T08:59:23Z</time>
      </trkpt>
      <trkpt lat="42.83787" lon="0.19493">
        <ele>1877.11</ele>
        <time>2013-08-15T08:59:40Z</time>
      </trkpt>
      <trkpt lat="42.8379" lon="0.19489">
        <ele>1879.51</ele>
        <time>2013-08-15T08:59:56Z</time>
      </trkpt>
      <trkpt lat="42.83792" lon="0.19486">
        <ele>1880.96</ele>
        <time>2013-08-15T09:00:13Z</time>
      </trkpt>
      <trkpt lat="42.83793" lon="0.19482">
        <ele>1882.4</ele>
        <time>2013-08-15T09:00:29Z</time>
      </trkpt>
      <trkpt lat="42.83796" lon="0.19478">
        <ele>1883.84</ele>
        <time>2013-08-15T09:00:46Z</time>
      </trkpt>
      <trkpt lat="42.83796" lon="0.19474">
        <ele>1884.8</ele>
        <time>2013-08-15T09:00:59Z</time>
      </trkpt>
      <trkpt lat="42.83797" lon="0.19465">
        <ele>1886.24</ele>
        <time>2013-08-15T09:01:11Z</time>
      </trkpt>
      <trkpt lat="42.83797" lon="0.19462">
        <ele>1887.69</ele>
        <time>2013-08-15T09:01:25Z</time>
      </trkpt>
      <trkpt lat="42.83796" lon="0.19458">
        <ele>1888.65</ele>
        <time>2013-08-15T09:01:39Z</time>
      </trkpt>
      <trkpt lat="42.83796" lon="0.19451">
        <ele>1890.09</ele>
        <time>2013-08-15T09:01:55Z</time>
      </trkpt>
      <trkpt lat="42.83796" lon="0.19451">
        <ele>1890.57</ele>
        <time>2013-08-15T09:02:12Z</time>
      </trkpt>
      <trkpt lat="42.83778" lon="0.19436">
        <ele>1892.49</ele>
        <time>2013-08-15T09:02:27Z</time>
      </trkpt>
      <trkpt lat="42.83765" lon="0.19432">
        <ele>1892.01</ele>
        <time>2013-08-15T09:02:41Z</time>
      </trkpt>
      <trkpt lat="42.83754" lon="0.19425">
        <ele>1892.97</ele>
        <time>2013-08-15T09:02:58Z</time>
      </trkpt>
      <trkpt lat="42.83743" lon="0.19418">
        <ele>1894.9</ele>
        <time>2013-08-15T09:03:16Z</time>
      </trkpt>
      <trkpt lat="42.83741" lon="0.19416">
        <ele>1896.34</ele>
        <time>2013-08-15T09:03:33Z</time>
      </trkpt>
      <trkpt lat="42.83739" lon="0.19409">
        <ele>1898.26</ele>
        <time>2013-08-15T09:03:48Z</time>
      </trkpt>
      <trkpt lat="42.83738" lon="0.19402">
        <ele>1899.7</ele>
        <time>2013-08-15T09:03:59Z</time>
      </trkpt>
      <trkpt lat="42.83735" lon="0.19395">
        <ele>1901.14</ele>
        <time>2013-08-15T09:04:12Z</time>
      </trkpt>
      <trkpt lat="42.83735" lon="0.19393">
        <ele>1902.11</ele>
        <time>2013-08-15T09:04:26Z</time>
      </trkpt>
      <trkpt lat="42.83735" lon="0.19391">
        <ele>1904.51</ele>
        <time>2013-08-15T09:04:44Z</time>
      </trkpt>
      <trkpt lat="42.83736" lon="0.19388">
        <ele>1905.47</ele>
        <time>2013-08-15T09:04:58Z</time>
      </trkpt>
      <trkpt lat="42.83738" lon="0.19384">
        <ele>1907.39</ele>
        <time>2013-08-15T09:05:13Z</time>
      </trkpt>
      <trkpt lat="42.83739" lon="0.19381">
        <ele>1909.32</ele>
        <time>2013-08-15T09:05:31Z</time>
      </trkpt>
      <trkpt lat="42.83743" lon="0.19377">
        <ele>1910.76</ele>
        <time>2013-08-15T09:05:46Z</time>
      </trkpt>
      <trkpt lat="42.83749" lon="0.19378">
        <ele>1912.2</ele>
        <time>2013-08-15T09:06:02Z</time>
      </trkpt>
      <trkpt lat="42.83753" lon="0.19377">
        <ele>1914.12</ele>
        <time>2013-08-15T09:06:16Z</time>
      </trkpt>
      <trkpt lat="42.83753" lon="0.19374">
        <ele>1915.56</ele>
        <time>2013-08-15T09:06:32Z</time>
      </trkpt>
      <trkpt lat="42.83754" lon="0.19374">
        <ele>1917.01</ele>
        <time>2013-08-15T09:06:49Z</time>
      </trkpt>
      <trkpt lat="42.83756" lon="0.19374">
        <ele>1918.45</ele>
        <time>2013-08-15T09:07:04Z</time>
      </trkpt>
      <trkpt lat="42.8376" lon="0.19373">
        <ele>1919.89</ele>
        <time>2013-08-15T09:07:17Z</time>
      </trkpt>
      <trkpt lat="42.8376" lon="0.19373">
        <ele>1920.85</ele>
        <time>2013-08-15T09:07:34Z</time>
      </trkpt>
      <trkpt lat="42.83761" lon="0.19374">
        <ele>1921.33</ele>
        <time>2013-08-15T09:07:48Z</time>
      </trkpt>
      <trkpt lat="42.83761" lon="0.19374">
        <ele>1923.25</ele>
        <time>2013-08-15T09:08:04Z</time>
      </trkpt>
      <trkpt lat="42.83761" lon="0.19372">
        <ele>1925.18</ele>
        <time>2013-08-15T09:08:23Z</time>
      </trkpt>
      <trkpt lat="42.83764" lon="0.19366">
        <ele>1926.62</ele>
        <time>2013-08-15T09:08:35Z</time>
      </trkpt>
      <trkpt lat="42.83764" lon="0.19364">
        <ele>1927.1</ele>
        <time>2013-08-15T09:08:47Z</time>
      </trkpt>
      <trkpt lat="42.83764" lon="0.19364">
        <ele>1929.02</ele>
        <time>2013-08-15T09:09:04Z</time>
      </trkpt>
      <trkpt lat="42.83766" lon="0.19359">
        <ele>1930.46</ele>
        <time>2013-08-15T09:09:21Z</time>
      </trkpt>
      <trkpt lat="42.83767" lon="0.19359">
        <ele>1930.95</ele>
        <time>2013-08-15T09:09:36Z</time>
      </trkpt>
      <trkpt lat="42.83773" lon="0.19356">
        <ele>1932.39</ele>
        <time>2013-08-15T09:09:48Z</time>
      </trkpt>
      <trkpt lat="42.83775" lon="0.19353">
        <ele>1933.35</ele>
        <time>2013-08-15T09:10:04Z</time>
      </trkpt>
      <trkpt lat="42.83775" lon="0.19353">
        <ele>1934.79</ele>
        <time>2013-08-15T09:10:25Z</time>
      </trkpt>
      <trkpt lat="42.83776" lon="0.19351">
        <ele>1936.23</ele>
        <time>2013-08-15T09:10:41Z</time>
      </trkpt>
      <trkpt lat="42.83775" lon="0.19348">
        <ele>1937.19</ele>
        <time>2013-08-15T09:10:54Z</time>
      </trkpt>
      <trkpt lat="42.83775" lon="0.19344">
        <ele>1938.16</ele>
        <time>2013-08-15T09:11:07Z</time>
      </trkpt>
      <trkpt lat="42.8378" lon="0.19342">
        <ele>1939.12</ele>
        <time>2013-08-15T09:11:22Z</time>
      </trkpt>
      <trkpt lat="42.8378" lon="0.19342">
        <ele>1941.04</ele>
        <time>2013-08-15T09:11:40Z</time>
      </trkpt>
      <trkpt lat="42.8378" lon="0.19342">
        <ele>1942</ele>
        <time>2013-08-15T09:11:55Z</time>
      </trkpt>
      <trkpt lat="42.8378" lon="0.19342">
        <ele>1943.92</ele>
        <time>2013-08-15T09:12:11Z</time>
      </trkpt>
      <trkpt lat="42.83783" lon="0.19332">
        <ele>1943.92</ele>
        <time>2013-08-15T09:12:31Z</time>
      </trkpt>
      <trkpt lat="42.83785" lon="0.19328">
        <ele>1944.88</ele>
        <time>2013-08-15T09:12:44Z</time>
      </trkpt>
      <trkpt lat="42.83785" lon="0.19328">
        <ele>1946.81</ele>
        <time>2013-08-15T09:12:59Z</time>
      </trkpt>
      <trkpt lat="42.83785" lon="0.19328">
        <ele>1947.77</ele>
        <time>2013-08-15T09:13:13Z</time>
      </trkpt>
      <trkpt lat="42.83786" lon="0.19327">
        <ele>1948.25</ele>
        <time>2013-08-15T09:13:27Z</time>
      </trkpt>
      <trkpt lat="42.83785" lon="0.19321">
        <ele>1948.73</ele>
        <time>2013-08-15T09:13:44Z</time>
      </trkpt>
      <trkpt lat="42.83785" lon="0.19321">
        <ele>1950.17</ele>
        <time>2013-08-15T09:13:56Z</time>
      </trkpt>
      <trkpt lat="42.83785" lon="0.19321">
        <ele>1951.61</ele>
        <time>2013-08-15T09:14:11Z</time>
      </trkpt>
      <trkpt lat="42.83785" lon="0.1932">
        <ele>1952.09</ele>
        <time>2013-08-15T09:14:23Z</time>
      </trkpt>
      <trkpt lat="42.83785" lon="0.1932">
        <ele>1953.06</ele>
        <time>2013-08-15T09:14:36Z</time>
      </trkpt>
      <trkpt lat="42.83795" lon="0.19309">
        <ele>1953.54</ele>
        <time>2013-08-15T09:14:46Z</time>
      </trkpt>
      <trkpt lat="42.83799" lon="0.19305">
        <ele>1954.5</ele>
        <time>2013-08-15T09:14:59Z</time>
      </trkpt>
      <trkpt lat="42.83799" lon="0.19305">
        <ele>1955.94</ele>
        <time>2013-08-15T09:15:11Z</time>
      </trkpt>
      <trkpt lat="42.83802" lon="0.19301">
        <ele>1955.94</ele>
        <time>2013-08-15T09:15:25Z</time>
      </trkpt>
      <trkpt lat="42.83802" lon="0.19301">
        <ele>1956.9</ele>
        <time>2013-08-15T09:15:40Z</time>
      </trkpt>
      <trkpt lat="42.83802" lon="0.19301">
        <ele>1959.3</ele>
        <time>2013-08-15T09:15:55Z</time>
      </trkpt>
      <trkpt lat="42.83803" lon="0.19298">
        <ele>1960.75</ele>
        <time>2013-08-15T09:16:08Z</time>
      </trkpt>
      <trkpt lat="42.83803" lon="0.19298">
        <ele>1961.23</ele>
        <time>2013-08-15T09:16:25Z</time>
      </trkpt>
      <trkpt lat="42.83803" lon="0.19298">
        <ele>1962.67</ele>
        <time>2013-08-15T09:16:40Z</time>
      </trkpt>
      <trkpt lat="42.83804" lon="0.19298">
        <ele>1963.63</ele>
        <time>2013-08-15T09:16:57Z</time>
      </trkpt>
      <trkpt lat="42.83804" lon="0.19298">
        <ele>1965.07</ele>
        <time>2013-08-15T09:17:15Z</time>
      </trkpt>
      <trkpt lat="42.83808" lon="0.19296">
        <ele>1966.51</ele>
        <time>2013-08-15T09:17:31Z</time>
      </trkpt>
      <trkpt lat="42.83808" lon="0.19296">
        <ele>1966.99</ele>
        <time>2013-08-15T09:17:46Z</time>
      </trkpt>
      <trkpt lat="42.83808" lon="0.19296">
        <ele>1968.44</ele>
        <time>2013-08-15T09:18:04Z</time>
      </trkpt>
      <trkpt lat="42.83808" lon="0.19296">
        <ele>1969.4</ele>
        <time>2013-08-15T09:18:20Z</time>
      </trkpt>
      <trkpt lat="42.83808" lon="0.19296">
        <ele>1969.4</ele>
        <time>2013-08-15T09:18:37Z</time>
      </trkpt>
      <trkpt lat="42.83808" lon="0.19295">
        <ele>1970.84</ele>
        <time>2013-08-15T09:18:55Z</time>
      </trkpt>
      <trkpt lat="42.83808" lon="0.19295">
        <ele>1970.84</ele>
        <time>2013-08-15T09:19:09Z</time>
      </trkpt>
      <trkpt lat="42.83808" lon="0.19295">
        <ele>1972.28</ele>
        <time>2013-08-15T09:19:26Z</time>
      </trkpt>
      <trkpt lat="42.83808" lon="0.19295">
        <ele>1973.24</ele>
        <time>2013-08-15T09:19:41Z</time>
      </trkpt>
      <trkpt lat="42.83808" lon="0.19295">
        <ele>1974.2</ele>
        <time>2013-08-15T09:19:58Z</time>
      </trkpt>
      <trkpt lat="42.83808" lon="0.19294">
        <ele>1975.65</ele>
        <time>2013-08-15T09:20:13Z</time>
      </trkpt>
      <trkpt lat="42.83808" lon="0.19294">
        <ele>1977.09</ele>
        <time>2013-08-15T09:20:30Z</time>
      </trkpt>
      <trkpt lat="42.83807" lon="0.19292">
        <ele>1978.05</ele>
        <time>2013-08-15T09:20:46Z</time>
      </trkpt>
      <trkpt lat="42.83807" lon="0.19292">
        <ele>1979.49</ele>
        <time>2013-08-15T09:21:04Z</time>
      </trkpt>
      <trkpt lat="42.83806" lon="0.19291">
        <ele>1980.45</ele>
        <time>2013-08-15T09:21:21Z</time>
      </trkpt>
      <trkpt lat="42.83806" lon="0.19291">
        <ele>1981.9</ele>
        <time>2013-08-15T09:21:39Z</time>
      </trkpt>
      <trkpt lat="42.83806" lon="0.19291">
        <ele>1982.86</ele>
        <time>2013-08-15T09:21:52Z</time>
      </trkpt>
      <trkpt lat="42.83806" lon="0.1929">
        <ele>1983.82</ele>
        <time>2013-08-15T09:22:11Z</time>
      </trkpt>
      <trkpt lat="42.83806" lon="0.1929">
        <ele>1983.82</ele>
        <time>2013-08-15T09:22:25Z</time>
      </trkpt>
      <trkpt lat="42.83806" lon="0.19276">
        <ele>1985.74</ele>
        <time>2013-08-15T09:22:39Z</time>
      </trkpt>
      <trkpt lat="42.83806" lon="0.19276">
        <ele>1986.22</ele>
        <time>2013-08-15T09:22:52Z</time>
      </trkpt>
      <trkpt lat="42.83806" lon="0.19277">
        <ele>1987.18</ele>
        <time>2013-08-15T09:23:09Z</time>
      </trkpt>
      <trkpt lat="42.83806" lon="0.19268">
        <ele>1988.14</ele>
        <time>2013-08-15T09:23:20Z</time>
      </trkpt>
      <trkpt lat="42.83806" lon="0.19268">
        <ele>1989.1</ele>
        <time>2013-08-15T09:23:32Z</time>
      </trkpt>
      <trkpt lat="42.83806" lon="0.19268">
        <ele>1989.59</ele>
        <time>2013-08-15T09:23:47Z</time>
      </trkpt>
      <trkpt lat="42.83806" lon="0.19266">
        <ele>1991.03</ele>
        <time>2013-08-15T09:24:01Z</time>
      </trkpt>
      <trkpt lat="42.83806" lon="0.19266">
        <ele>1991.51</ele>
        <time>2013-08-15T09:24:12Z</time>
      </trkpt>
      <trkpt lat="42.83806" lon="0.19266">
        <ele>1991.51</ele>
        <time>2013-08-15T09:24:27Z</time>
      </trkpt>
      <trkpt lat="42.83807" lon="0.19259">
        <ele>1992.47</ele>
        <time>2013-08-15T09:24:41Z</time>
      </trkpt>
      <trkpt lat="42.83807" lon="0.19259">
        <ele>1993.91</ele>
        <time>2013-08-15T09:24:54Z</time>
      </trkpt>
      <trkpt lat="42.83807" lon="0.19259">
        <ele>1994.39</ele>
        <time>2013-08-15T09:25:07Z</time>
      </trkpt>
      <trkpt lat="42.83807" lon="0.19255">
        <ele>1994.87</ele>
        <time>2013-08-15T09:25:19Z</time>
      </trkpt>
      <trkpt lat="42.83807" lon="0.19255">
        <ele>1994.87</ele>
        <time>2013-08-15T09:25:34Z</time>
      </trkpt>
      <trkpt lat="42.83807" lon="0.19255">
        <ele>1995.35</ele>
        <time>2013-08-15T09:25:48Z</time>
      </trkpt>
      <trkpt lat="42.83814" lon="0.19214">
        <ele>1995.83</ele>
        <time>2013-08-15T09:25:58Z</time>
      </trkpt>
      <trkpt lat="42.83815" lon="0.19204">
        <ele>1995.35</ele>
        <time>2013-08-15T09:26:15Z</time>
      </trkpt>
      <trkpt lat="42.83815" lon="0.19204">
        <ele>1994.39</ele>
        <time>2013-08-15T09:26:37Z</time>
      </trkpt>
      <trkpt lat="42.83814" lon="0.19202">
        <ele>1998.72</ele>
        <time>2013-08-15T09:26:55Z</time>
      </trkpt>
      <trkpt lat="42.83814" lon="0.19202">
        <ele>1995.35</ele>
        <time>2013-08-15T09:26:56Z</time>
      </trkpt>
      <trkpt lat="42.83814" lon="0.19202">
        <ele>1994.39</ele>
        <time>2013-08-15T09:26:59Z</time>
      </trkpt>
      <trkpt lat="42.83813" lon="0.19201">
        <ele>1992.95</ele>
        <time>2013-08-15T09:27:24Z</time>
      </trkpt>
      <trkpt lat="42.83813" lon="0.19201">
        <ele>1992.47</ele>
        <time>2013-08-15T09:27:43Z</time>
      </trkpt>
      <trkpt lat="42.8381" lon="0.19193">
        <ele>1991.51</ele>
        <time>2013-08-15T09:28:00Z</time>
      </trkpt>
      <trkpt lat="42.8381" lon="0.19193">
        <ele>1991.03</ele>
        <time>2013-08-15T09:28:23Z</time>
      </trkpt>
      <trkpt lat="42.83809" lon="0.1919">
        <ele>1990.07</ele>
        <time>2013-08-15T09:28:51Z</time>
      </trkpt>
      <trkpt lat="42.8381" lon="0.19164">
        <ele>1991.03</ele>
        <time>2013-08-15T09:28:59Z</time>
      </trkpt>
      <trkpt lat="42.83805" lon="0.19136">
        <ele>1991.99</ele>
        <time>2013-08-15T09:29:11Z</time>
      </trkpt>
      <trkpt lat="42.83797" lon="0.19107">
        <ele>1992.47</ele>
        <time>2013-08-15T09:29:22Z</time>
      </trkpt>
      <trkpt lat="42.83795" lon="0.19089">
        <ele>1993.91</ele>
        <time>2013-08-15T09:29:35Z</time>
      </trkpt>
      <trkpt lat="42.83794" lon="0.19083">
        <ele>1994.39</ele>
        <time>2013-08-15T09:29:46Z</time>
      </trkpt>
      <trkpt lat="42.83794" lon="0.19079">
        <ele>1994.87</ele>
        <time>2013-08-15T09:29:52Z</time>
      </trkpt>
      <trkpt lat="42.83791" lon="0.19063">
        <ele>1994.39</ele>
        <time>2013-08-15T09:30:03Z</time>
      </trkpt>
      <trkpt lat="42.83789" lon="0.19055">
        <ele>1995.35</ele>
        <time>2013-08-15T09:30:16Z</time>
      </trkpt>
      <trkpt lat="42.83789" lon="0.19047">
        <ele>1996.32</ele>
        <time>2013-08-15T09:30:26Z</time>
      </trkpt>
      <trkpt lat="42.83788" lon="0.19044">
        <ele>1996.8</ele>
        <time>2013-08-15T09:30:38Z</time>
      </trkpt>
      <trkpt lat="42.83787" lon="0.1904">
        <ele>1996.8</ele>
        <time>2013-08-15T09:30:40Z</time>
      </trkpt>
      <trkpt lat="42.8378" lon="0.19034">
        <ele>1997.76</ele>
        <time>2013-08-15T09:30:50Z</time>
      </trkpt>
      <trkpt lat="42.83777" lon="0.19026">
        <ele>1998.72</ele>
        <time>2013-08-15T09:31:03Z</time>
      </trkpt>
      <trkpt lat="42.83776" lon="0.19023">
        <ele>2000.16</ele>
        <time>2013-08-15T09:31:14Z</time>
      </trkpt>
      <trkpt lat="42.83776" lon="0.19018">
        <ele>2001.6</ele>
        <time>2013-08-15T09:31:26Z</time>
      </trkpt>
      <trkpt lat="42.83776" lon="0.19012">
        <ele>2002.56</ele>
        <time>2013-08-15T09:31:36Z</time>
      </trkpt>
      <trkpt lat="42.83779" lon="0.19007">
        <ele>2004.01</ele>
        <time>2013-08-15T09:31:49Z</time>
      </trkpt>
      <trkpt lat="42.8378" lon="0.19003">
        <ele>2005.45</ele>
        <time>2013-08-15T09:32:02Z</time>
      </trkpt>
      <trkpt lat="42.83782" lon="0.18996">
        <ele>2006.41</ele>
        <time>2013-08-15T09:32:14Z</time>
      </trkpt>
      <trkpt lat="42.83781" lon="0.1899">
        <ele>2008.81</ele>
        <time>2013-08-15T09:32:30Z</time>
      </trkpt>
      <trkpt lat="42.83783" lon="0.18981">
        <ele>2009.77</ele>
        <time>2013-08-15T09:32:48Z</time>
      </trkpt>
      <trkpt lat="42.83784" lon="0.18975">
        <ele>2010.73</ele>
        <time>2013-08-15T09:33:02Z</time>
      </trkpt>
      <trkpt lat="42.83789" lon="0.18962">
        <ele>2012.66</ele>
        <time>2013-08-15T09:33:16Z</time>
      </trkpt>
      <trkpt lat="42.83789" lon="0.18951">
        <ele>2014.58</ele>
        <time>2013-08-15T09:33:31Z</time>
      </trkpt>
      <trkpt lat="42.8379" lon="0.18951">
        <ele>2015.54</ele>
        <time>2013-08-15T09:33:47Z</time>
      </trkpt>
      <trkpt lat="42.838" lon="0.18948">
        <ele>2016.5</ele>
        <time>2013-08-15T09:33:58Z</time>
      </trkpt>
      <trkpt lat="42.8381" lon="0.18943">
        <ele>2018.43</ele>
        <time>2013-08-15T09:34:19Z</time>
      </trkpt>
      <trkpt lat="42.83814" lon="0.18942">
        <ele>2019.39</ele>
        <time>2013-08-15T09:34:32Z</time>
      </trkpt>
      <trkpt lat="42.83819" lon="0.18939">
        <ele>2021.31</ele>
        <time>2013-08-15T09:34:44Z</time>
      </trkpt>
      <trkpt lat="42.83822" lon="0.1893">
        <ele>2022.27</ele>
        <time>2013-08-15T09:34:55Z</time>
      </trkpt>
      <trkpt lat="42.83825" lon="0.18926">
        <ele>2023.71</ele>
        <time>2013-08-15T09:35:06Z</time>
      </trkpt>
      <trkpt lat="42.83824" lon="0.18923">
        <ele>2025.15</ele>
        <time>2013-08-15T09:35:17Z</time>
      </trkpt>
      <trkpt lat="42.83831" lon="0.18922">
        <ele>2026.6</ele>
        <time>2013-08-15T09:35:33Z</time>
      </trkpt>
      <trkpt lat="42.83834" lon="0.18921">
        <ele>2027.56</ele>
        <time>2013-08-15T09:35:44Z</time>
      </trkpt>
      <trkpt lat="42.83839" lon="0.18919">
        <ele>2028.52</ele>
        <time>2013-08-15T09:35:53Z</time>
      </trkpt>
      <trkpt lat="42.83847" lon="0.18921">
        <ele>2030.44</ele>
        <time>2013-08-15T09:36:09Z</time>
      </trkpt>
      <trkpt lat="42.83851" lon="0.18922">
        <ele>2031.4</ele>
        <time>2013-08-15T09:36:21Z</time>
      </trkpt>
      <trkpt lat="42.8385" lon="0.18917">
        <ele>2032.84</ele>
        <time>2013-08-15T09:36:32Z</time>
      </trkpt>
      <trkpt lat="42.83853" lon="0.18914">
        <ele>2033.81</ele>
        <time>2013-08-15T09:36:44Z</time>
      </trkpt>
      <trkpt lat="42.83855" lon="0.18908">
        <ele>2035.25</ele>
        <time>2013-08-15T09:36:59Z</time>
      </trkpt>
      <trkpt lat="42.8386" lon="0.18905">
        <ele>2037.17</ele>
        <time>2013-08-15T09:37:17Z</time>
      </trkpt>
      <trkpt lat="42.83863" lon="0.18901">
        <ele>2038.61</ele>
        <time>2013-08-15T09:37:31Z</time>
      </trkpt>
      <trkpt lat="42.83867" lon="0.18899">
        <ele>2039.57</ele>
        <time>2013-08-15T09:37:41Z</time>
      </trkpt>
      <trkpt lat="42.83868" lon="0.18898">
        <ele>2040.54</ele>
        <time>2013-08-15T09:37:48Z</time>
      </trkpt>
      <trkpt lat="42.8387" lon="0.18895">
        <ele>2041.5</ele>
        <time>2013-08-15T09:38:00Z</time>
      </trkpt>
      <trkpt lat="42.83876" lon="0.18891">
        <ele>2043.9</ele>
        <time>2013-08-15T09:38:14Z</time>
      </trkpt>
      <trkpt lat="42.8388" lon="0.18885">
        <ele>2044.38</ele>
        <time>2013-08-15T09:38:29Z</time>
      </trkpt>
      <trkpt lat="42.83887" lon="0.18884">
        <ele>2045.34</ele>
        <time>2013-08-15T09:38:40Z</time>
      </trkpt>
      <trkpt lat="42.8389" lon="0.18881">
        <ele>2046.78</ele>
        <time>2013-08-15T09:38:50Z</time>
      </trkpt>
      <trkpt lat="42.83891" lon="0.18882">
        <ele>2048.23</ele>
        <time>2013-08-15T09:39:10Z</time>
      </trkpt>
      <trkpt lat="42.83897" lon="0.18883">
        <ele>2050.15</ele>
        <time>2013-08-15T09:39:22Z</time>
      </trkpt>
      <trkpt lat="42.83897" lon="0.1888">
        <ele>2052.55</ele>
        <time>2013-08-15T09:39:37Z</time>
      </trkpt>
      <trkpt lat="42.83898" lon="0.18876">
        <ele>2053.03</ele>
        <time>2013-08-15T09:39:53Z</time>
      </trkpt>
      <trkpt lat="42.83901" lon="0.18868">
        <ele>2043.9</ele>
        <time>2013-08-15T09:40:02Z</time>
      </trkpt>
      <trkpt lat="42.83901" lon="0.18868">
        <ele>2057.36</ele>
        <time>2013-08-15T09:40:03Z</time>
      </trkpt>
      <trkpt lat="42.83901" lon="0.18868">
        <ele>2056.4</ele>
        <time>2013-08-15T09:40:04Z</time>
      </trkpt>
      <trkpt lat="42.83901" lon="0.18867">
        <ele>2050.63</ele>
        <time>2013-08-15T09:40:05Z</time>
      </trkpt>
      <trkpt lat="42.83901" lon="0.18867">
        <ele>2054.47</ele>
        <time>2013-08-15T09:40:06Z</time>
      </trkpt>
      <trkpt lat="42.83901" lon="0.18867">
        <ele>2060.24</ele>
        <time>2013-08-15T09:40:07Z</time>
      </trkpt>
      <trkpt lat="42.83901" lon="0.18867">
        <ele>2053.51</ele>
        <time>2013-08-15T09:40:08Z</time>
      </trkpt>
      <trkpt lat="42.83901" lon="0.18867">
        <ele>2057.84</ele>
        <time>2013-08-15T09:40:11Z</time>
      </trkpt>
      <trkpt lat="42.83901" lon="0.18867">
        <ele>2053.99</ele>
        <time>2013-08-15T09:40:12Z</time>
      </trkpt>
      <trkpt lat="42.83904" lon="0.18857">
        <ele>2056.4</ele>
        <time>2013-08-15T09:40:28Z</time>
      </trkpt>
      <trkpt lat="42.83908" lon="0.18852">
        <ele>2057.84</ele>
        <time>2013-08-15T09:40:41Z</time>
      </trkpt>
      <trkpt lat="42.83911" lon="0.18849">
        <ele>2059.76</ele>
        <time>2013-08-15T09:40:56Z</time>
      </trkpt>
      <trkpt lat="42.83913" lon="0.18846">
        <ele>2060.72</ele>
        <time>2013-08-15T09:41:08Z</time>
      </trkpt>
      <trkpt lat="42.83914" lon="0.18845">
        <ele>2062.65</ele>
        <time>2013-08-15T09:41:21Z</time>
      </trkpt>
      <trkpt lat="42.83918" lon="0.18841">
        <ele>2064.09</ele>
        <time>2013-08-15T09:41:32Z</time>
      </trkpt>
      <trkpt lat="42.83919" lon="0.1884">
        <ele>2064.57</ele>
        <time>2013-08-15T09:41:42Z</time>
      </trkpt>
      <trkpt lat="42.8393" lon="0.18836">
        <ele>2066.49</ele>
        <time>2013-08-15T09:41:55Z</time>
      </trkpt>
      <trkpt lat="42.83932" lon="0.18832">
        <ele>2067.45</ele>
        <time>2013-08-15T09:42:10Z</time>
      </trkpt>
      <trkpt lat="42.83934" lon="0.18825">
        <ele>2068.89</ele>
        <time>2013-08-15T09:42:21Z</time>
      </trkpt>
      <trkpt lat="42.83939" lon="0.18824">
        <ele>2070.34</ele>
        <time>2013-08-15T09:42:37Z</time>
      </trkpt>
      <trkpt lat="42.83944" lon="0.1882">
        <ele>2071.3</ele>
        <time>2013-08-15T09:42:50Z</time>
      </trkpt>
      <trkpt lat="42.83946" lon="0.18814">
        <ele>2072.74</ele>
        <time>2013-08-15T09:43:05Z</time>
      </trkpt>
      <trkpt lat="42.83946" lon="0.1881">
        <ele>2073.7</ele>
        <time>2013-08-15T09:43:18Z</time>
      </trkpt>
      <trkpt lat="42.83951" lon="0.18802">
        <ele>2075.14</ele>
        <time>2013-08-15T09:43:30Z</time>
      </trkpt>
      <trkpt lat="42.83953" lon="0.188">
        <ele>2076.1</ele>
        <time>2013-08-15T09:43:45Z</time>
      </trkpt>
      <trkpt lat="42.83956" lon="0.18796">
        <ele>2078.03</ele>
        <time>2013-08-15T09:43:58Z</time>
      </trkpt>
      <trkpt lat="42.83962" lon="0.18791">
        <ele>2079.47</ele>
        <time>2013-08-15T09:44:10Z</time>
      </trkpt>
      <trkpt lat="42.83966" lon="0.18788">
        <ele>2081.39</ele>
        <time>2013-08-15T09:44:27Z</time>
      </trkpt>
      <trkpt lat="42.8397" lon="0.18782">
        <ele>2083.31</ele>
        <time>2013-08-15T09:44:41Z</time>
      </trkpt>
      <trkpt lat="42.83973" lon="0.18775">
        <ele>2083.31</ele>
        <time>2013-08-15T09:44:51Z</time>
      </trkpt>
      <trkpt lat="42.83976" lon="0.18771">
        <ele>2084.76</ele>
        <time>2013-08-15T09:45:05Z</time>
      </trkpt>
      <trkpt lat="42.83982" lon="0.18761">
        <ele>2086.2</ele>
        <time>2013-08-15T09:45:19Z</time>
      </trkpt>
      <trkpt lat="42.83985" lon="0.18757">
        <ele>2088.12</ele>
        <time>2013-08-15T09:45:33Z</time>
      </trkpt>
      <trkpt lat="42.83987" lon="0.18755">
        <ele>2089.56</ele>
        <time>2013-08-15T09:45:45Z</time>
      </trkpt>
      <trkpt lat="42.83986" lon="0.18746">
        <ele>2090.52</ele>
        <time>2013-08-15T09:46:02Z</time>
      </trkpt>
      <trkpt lat="42.83988" lon="0.18738">
        <ele>2091.49</ele>
        <time>2013-08-15T09:46:17Z</time>
      </trkpt>
      <trkpt lat="42.83994" lon="0.18737">
        <ele>2092.45</ele>
        <time>2013-08-15T09:46:29Z</time>
      </trkpt>
      <trkpt lat="42.84001" lon="0.18736">
        <ele>2094.37</ele>
        <time>2013-08-15T09:46:42Z</time>
      </trkpt>
      <trkpt lat="42.84001" lon="0.18731">
        <ele>2095.33</ele>
        <time>2013-08-15T09:46:52Z</time>
      </trkpt>
      <trkpt lat="42.84004" lon="0.18725">
        <ele>2097.73</ele>
        <time>2013-08-15T09:47:06Z</time>
      </trkpt>
      <trkpt lat="42.84006" lon="0.18722">
        <ele>2099.18</ele>
        <time>2013-08-15T09:47:16Z</time>
      </trkpt>
      <trkpt lat="42.84007" lon="0.18718">
        <ele>2100.14</ele>
        <time>2013-08-15T09:47:27Z</time>
      </trkpt>
      <trkpt lat="42.84008" lon="0.18711">
        <ele>2102.06</ele>
        <time>2013-08-15T09:47:39Z</time>
      </trkpt>
      <trkpt lat="42.8401" lon="0.18708">
        <ele>2103.5</ele>
        <time>2013-08-15T09:47:52Z</time>
      </trkpt>
      <trkpt lat="42.84011" lon="0.18701">
        <ele>2104.94</ele>
        <time>2013-08-15T09:48:04Z</time>
      </trkpt>
      <trkpt lat="42.84011" lon="0.18701">
        <ele>2105.42</ele>
        <time>2013-08-15T09:48:15Z</time>
      </trkpt>
      <trkpt lat="42.84011" lon="0.18696">
        <ele>2105.91</ele>
        <time>2013-08-15T09:48:28Z</time>
      </trkpt>
      <trkpt lat="42.84013" lon="0.18676">
        <ele>2106.39</ele>
        <time>2013-08-15T09:48:42Z</time>
      </trkpt>
      <trkpt lat="42.84017" lon="0.18661">
        <ele>2106.39</ele>
        <time>2013-08-15T09:48:56Z</time>
      </trkpt>
      <trkpt lat="42.84023" lon="0.18648">
        <ele>2106.87</ele>
        <time>2013-08-15T09:49:08Z</time>
      </trkpt>
      <trkpt lat="42.84025" lon="0.18638">
        <ele>2105.91</ele>
        <time>2013-08-15T09:49:20Z</time>
      </trkpt>
      <trkpt lat="42.84033" lon="0.18628">
        <ele>2105.91</ele>
        <time>2013-08-15T09:49:33Z</time>
      </trkpt>
      <trkpt lat="42.84039" lon="0.18613">
        <ele>2104.94</ele>
        <time>2013-08-15T09:49:48Z</time>
      </trkpt>
      <trkpt lat="42.84046" lon="0.18609">
        <ele>2105.42</ele>
        <time>2013-08-15T09:50:00Z</time>
      </trkpt>
      <trkpt lat="42.84051" lon="0.18596">
        <ele>2105.91</ele>
        <time>2013-08-15T09:50:14Z</time>
      </trkpt>
      <trkpt lat="42.84056" lon="0.1858">
        <ele>2105.42</ele>
        <time>2013-08-15T09:50:27Z</time>
      </trkpt>
      <trkpt lat="42.84059" lon="0.18573">
        <ele>2105.91</ele>
        <time>2013-08-15T09:50:35Z</time>
      </trkpt>
      <trkpt lat="42.84058" lon="0.18571">
        <ele>2105.42</ele>
        <time>2013-08-15T09:50:37Z</time>
      </trkpt>
      <trkpt lat="42.84062" lon="0.18552">
        <ele>2103.5</ele>
        <time>2013-08-15T09:50:53Z</time>
      </trkpt>
      <trkpt lat="42.84061" lon="0.18536">
        <ele>2103.5</ele>
        <time>2013-08-15T09:51:06Z</time>
      </trkpt>
      <trkpt lat="42.84063" lon="0.18523">
        <ele>2102.06</ele>
        <time>2013-08-15T09:51:18Z</time>
      </trkpt>
      <trkpt lat="42.84065" lon="0.18516">
        <ele>2100.62</ele>
        <time>2013-08-15T09:51:33Z</time>
      </trkpt>
      <trkpt lat="42.84067" lon="0.18506">
        <ele>2099.66</ele>
        <time>2013-08-15T09:51:46Z</time>
      </trkpt>
      <trkpt lat="42.84068" lon="0.18502">
        <ele>2097.73</ele>
        <time>2013-08-15T09:52:00Z</time>
      </trkpt>
      <trkpt lat="42.84067" lon="0.18495">
        <ele>2097.25</ele>
        <time>2013-08-15T09:52:07Z</time>
      </trkpt>
      <trkpt lat="42.84069" lon="0.18477">
        <ele>2095.81</ele>
        <time>2013-08-15T09:52:23Z</time>
      </trkpt>
      <trkpt lat="42.84073" lon="0.18473">
        <ele>2094.37</ele>
        <time>2013-08-15T09:52:35Z</time>
      </trkpt>
      <trkpt lat="42.84079" lon="0.18465">
        <ele>2092.93</ele>
        <time>2013-08-15T09:52:48Z</time>
      </trkpt>
      <trkpt lat="42.84084" lon="0.18459">
        <ele>2091.49</ele>
        <time>2013-08-15T09:53:02Z</time>
      </trkpt>
      <trkpt lat="42.84086" lon="0.18441">
        <ele>2090.52</ele>
        <time>2013-08-15T09:53:16Z</time>
      </trkpt>
      <trkpt lat="42.8409" lon="0.18427">
        <ele>2090.04</ele>
        <time>2013-08-15T09:53:32Z</time>
      </trkpt>
      <trkpt lat="42.84097" lon="0.18415">
        <ele>2089.08</ele>
        <time>2013-08-15T09:53:46Z</time>
      </trkpt>
      <trkpt lat="42.84107" lon="0.18409">
        <ele>2088.12</ele>
        <time>2013-08-15T09:53:59Z</time>
      </trkpt>
      <trkpt lat="42.84104" lon="0.184">
        <ele>2087.16</ele>
        <time>2013-08-15T09:54:16Z</time>
      </trkpt>
      <trkpt lat="42.84106" lon="0.18385">
        <ele>2084.76</ele>
        <time>2013-08-15T09:54:34Z</time>
      </trkpt>
      <trkpt lat="42.84113" lon="0.18371">
        <ele>2084.28</ele>
        <time>2013-08-15T09:54:46Z</time>
      </trkpt>
      <trkpt lat="42.84115" lon="0.18357">
        <ele>2083.31</ele>
        <time>2013-08-15T09:54:58Z</time>
      </trkpt>
      <trkpt lat="42.84115" lon="0.18351">
        <ele>2083.31</ele>
        <time>2013-08-15T09:55:03Z</time>
      </trkpt>
      <trkpt lat="42.84113" lon="0.18338">
        <ele>2082.83</ele>
        <time>2013-08-15T09:55:14Z</time>
      </trkpt>
      <trkpt lat="42.84109" lon="0.18323">
        <ele>2083.31</ele>
        <time>2013-08-15T09:55:26Z</time>
      </trkpt>
      <trkpt lat="42.84108" lon="0.18318">
        <ele>2083.79</ele>
        <time>2013-08-15T09:55:36Z</time>
      </trkpt>
      <trkpt lat="42.841" lon="0.18313">
        <ele>2081.39</ele>
        <time>2013-08-15T09:55:51Z</time>
      </trkpt>
      <trkpt lat="42.84091" lon="0.1831">
        <ele>2081.39</ele>
        <time>2013-08-15T09:56:05Z</time>
      </trkpt>
      <trkpt lat="42.8409" lon="0.1831">
        <ele>2081.39</ele>
        <time>2013-08-15T09:56:07Z</time>
      </trkpt>
      <trkpt lat="42.84082" lon="0.18306">
        <ele>2081.39</ele>
        <time>2013-08-15T09:56:21Z</time>
      </trkpt>
      <trkpt lat="42.8408" lon="0.183">
        <ele>2081.39</ele>
        <time>2013-08-15T09:56:32Z</time>
      </trkpt>
      <trkpt lat="42.84075" lon="0.18282">
        <ele>2080.91</ele>
        <time>2013-08-15T09:56:47Z</time>
      </trkpt>
      <trkpt lat="42.84071" lon="0.1827">
        <ele>2081.39</ele>
        <time>2013-08-15T09:56:59Z</time>
      </trkpt>
      <trkpt lat="42.84073" lon="0.18267">
        <ele>2080.43</ele>
        <time>2013-08-15T09:57:12Z</time>
      </trkpt>
      <trkpt lat="42.84072" lon="0.18255">
        <ele>2080.91</ele>
        <time>2013-08-15T09:57:22Z</time>
      </trkpt>
      <trkpt lat="42.84073" lon="0.18242">
        <ele>2081.39</ele>
        <time>2013-08-15T09:57:34Z</time>
      </trkpt>
      <trkpt lat="42.84071" lon="0.18226">
        <ele>2081.39</ele>
        <time>2013-08-15T09:57:50Z</time>
      </trkpt>
      <trkpt lat="42.84068" lon="0.18219">
        <ele>2081.39</ele>
        <time>2013-08-15T09:58:02Z</time>
      </trkpt>
      <trkpt lat="42.84065" lon="0.18211">
        <ele>2080.91</ele>
        <time>2013-08-15T09:58:15Z</time>
      </trkpt>
      <trkpt lat="42.84065" lon="0.18211">
        <ele>2080.91</ele>
        <time>2013-08-15T09:58:34Z</time>
      </trkpt>
      <trkpt lat="42.84067" lon="0.18212">
        <ele>2080.91</ele>
        <time>2013-08-15T09:58:51Z</time>
      </trkpt>
      <trkpt lat="42.84066" lon="0.18211">
        <ele>2081.39</ele>
        <time>2013-08-15T09:59:05Z</time>
      </trkpt>
      <trkpt lat="42.84066" lon="0.18211">
        <ele>2081.87</ele>
        <time>2013-08-15T09:59:27Z</time>
      </trkpt>
      <trkpt lat="42.84067" lon="0.1821">
        <ele>2081.39</ele>
        <time>2013-08-15T09:59:46Z</time>
      </trkpt>
      <trkpt lat="42.84067" lon="0.1821">
        <ele>2075.14</ele>
        <time>2013-08-15T09:59:55Z</time>
      </trkpt>
      <trkpt lat="42.84067" lon="0.1821">
        <ele>2081.39</ele>
        <time>2013-08-15T09:59:56Z</time>
      </trkpt>
      <trkpt lat="42.84067" lon="0.1821">
        <ele>2082.35</ele>
        <time>2013-08-15T10:00:21Z</time>
      </trkpt>
      <trkpt lat="42.84067" lon="0.1821">
        <ele>2082.35</ele>
        <time>2013-08-15T10:00:46Z</time>
      </trkpt>
      <trkpt lat="42.84067" lon="0.1821">
        <ele>2082.83</ele>
        <time>2013-08-15T10:01:10Z</time>
      </trkpt>
      <trkpt lat="42.84067" lon="0.1821">
        <ele>2082.83</ele>
        <time>2013-08-15T10:01:30Z</time>
      </trkpt>
      <trkpt lat="42.84067" lon="0.1821">
        <ele>2083.79</ele>
        <time>2013-08-15T10:01:56Z</time>
      </trkpt>
      <trkpt lat="42.84067" lon="0.18209">
        <ele>2083.79</ele>
        <time>2013-08-15T10:02:21Z</time>
      </trkpt>
      <trkpt lat="42.84067" lon="0.18209">
        <ele>2084.76</ele>
        <time>2013-08-15T10:02:45Z</time>
      </trkpt>
      <trkpt lat="42.84067" lon="0.18209">
        <ele>2083.79</ele>
        <time>2013-08-15T10:03:11Z</time>
      </trkpt>
      <trkpt lat="42.84067" lon="0.18209">
        <ele>2084.28</ele>
        <time>2013-08-15T10:03:38Z</time>
      </trkpt>
      <trkpt lat="42.84067" lon="0.18209">
        <ele>2084.76</ele>
        <time>2013-08-15T10:04:05Z</time>
      </trkpt>
      <trkpt lat="42.84067" lon="0.18209">
        <ele>2084.76</ele>
        <time>2013-08-15T10:04:33Z</time>
      </trkpt>
      <trkpt lat="42.84067" lon="0.18209">
        <ele>2085.24</ele>
        <time>2013-08-15T10:05:02Z</time>
      </trkpt>
      <trkpt lat="42.84067" lon="0.18209">
        <ele>2085.72</ele>
        <time>2013-08-15T10:05:28Z</time>
      </trkpt>
      <trkpt lat="42.84067" lon="0.18209">
        <ele>2086.68</ele>
        <time>2013-08-15T10:06:00Z</time>
      </trkpt>
      <trkpt lat="42.84067" lon="0.18209">
        <ele>2086.2</ele>
        <time>2013-08-15T10:06:28Z</time>
      </trkpt>
      <trkpt lat="42.84067" lon="0.18209">
        <ele>2086.2</ele>
        <time>2013-08-15T10:06:47Z</time>
      </trkpt>
      <trkpt lat="42.84067" lon="0.18209">
        <ele>2086.2</ele>
        <time>2013-08-15T10:07:06Z</time>
      </trkpt>
      <trkpt lat="42.84067" lon="0.18209">
        <ele>2086.2</ele>
        <time>2013-08-15T10:07:25Z</time>
      </trkpt>
      <trkpt lat="42.84067" lon="0.18209">
        <ele>2086.68</ele>
        <time>2013-08-15T10:07:45Z</time>
      </trkpt>
      <trkpt lat="42.84067" lon="0.1821">
        <ele>2086.2</ele>
        <time>2013-08-15T10:08:00Z</time>
      </trkpt>
      <trkpt lat="42.84067" lon="0.1821">
        <ele>2087.16</ele>
        <time>2013-08-15T10:08:12Z</time>
      </trkpt>
      <trkpt lat="42.84068" lon="0.1821">
        <ele>2087.64</ele>
        <time>2013-08-15T10:08:39Z</time>
      </trkpt>
      <trkpt lat="42.84068" lon="0.1821">
        <ele>2091.49</ele>
        <time>2013-08-15T10:08:58Z</time>
      </trkpt>
      <trkpt lat="42.84068" lon="0.1821">
        <ele>2090.52</ele>
        <time>2013-08-15T10:08:59Z</time>
      </trkpt>
      <trkpt lat="42.84068" lon="0.1821">
        <ele>2084.76</ele>
        <time>2013-08-15T10:09:03Z</time>
      </trkpt>
      <trkpt lat="42.84068" lon="0.1821">
        <ele>2092.93</ele>
        <time>2013-08-15T10:09:04Z</time>
      </trkpt>
      <trkpt lat="42.84068" lon="0.1821">
        <ele>2088.12</ele>
        <time>2013-08-15T10:09:05Z</time>
      </trkpt>
      <trkpt lat="42.84066" lon="0.1821">
        <ele>2089.08</ele>
        <time>2013-08-15T10:09:20Z</time>
      </trkpt>
      <trkpt lat="42.84064" lon="0.18208">
        <ele>2089.08</ele>
        <time>2013-08-15T10:09:34Z</time>
      </trkpt>
      <trkpt lat="42.84062" lon="0.18206">
        <ele>2088.6</ele>
        <time>2013-08-15T10:09:49Z</time>
      </trkpt>
      <trkpt lat="42.84062" lon="0.1821">
        <ele>2089.08</ele>
        <time>2013-08-15T10:10:03Z</time>
      </trkpt>
      <trkpt lat="42.84055" lon="0.18212">
        <ele>2089.56</ele>
        <time>2013-08-15T10:10:14Z</time>
      </trkpt>
      <trkpt lat="42.8405" lon="0.18205">
        <ele>2090.52</ele>
        <time>2013-08-15T10:10:29Z</time>
      </trkpt>
      <trkpt lat="42.84042" lon="0.18198">
        <ele>2091</ele>
        <time>2013-08-15T10:10:43Z</time>
      </trkpt>
      <trkpt lat="42.84033" lon="0.18193">
        <ele>2091.97</ele>
        <time>2013-08-15T10:11:00Z</time>
      </trkpt>
      <trkpt lat="42.84025" lon="0.18193">
        <ele>2091.49</ele>
        <time>2013-08-15T10:11:17Z</time>
      </trkpt>
      <trkpt lat="42.84017" lon="0.18187">
        <ele>2091.49</ele>
        <time>2013-08-15T10:11:28Z</time>
      </trkpt>
      <trkpt lat="42.84013" lon="0.1818">
        <ele>2091</ele>
        <time>2013-08-15T10:11:42Z</time>
      </trkpt>
      <trkpt lat="42.84009" lon="0.18172">
        <ele>2091.97</ele>
        <time>2013-08-15T10:11:51Z</time>
      </trkpt>
      <trkpt lat="42.84003" lon="0.18164">
        <ele>2091.97</ele>
        <time>2013-08-15T10:12:02Z</time>
      </trkpt>
      <trkpt lat="42.83992" lon="0.18156">
        <ele>2091.49</ele>
        <time>2013-08-15T10:12:17Z</time>
      </trkpt>
      <trkpt lat="42.83985" lon="0.18151">
        <ele>2090.52</ele>
        <time>2013-08-15T10:12:29Z</time>
      </trkpt>
      <trkpt lat="42.83981" lon="0.18147">
        <ele>2091</ele>
        <time>2013-08-15T10:12:39Z</time>
      </trkpt>
      <trkpt lat="42.83978" lon="0.18138">
        <ele>2090.52</ele>
        <time>2013-08-15T10:12:51Z</time>
      </trkpt>
      <trkpt lat="42.83973" lon="0.18134">
        <ele>2091</ele>
        <time>2013-08-15T10:13:04Z</time>
      </trkpt>
      <trkpt lat="42.83969" lon="0.18127">
        <ele>2091</ele>
        <time>2013-08-15T10:13:15Z</time>
      </trkpt>
      <trkpt lat="42.83969" lon="0.18126">
        <ele>2090.52</ele>
        <time>2013-08-15T10:13:17Z</time>
      </trkpt>
      <trkpt lat="42.83968" lon="0.1812">
        <ele>2090.52</ele>
        <time>2013-08-15T10:13:30Z</time>
      </trkpt>
      <trkpt lat="42.83968" lon="0.18118">
        <ele>2090.52</ele>
        <time>2013-08-15T10:13:43Z</time>
      </trkpt>
      <trkpt lat="42.83967" lon="0.1812">
        <ele>2090.52</ele>
        <time>2013-08-15T10:13:56Z</time>
      </trkpt>
      <trkpt lat="42.83967" lon="0.1812">
        <ele>2090.52</ele>
        <time>2013-08-15T10:14:08Z</time>
      </trkpt>
      <trkpt lat="42.83966" lon="0.18119">
        <ele>2090.52</ele>
        <time>2013-08-15T10:14:16Z</time>
      </trkpt>
      <trkpt lat="42.83967" lon="0.18117">
        <ele>2091</ele>
        <time>2013-08-15T10:14:25Z</time>
      </trkpt>
      <trkpt lat="42.83967" lon="0.18116">
        <ele>2091.49</ele>
        <time>2013-08-15T10:14:39Z</time>
      </trkpt>
      <trkpt lat="42.83966" lon="0.18121">
        <ele>2091.49</ele>
        <time>2013-08-15T10:14:51Z</time>
      </trkpt>
      <trkpt lat="42.83965" lon="0.18121">
        <ele>2091.49</ele>
        <time>2013-08-15T10:15:03Z</time>
      </trkpt>
      <trkpt lat="42.83965" lon="0.1812">
        <ele>2091.97</ele>
        <time>2013-08-15T10:15:28Z</time>
      </trkpt>
      <trkpt lat="42.83965" lon="0.18118">
        <ele>2091.97</ele>
        <time>2013-08-15T10:15:30Z</time>
      </trkpt>
      <trkpt lat="42.83964" lon="0.18114">
        <ele>2091.97</ele>
        <time>2013-08-15T10:15:41Z</time>
      </trkpt>
      <trkpt lat="42.83964" lon="0.18112">
        <ele>2091.97</ele>
        <time>2013-08-15T10:15:43Z</time>
      </trkpt>
      <trkpt lat="42.83959" lon="0.18103">
        <ele>2091.97</ele>
        <time>2013-08-15T10:15:54Z</time>
      </trkpt>
      <trkpt lat="42.83955" lon="0.18098">
        <ele>2091.97</ele>
        <time>2013-08-15T10:16:05Z</time>
      </trkpt>
      <trkpt lat="42.83953" lon="0.1809">
        <ele>2092.93</ele>
        <time>2013-08-15T10:16:15Z</time>
      </trkpt>
      <trkpt lat="42.83954" lon="0.18086">
        <ele>2092.93</ele>
        <time>2013-08-15T10:16:26Z</time>
      </trkpt>
      <trkpt lat="42.83952" lon="0.18079">
        <ele>2094.85</ele>
        <time>2013-08-15T10:16:35Z</time>
      </trkpt>
      <trkpt lat="42.83952" lon="0.18068">
        <ele>2094.85</ele>
        <time>2013-08-15T10:16:46Z</time>
      </trkpt>
      <trkpt lat="42.83953" lon="0.18058">
        <ele>2094.85</ele>
        <time>2013-08-15T10:16:59Z</time>
      </trkpt>
      <trkpt lat="42.83954" lon="0.18051">
        <ele>2096.29</ele>
        <time>2013-08-15T10:17:08Z</time>
      </trkpt>
      <trkpt lat="42.83952" lon="0.18047">
        <ele>2097.25</ele>
        <time>2013-08-15T10:17:15Z</time>
      </trkpt>
      <trkpt lat="42.83953" lon="0.18042">
        <ele>2098.21</ele>
        <time>2013-08-15T10:17:24Z</time>
      </trkpt>
      <trkpt lat="42.83951" lon="0.18038">
        <ele>2099.18</ele>
        <time>2013-08-15T10:17:36Z</time>
      </trkpt>
      <trkpt lat="42.83948" lon="0.18031">
        <ele>2100.62</ele>
        <time>2013-08-15T10:17:48Z</time>
      </trkpt>
      <trkpt lat="42.83948" lon="0.18025">
        <ele>2101.58</ele>
        <time>2013-08-15T10:17:59Z</time>
      </trkpt>
      <trkpt lat="42.83946" lon="0.1802">
        <ele>2102.06</ele>
        <time>2013-08-15T10:18:07Z</time>
      </trkpt>
      <trkpt lat="42.83942" lon="0.18014">
        <ele>2103.5</ele>
        <time>2013-08-15T10:18:20Z</time>
      </trkpt>
      <trkpt lat="42.83943" lon="0.1801">
        <ele>2104.46</ele>
        <time>2013-08-15T10:18:30Z</time>
      </trkpt>
      <trkpt lat="42.83944" lon="0.18004">
        <ele>2104.94</ele>
        <time>2013-08-15T10:18:41Z</time>
      </trkpt>
      <trkpt lat="42.83944" lon="0.18003">
        <ele>2090.52</ele>
        <time>2013-08-15T10:18:44Z</time>
      </trkpt>
      <trkpt lat="42.83944" lon="0.18003">
        <ele>2107.83</ele>
        <time>2013-08-15T10:18:45Z</time>
      </trkpt>
      <trkpt lat="42.83944" lon="0.18003">
        <ele>2105.42</ele>
        <time>2013-08-15T10:18:48Z</time>
      </trkpt>
      <trkpt lat="42.83943" lon="0.18">
        <ele>2106.87</ele>
        <time>2013-08-15T10:19:02Z</time>
      </trkpt>
      <trkpt lat="42.83945" lon="0.17996">
        <ele>2108.31</ele>
        <time>2013-08-15T10:19:15Z</time>
      </trkpt>
      <trkpt lat="42.83951" lon="0.1799">
        <ele>2108.79</ele>
        <time>2013-08-15T10:19:28Z</time>
      </trkpt>
      <trkpt lat="42.8395" lon="0.17984">
        <ele>2110.23</ele>
        <time>2013-08-15T10:19:40Z</time>
      </trkpt>
      <trkpt lat="42.83949" lon="0.17977">
        <ele>2110.71</ele>
        <time>2013-08-15T10:19:49Z</time>
      </trkpt>
      <trkpt lat="42.83948" lon="0.17971">
        <ele>2113.6</ele>
        <time>2013-08-15T10:19:59Z</time>
      </trkpt>
      <trkpt lat="42.83947" lon="0.17965">
        <ele>2114.56</ele>
        <time>2013-08-15T10:20:10Z</time>
      </trkpt>
      <trkpt lat="42.83946" lon="0.17955">
        <ele>2116.96</ele>
        <time>2013-08-15T10:20:23Z</time>
      </trkpt>
      <trkpt lat="42.83942" lon="0.17952">
        <ele>2116.96</ele>
        <time>2013-08-15T10:20:33Z</time>
      </trkpt>
      <trkpt lat="42.83939" lon="0.17943">
        <ele>2117.44</ele>
        <time>2013-08-15T10:20:53Z</time>
      </trkpt>
      <trkpt lat="42.83944" lon="0.17931">
        <ele>2117.92</ele>
        <time>2013-08-15T10:21:11Z</time>
      </trkpt>
      <trkpt lat="42.83949" lon="0.1792">
        <ele>2118.4</ele>
        <time>2013-08-15T10:21:26Z</time>
      </trkpt>
      <trkpt lat="42.83954" lon="0.17898">
        <ele>2119.84</ele>
        <time>2013-08-15T10:21:44Z</time>
      </trkpt>
      <trkpt lat="42.83957" lon="0.17892">
        <ele>2121.29</ele>
        <time>2013-08-15T10:21:59Z</time>
      </trkpt>
      <trkpt lat="42.83959" lon="0.17891">
        <ele>2123.21</ele>
        <time>2013-08-15T10:22:18Z</time>
      </trkpt>
      <trkpt lat="42.83961" lon="0.17887">
        <ele>2125.13</ele>
        <time>2013-08-15T10:22:33Z</time>
      </trkpt>
      <trkpt lat="42.83969" lon="0.17873">
        <ele>2126.57</ele>
        <time>2013-08-15T10:22:47Z</time>
      </trkpt>
      <trkpt lat="42.83974" lon="0.17866">
        <ele>2128.5</ele>
        <time>2013-08-15T10:23:02Z</time>
      </trkpt>
      <trkpt lat="42.83976" lon="0.1786">
        <ele>2128.98</ele>
        <time>2013-08-15T10:23:15Z</time>
      </trkpt>
      <trkpt lat="42.83978" lon="0.17854">
        <ele>2129.94</ele>
        <time>2013-08-15T10:23:26Z</time>
      </trkpt>
      <trkpt lat="42.83978" lon="0.17849">
        <ele>2130.9</ele>
        <time>2013-08-15T10:23:36Z</time>
      </trkpt>
      <trkpt lat="42.83978" lon="0.17846">
        <ele>2132.34</ele>
        <time>2013-08-15T10:23:49Z</time>
      </trkpt>
      <trkpt lat="42.83978" lon="0.17846">
        <ele>2133.3</ele>
        <time>2013-08-15T10:24:00Z</time>
      </trkpt>
      <trkpt lat="42.83978" lon="0.17836">
        <ele>2134.26</ele>
        <time>2013-08-15T10:24:10Z</time>
      </trkpt>
      <trkpt lat="42.83976" lon="0.17828">
        <ele>2136.67</ele>
        <time>2013-08-15T10:24:22Z</time>
      </trkpt>
      <trkpt lat="42.83975" lon="0.17821">
        <ele>2137.15</ele>
        <time>2013-08-15T10:24:35Z</time>
      </trkpt>
      <trkpt lat="42.83977" lon="0.17814">
        <ele>2138.11</ele>
        <time>2013-08-15T10:24:48Z</time>
      </trkpt>
      <trkpt lat="42.83976" lon="0.17807">
        <ele>2140.03</ele>
        <time>2013-08-15T10:25:00Z</time>
      </trkpt>
      <trkpt lat="42.83978" lon="0.17796">
        <ele>2140.03</ele>
        <time>2013-08-15T10:25:15Z</time>
      </trkpt>
      <trkpt lat="42.83984" lon="0.17784">
        <ele>2141.95</ele>
        <time>2013-08-15T10:25:31Z</time>
      </trkpt>
      <trkpt lat="42.83988" lon="0.17778">
        <ele>2143.4</ele>
        <time>2013-08-15T10:25:43Z</time>
      </trkpt>
      <trkpt lat="42.83993" lon="0.17776">
        <ele>2144.36</ele>
        <time>2013-08-15T10:25:55Z</time>
      </trkpt>
      <trkpt lat="42.84002" lon="0.17772">
        <ele>2145.32</ele>
        <time>2013-08-15T10:26:08Z</time>
      </trkpt>
      <trkpt lat="42.84004" lon="0.17766">
        <ele>2147.24</ele>
        <time>2013-08-15T10:26:19Z</time>
      </trkpt>
      <trkpt lat="42.84011" lon="0.17759">
        <ele>2148.2</ele>
        <time>2013-08-15T10:26:34Z</time>
      </trkpt>
      <trkpt lat="42.84015" lon="0.17759">
        <ele>2149.65</ele>
        <time>2013-08-15T10:26:46Z</time>
      </trkpt>
      <trkpt lat="42.84021" lon="0.17752">
        <ele>2150.61</ele>
        <time>2013-08-15T10:27:01Z</time>
      </trkpt>
      <trkpt lat="42.84031" lon="0.17746">
        <ele>2150.13</ele>
        <time>2013-08-15T10:27:15Z</time>
      </trkpt>
      <trkpt lat="42.84041" lon="0.17738">
        <ele>2148.2</ele>
        <time>2013-08-15T10:27:30Z</time>
      </trkpt>
      <trkpt lat="42.84044" lon="0.17726">
        <ele>2149.65</ele>
        <time>2013-08-15T10:27:43Z</time>
      </trkpt>
      <trkpt lat="42.84046" lon="0.1772">
        <ele>2150.61</ele>
        <time>2013-08-15T10:27:52Z</time>
      </trkpt>
      <trkpt lat="42.84049" lon="0.17714">
        <ele>2152.05</ele>
        <time>2013-08-15T10:28:03Z</time>
      </trkpt>
      <trkpt lat="42.84051" lon="0.17707">
        <ele>2153.49</ele>
        <time>2013-08-15T10:28:16Z</time>
      </trkpt>
      <trkpt lat="42.84052" lon="0.177">
        <ele>2154.93</ele>
        <time>2013-08-15T10:28:29Z</time>
      </trkpt>
      <trkpt lat="42.84056" lon="0.17694">
        <ele>2156.37</ele>
        <time>2013-08-15T10:28:42Z</time>
      </trkpt>
      <trkpt lat="42.84061" lon="0.1769">
        <ele>2156.86</ele>
        <time>2013-08-15T10:28:55Z</time>
      </trkpt>
      <trkpt lat="42.84065" lon="0.17684">
        <ele>2158.78</ele>
        <time>2013-08-15T10:29:09Z</time>
      </trkpt>
      <trkpt lat="42.84071" lon="0.17683">
        <ele>2160.22</ele>
        <time>2013-08-15T10:29:20Z</time>
      </trkpt>
      <trkpt lat="42.84074" lon="0.17683">
        <ele>2161.18</ele>
        <time>2013-08-15T10:29:30Z</time>
      </trkpt>
      <trkpt lat="42.84073" lon="0.17679">
        <ele>2162.14</ele>
        <time>2013-08-15T10:29:40Z</time>
      </trkpt>
      <trkpt lat="42.84077" lon="0.17681">
        <ele>2163.58</ele>
        <time>2013-08-15T10:29:50Z</time>
      </trkpt>
      <trkpt lat="42.84086" lon="0.17678">
        <ele>2164.06</ele>
        <time>2013-08-15T10:30:03Z</time>
      </trkpt>
      <trkpt lat="42.84094" lon="0.17668">
        <ele>2164.55</ele>
        <time>2013-08-15T10:30:18Z</time>
      </trkpt>
      <trkpt lat="42.84105" lon="0.17664">
        <ele>2164.55</ele>
        <time>2013-08-15T10:30:34Z</time>
      </trkpt>
      <trkpt lat="42.84118" lon="0.17667">
        <ele>2164.06</ele>
        <time>2013-08-15T10:30:49Z</time>
      </trkpt>
      <trkpt lat="42.84129" lon="0.17663">
        <ele>2163.1</ele>
        <time>2013-08-15T10:31:01Z</time>
      </trkpt>
      <trkpt lat="42.84136" lon="0.17665">
        <ele>2163.58</ele>
        <time>2013-08-15T10:31:15Z</time>
      </trkpt>
      <trkpt lat="42.84142" lon="0.17667">
        <ele>2164.06</ele>
        <time>2013-08-15T10:31:28Z</time>
      </trkpt>
      <trkpt lat="42.84154" lon="0.17668">
        <ele>2163.58</ele>
        <time>2013-08-15T10:31:42Z</time>
      </trkpt>
      <trkpt lat="42.84158" lon="0.17661">
        <ele>2163.1</ele>
        <time>2013-08-15T10:31:50Z</time>
      </trkpt>
      <trkpt lat="42.84163" lon="0.17647">
        <ele>2164.06</ele>
        <time>2013-08-15T10:32:04Z</time>
      </trkpt>
      <trkpt lat="42.84164" lon="0.17635">
        <ele>2163.58</ele>
        <time>2013-08-15T10:32:17Z</time>
      </trkpt>
      <trkpt lat="42.84165" lon="0.17624">
        <ele>2164.06</ele>
        <time>2013-08-15T10:32:29Z</time>
      </trkpt>
      <trkpt lat="42.84169" lon="0.17614">
        <ele>2165.99</ele>
        <time>2013-08-15T10:32:41Z</time>
      </trkpt>
      <trkpt lat="42.84173" lon="0.17603">
        <ele>2166.47</ele>
        <time>2013-08-15T10:32:53Z</time>
      </trkpt>
      <trkpt lat="42.84177" lon="0.17591">
        <ele>2168.39</ele>
        <time>2013-08-15T10:33:09Z</time>
      </trkpt>
      <trkpt lat="42.84184" lon="0.1758">
        <ele>2168.39</ele>
        <time>2013-08-15T10:33:22Z</time>
      </trkpt>
      <trkpt lat="42.84185" lon="0.17579">
        <ele>2168.39</ele>
        <time>2013-08-15T10:33:25Z</time>
      </trkpt>
      <trkpt lat="42.84197" lon="0.17571">
        <ele>2168.39</ele>
        <time>2013-08-15T10:33:41Z</time>
      </trkpt>
      <trkpt lat="42.84202" lon="0.17567">
        <ele>2169.35</ele>
        <time>2013-08-15T10:33:54Z</time>
      </trkpt>
      <trkpt lat="42.84202" lon="0.17566">
        <ele>2169.83</ele>
        <time>2013-08-15T10:34:14Z</time>
      </trkpt>
      <trkpt lat="42.84201" lon="0.1757">
        <ele>2169.83</ele>
        <time>2013-08-15T10:34:25Z</time>
      </trkpt>
      <trkpt lat="42.84205" lon="0.17564">
        <ele>2169.35</ele>
        <time>2013-08-15T10:34:43Z</time>
      </trkpt>
      <trkpt lat="42.84206" lon="0.17564">
        <ele>2159.26</ele>
        <time>2013-08-15T10:34:45Z</time>
      </trkpt>
      <trkpt lat="42.84206" lon="0.17564">
        <ele>2174.16</ele>
        <time>2013-08-15T10:34:46Z</time>
      </trkpt>
      <trkpt lat="42.84206" lon="0.17564">
        <ele>2171.76</ele>
        <time>2013-08-15T10:34:47Z</time>
      </trkpt>
      <trkpt lat="42.84206" lon="0.17564">
        <ele>2169.35</ele>
        <time>2013-08-15T10:34:50Z</time>
      </trkpt>
      <trkpt lat="42.84209" lon="0.17562">
        <ele>2169.35</ele>
        <time>2013-08-15T10:34:58Z</time>
      </trkpt>
      <trkpt lat="42.84213" lon="0.17555">
        <ele>2169.83</ele>
        <time>2013-08-15T10:35:04Z</time>
      </trkpt>
      <trkpt lat="42.84221" lon="0.17542">
        <ele>2169.35</ele>
        <time>2013-08-15T10:35:17Z</time>
      </trkpt>
      <trkpt lat="42.84228" lon="0.17533">
        <ele>2170.79</ele>
        <time>2013-08-15T10:35:28Z</time>
      </trkpt>
      <trkpt lat="42.84234" lon="0.17525">
        <ele>2171.27</ele>
        <time>2013-08-15T10:35:38Z</time>
      </trkpt>
      <trkpt lat="42.84238" lon="0.17507">
        <ele>2171.27</ele>
        <time>2013-08-15T10:35:52Z</time>
      </trkpt>
      <trkpt lat="42.84242" lon="0.17491">
        <ele>2173.2</ele>
        <time>2013-08-15T10:36:07Z</time>
      </trkpt>
      <trkpt lat="42.84243" lon="0.17477">
        <ele>2173.68</ele>
        <time>2013-08-15T10:36:20Z</time>
      </trkpt>
      <trkpt lat="42.84247" lon="0.17463">
        <ele>2173.2</ele>
        <time>2013-08-15T10:36:37Z</time>
      </trkpt>
      <trkpt lat="42.84256" lon="0.17451">
        <ele>2173.2</ele>
        <time>2013-08-15T10:36:52Z</time>
      </trkpt>
      <trkpt lat="42.84259" lon="0.17446">
        <ele>2173.2</ele>
        <time>2013-08-15T10:36:57Z</time>
      </trkpt>
      <trkpt lat="42.84269" lon="0.17434">
        <ele>2173.2</ele>
        <time>2013-08-15T10:37:11Z</time>
      </trkpt>
      <trkpt lat="42.84278" lon="0.17426">
        <ele>2174.16</ele>
        <time>2013-08-15T10:37:25Z</time>
      </trkpt>
      <trkpt lat="42.84285" lon="0.17422">
        <ele>2175.12</ele>
        <time>2013-08-15T10:37:36Z</time>
      </trkpt>
      <trkpt lat="42.84294" lon="0.1742">
        <ele>2175.6</ele>
        <time>2013-08-15T10:37:48Z</time>
      </trkpt>
      <trkpt lat="42.84296" lon="0.17417">
        <ele>2176.56</ele>
        <time>2013-08-15T10:37:52Z</time>
      </trkpt>
      <trkpt lat="42.84299" lon="0.17411">
        <ele>2176.08</ele>
        <time>2013-08-15T10:38:01Z</time>
      </trkpt>
      <trkpt lat="42.843" lon="0.17405">
        <ele>2176.56</ele>
        <time>2013-08-15T10:38:07Z</time>
      </trkpt>
      <trkpt lat="42.84306" lon="0.17394">
        <ele>2177.52</ele>
        <time>2013-08-15T10:38:21Z</time>
      </trkpt>
      <trkpt lat="42.8431" lon="0.17386">
        <ele>2177.52</ele>
        <time>2013-08-15T10:38:36Z</time>
      </trkpt>
      <trkpt lat="42.84317" lon="0.17376">
        <ele>2178</ele>
        <time>2013-08-15T10:38:51Z</time>
      </trkpt>
      <trkpt lat="42.84321" lon="0.17374">
        <ele>2179.45</ele>
        <time>2013-08-15T10:39:10Z</time>
      </trkpt>
      <trkpt lat="42.84321" lon="0.17374">
        <ele>2179.93</ele>
        <time>2013-08-15T10:39:40Z</time>
      </trkpt>
      <trkpt lat="42.84321" lon="0.17374">
        <ele>2178.97</ele>
        <time>2013-08-15T10:39:56Z</time>
      </trkpt>
      <trkpt lat="42.84321" lon="0.17374">
        <ele>2178.97</ele>
        <time>2013-08-15T10:40:21Z</time>
      </trkpt>
      <trkpt lat="42.84321" lon="0.17374">
        <ele>2178.97</ele>
        <time>2013-08-15T10:40:48Z</time>
      </trkpt>
      <trkpt lat="42.84321" lon="0.17374">
        <ele>2178.97</ele>
        <time>2013-08-15T10:41:11Z</time>
      </trkpt>
      <trkpt lat="42.84324" lon="0.17374">
        <ele>2179.45</ele>
        <time>2013-08-15T10:41:38Z</time>
      </trkpt>
      <trkpt lat="42.84324" lon="0.17374">
        <ele>2180.41</ele>
        <time>2013-08-15T10:41:59Z</time>
      </trkpt>
      <trkpt lat="42.8433" lon="0.17369">
        <ele>2179.93</ele>
        <time>2013-08-15T10:42:13Z</time>
      </trkpt>
      <trkpt lat="42.84343" lon="0.17367">
        <ele>2180.89</ele>
        <time>2013-08-15T10:42:25Z</time>
      </trkpt>
      <trkpt lat="42.84351" lon="0.17359">
        <ele>2181.37</ele>
        <time>2013-08-15T10:42:38Z</time>
      </trkpt>
      <trkpt lat="42.84363" lon="0.17354">
        <ele>2182.33</ele>
        <time>2013-08-15T10:42:53Z</time>
      </trkpt>
      <trkpt lat="42.84371" lon="0.17354">
        <ele>2183.29</ele>
        <time>2013-08-15T10:43:05Z</time>
      </trkpt>
      <trkpt lat="42.84376" lon="0.17356">
        <ele>2184.25</ele>
        <time>2013-08-15T10:43:16Z</time>
      </trkpt>
      <trkpt lat="42.84382" lon="0.17359">
        <ele>2186.18</ele>
        <time>2013-08-15T10:43:29Z</time>
      </trkpt>
      <trkpt lat="42.84385" lon="0.1736">
        <ele>2187.14</ele>
        <time>2013-08-15T10:43:41Z</time>
      </trkpt>
      <trkpt lat="42.8439" lon="0.17363">
        <ele>2187.62</ele>
        <time>2013-08-15T10:43:50Z</time>
      </trkpt>
      <trkpt lat="42.84395" lon="0.17367">
        <ele>2188.58</ele>
        <time>2013-08-15T10:44:01Z</time>
      </trkpt>
      <trkpt lat="42.84397" lon="0.17365">
        <ele>2190.02</ele>
        <time>2013-08-15T10:44:14Z</time>
      </trkpt>
      <trkpt lat="42.844" lon="0.17361">
        <ele>2192.9</ele>
        <time>2013-08-15T10:44:27Z</time>
      </trkpt>
      <trkpt lat="42.8441" lon="0.17356">
        <ele>2193.39</ele>
        <time>2013-08-15T10:44:41Z</time>
      </trkpt>
      <trkpt lat="42.84413" lon="0.17353">
        <ele>2194.35</ele>
        <time>2013-08-15T10:44:52Z</time>
      </trkpt>
      <trkpt lat="42.84418" lon="0.17352">
        <ele>2194.83</ele>
        <time>2013-08-15T10:45:03Z</time>
      </trkpt>
      <trkpt lat="42.84424" lon="0.17353">
        <ele>2195.79</ele>
        <time>2013-08-15T10:45:14Z</time>
      </trkpt>
      <trkpt lat="42.84428" lon="0.17351">
        <ele>2196.75</ele>
        <time>2013-08-15T10:45:25Z</time>
      </trkpt>
      <trkpt lat="42.84436" lon="0.17344">
        <ele>2197.71</ele>
        <time>2013-08-15T10:45:39Z</time>
      </trkpt>
      <trkpt lat="42.8444" lon="0.17337">
        <ele>2199.15</ele>
        <time>2013-08-15T10:45:50Z</time>
      </trkpt>
      <trkpt lat="42.84442" lon="0.17334">
        <ele>2199.15</ele>
        <time>2013-08-15T10:45:59Z</time>
      </trkpt>
      <trkpt lat="42.84445" lon="0.17332">
        <ele>2201.56</ele>
        <time>2013-08-15T10:46:12Z</time>
      </trkpt>
      <trkpt lat="42.84449" lon="0.17328">
        <ele>2202.52</ele>
        <time>2013-08-15T10:46:26Z</time>
      </trkpt>
      <trkpt lat="42.84454" lon="0.17325">
        <ele>2204.44</ele>
        <time>2013-08-15T10:46:41Z</time>
      </trkpt>
      <trkpt lat="42.84456" lon="0.17323">
        <ele>2205.88</ele>
        <time>2013-08-15T10:46:54Z</time>
      </trkpt>
      <trkpt lat="42.84458" lon="0.1732">
        <ele>2207.32</ele>
        <time>2013-08-15T10:47:09Z</time>
      </trkpt>
      <trkpt lat="42.84458" lon="0.17317">
        <ele>2208.29</ele>
        <time>2013-08-15T10:47:20Z</time>
      </trkpt>
      <trkpt lat="42.84459" lon="0.17315">
        <ele>2208.77</ele>
        <time>2013-08-15T10:47:34Z</time>
      </trkpt>
      <trkpt lat="42.8446" lon="0.17314">
        <ele>2209.73</ele>
        <time>2013-08-15T10:47:45Z</time>
      </trkpt>
      <trkpt lat="42.84463" lon="0.17304">
        <ele>2211.65</ele>
        <time>2013-08-15T10:48:00Z</time>
      </trkpt>
      <trkpt lat="42.84463" lon="0.173">
        <ele>2213.09</ele>
        <time>2013-08-15T10:48:14Z</time>
      </trkpt>
      <trkpt lat="42.84463" lon="0.17299">
        <ele>2214.53</ele>
        <time>2013-08-15T10:48:30Z</time>
      </trkpt>
      <trkpt lat="42.84465" lon="0.17295">
        <ele>2215.98</ele>
        <time>2013-08-15T10:48:44Z</time>
      </trkpt>
      <trkpt lat="42.84465" lon="0.17295">
        <ele>2217.42</ele>
        <time>2013-08-15T10:48:59Z</time>
      </trkpt>
      <trkpt lat="42.84469" lon="0.17281">
        <ele>2218.38</ele>
        <time>2013-08-15T10:49:12Z</time>
      </trkpt>
      <trkpt lat="42.84471" lon="0.1728">
        <ele>2219.82</ele>
        <time>2013-08-15T10:49:23Z</time>
      </trkpt>
      <trkpt lat="42.84475" lon="0.17278">
        <ele>2221.74</ele>
        <time>2013-08-15T10:49:33Z</time>
      </trkpt>
      <trkpt lat="42.84478" lon="0.17273">
        <ele>2222.71</ele>
        <time>2013-08-15T10:49:48Z</time>
      </trkpt>
      <trkpt lat="42.84481" lon="0.17269">
        <ele>2223.67</ele>
        <time>2013-08-15T10:50:00Z</time>
      </trkpt>
      <trkpt lat="42.84483" lon="0.17264">
        <ele>2225.11</ele>
        <time>2013-08-15T10:50:14Z</time>
      </trkpt>
      <trkpt lat="42.84485" lon="0.17259">
        <ele>2226.07</ele>
        <time>2013-08-15T10:50:27Z</time>
      </trkpt>
      <trkpt lat="42.84488" lon="0.17252">
        <ele>2227.51</ele>
        <time>2013-08-15T10:50:39Z</time>
      </trkpt>
      <trkpt lat="42.8449" lon="0.17249">
        <ele>2228.47</ele>
        <time>2013-08-15T10:50:56Z</time>
      </trkpt>
      <trkpt lat="42.84495" lon="0.17239">
        <ele>2229.43</ele>
        <time>2013-08-15T10:51:13Z</time>
      </trkpt>
      <trkpt lat="42.84498" lon="0.17232">
        <ele>2230.4</ele>
        <time>2013-08-15T10:51:24Z</time>
      </trkpt>
      <trkpt lat="42.84502" lon="0.17224">
        <ele>2231.36</ele>
        <time>2013-08-15T10:51:37Z</time>
      </trkpt>
      <trkpt lat="42.84504" lon="0.17221">
        <ele>2232.32</ele>
        <time>2013-08-15T10:51:48Z</time>
      </trkpt>
      <trkpt lat="42.84505" lon="0.17215">
        <ele>2234.72</ele>
        <time>2013-08-15T10:52:04Z</time>
      </trkpt>
      <trkpt lat="42.84506" lon="0.17209">
        <ele>2236.16</ele>
        <time>2013-08-15T10:52:19Z</time>
      </trkpt>
      <trkpt lat="42.84508" lon="0.17206">
        <ele>2236.16</ele>
        <time>2013-08-15T10:52:22Z</time>
      </trkpt>
      <trkpt lat="42.84512" lon="0.17195">
        <ele>2233.28</ele>
        <time>2013-08-15T10:52:32Z</time>
      </trkpt>
      <trkpt lat="42.84512" lon="0.17195">
        <ele>2238.57</ele>
        <time>2013-08-15T10:52:33Z</time>
      </trkpt>
      <trkpt lat="42.84515" lon="0.17188">
        <ele>2237.13</ele>
        <time>2013-08-15T10:52:48Z</time>
      </trkpt>
      <trkpt lat="42.84521" lon="0.17176">
        <ele>2237.13</ele>
        <time>2013-08-15T10:53:01Z</time>
      </trkpt>
      <trkpt lat="42.84528" lon="0.17163">
        <ele>2237.61</ele>
        <time>2013-08-15T10:53:14Z</time>
      </trkpt>
      <trkpt lat="42.84532" lon="0.17147">
        <ele>2237.13</ele>
        <time>2013-08-15T10:53:30Z</time>
      </trkpt>
      <trkpt lat="42.84539" lon="0.17129">
        <ele>2236.64</ele>
        <time>2013-08-15T10:53:46Z</time>
      </trkpt>
      <trkpt lat="42.84543" lon="0.17117">
        <ele>2236.64</ele>
        <time>2013-08-15T10:53:59Z</time>
      </trkpt>
      <trkpt lat="42.8455" lon="0.17107">
        <ele>2237.13</ele>
        <time>2013-08-15T10:54:10Z</time>
      </trkpt>
      <trkpt lat="42.84556" lon="0.17093">
        <ele>2236.16</ele>
        <time>2013-08-15T10:54:25Z</time>
      </trkpt>
      <trkpt lat="42.84557" lon="0.1708">
        <ele>2237.61</ele>
        <time>2013-08-15T10:54:37Z</time>
      </trkpt>
      <trkpt lat="42.84561" lon="0.17068">
        <ele>2238.09</ele>
        <time>2013-08-15T10:54:49Z</time>
      </trkpt>
      <trkpt lat="42.84567" lon="0.1706">
        <ele>2238.57</ele>
        <time>2013-08-15T10:55:02Z</time>
      </trkpt>
      <trkpt lat="42.84572" lon="0.17057">
        <ele>2239.05</ele>
        <time>2013-08-15T10:55:13Z</time>
      </trkpt>
      <trkpt lat="42.84571" lon="0.17052">
        <ele>2237.61</ele>
        <time>2013-08-15T10:55:23Z</time>
      </trkpt>
      <trkpt lat="42.84574" lon="0.1704">
        <ele>2237.61</ele>
        <time>2013-08-15T10:55:37Z</time>
      </trkpt>
      <trkpt lat="42.84577" lon="0.17021">
        <ele>2237.61</ele>
        <time>2013-08-15T10:55:53Z</time>
      </trkpt>
      <trkpt lat="42.84582" lon="0.17009">
        <ele>2235.2</ele>
        <time>2013-08-15T10:56:08Z</time>
      </trkpt>
      <trkpt lat="42.84589" lon="0.16995">
        <ele>2235.2</ele>
        <time>2013-08-15T10:56:21Z</time>
      </trkpt>
      <trkpt lat="42.84594" lon="0.16981">
        <ele>2235.2</ele>
        <time>2013-08-15T10:56:35Z</time>
      </trkpt>
      <trkpt lat="42.84597" lon="0.16973">
        <ele>2235.68</ele>
        <time>2013-08-15T10:56:46Z</time>
      </trkpt>
      <trkpt lat="42.846" lon="0.16961">
        <ele>2237.13</ele>
        <time>2013-08-15T10:56:59Z</time>
      </trkpt>
      <trkpt lat="42.84602" lon="0.16952">
        <ele>2237.61</ele>
        <time>2013-08-15T10:57:10Z</time>
      </trkpt>
      <trkpt lat="42.84605" lon="0.16943">
        <ele>2237.13</ele>
        <time>2013-08-15T10:57:25Z</time>
      </trkpt>
      <trkpt lat="42.84613" lon="0.1693">
        <ele>2237.13</ele>
        <time>2013-08-15T10:57:39Z</time>
      </trkpt>
      <trkpt lat="42.84621" lon="0.16917">
        <ele>2237.61</ele>
        <time>2013-08-15T10:57:54Z</time>
      </trkpt>
      <trkpt lat="42.84628" lon="0.16908">
        <ele>2237.61</ele>
        <time>2013-08-15T10:58:08Z</time>
      </trkpt>
      <trkpt lat="42.84633" lon="0.16894">
        <ele>2238.57</ele>
        <time>2013-08-15T10:58:20Z</time>
      </trkpt>
      <trkpt lat="42.84637" lon="0.16885">
        <ele>2239.53</ele>
        <time>2013-08-15T10:58:32Z</time>
      </trkpt>
      <trkpt lat="42.84642" lon="0.16876">
        <ele>2239.05</ele>
        <time>2013-08-15T10:58:45Z</time>
      </trkpt>
      <trkpt lat="42.84649" lon="0.16866">
        <ele>2240.01</ele>
        <time>2013-08-15T10:59:01Z</time>
      </trkpt>
      <trkpt lat="42.84657" lon="0.16858">
        <ele>2240.97</ele>
        <time>2013-08-15T10:59:15Z</time>
      </trkpt>
      <trkpt lat="42.8466" lon="0.1685">
        <ele>2241.45</ele>
        <time>2013-08-15T10:59:31Z</time>
      </trkpt>
      <trkpt lat="42.84662" lon="0.16841">
        <ele>2241.93</ele>
        <time>2013-08-15T10:59:44Z</time>
      </trkpt>
      <trkpt lat="42.84662" lon="0.16825">
        <ele>2244.33</ele>
        <time>2013-08-15T10:59:57Z</time>
      </trkpt>
      <trkpt lat="42.84663" lon="0.16823">
        <ele>2245.3</ele>
        <time>2013-08-15T11:00:09Z</time>
      </trkpt>
      <trkpt lat="42.84663" lon="0.16815">
        <ele>2246.74</ele>
        <time>2013-08-15T11:00:21Z</time>
      </trkpt>
      <trkpt lat="42.84664" lon="0.16806">
        <ele>2248.66</ele>
        <time>2013-08-15T11:00:37Z</time>
      </trkpt>
      <trkpt lat="42.84666" lon="0.16798">
        <ele>2249.62</ele>
        <time>2013-08-15T11:00:48Z</time>
      </trkpt>
      <trkpt lat="42.84672" lon="0.16785">
        <ele>2249.62</ele>
        <time>2013-08-15T11:01:04Z</time>
      </trkpt>
      <trkpt lat="42.84677" lon="0.16772">
        <ele>2250.1</ele>
        <time>2013-08-15T11:01:17Z</time>
      </trkpt>
      <trkpt lat="42.84678" lon="0.16759">
        <ele>2248.66</ele>
        <time>2013-08-15T11:01:32Z</time>
      </trkpt>
      <trkpt lat="42.84685" lon="0.16749">
        <ele>2247.7</ele>
        <time>2013-08-15T11:01:47Z</time>
      </trkpt>
      <trkpt lat="42.84688" lon="0.16743">
        <ele>2247.22</ele>
        <time>2013-08-15T11:02:01Z</time>
      </trkpt>
      <trkpt lat="42.84694" lon="0.16733">
        <ele>2246.74</ele>
        <time>2013-08-15T11:02:12Z</time>
      </trkpt>
      <trkpt lat="42.84696" lon="0.1673">
        <ele>2246.74</ele>
        <time>2013-08-15T11:02:14Z</time>
      </trkpt>
      <trkpt lat="42.847" lon="0.16718">
        <ele>2247.7</ele>
        <time>2013-08-15T11:02:29Z</time>
      </trkpt>
      <trkpt lat="42.84699" lon="0.16708">
        <ele>2248.66</ele>
        <time>2013-08-15T11:02:42Z</time>
      </trkpt>
      <trkpt lat="42.84699" lon="0.167">
        <ele>2249.62</ele>
        <time>2013-08-15T11:02:54Z</time>
      </trkpt>
      <trkpt lat="42.84701" lon="0.1669">
        <ele>2249.14</ele>
        <time>2013-08-15T11:03:05Z</time>
      </trkpt>
      <trkpt lat="42.84705" lon="0.1668">
        <ele>2250.1</ele>
        <time>2013-08-15T11:03:18Z</time>
      </trkpt>
      <trkpt lat="42.84707" lon="0.1667">
        <ele>2252.03</ele>
        <time>2013-08-15T11:03:31Z</time>
      </trkpt>
      <trkpt lat="42.84709" lon="0.16663">
        <ele>2252.03</ele>
        <time>2013-08-15T11:03:43Z</time>
      </trkpt>
      <trkpt lat="42.84709" lon="0.1666">
        <ele>2252.03</ele>
        <time>2013-08-15T11:03:46Z</time>
      </trkpt>
      <trkpt lat="42.84708" lon="0.16644">
        <ele>2252.51</ele>
        <time>2013-08-15T11:04:02Z</time>
      </trkpt>
      <trkpt lat="42.84704" lon="0.16634">
        <ele>2253.47</ele>
        <time>2013-08-15T11:04:16Z</time>
      </trkpt>
      <trkpt lat="42.84702" lon="0.16621">
        <ele>2254.91</ele>
        <time>2013-08-15T11:04:29Z</time>
      </trkpt>
      <trkpt lat="42.84701" lon="0.16605">
        <ele>2255.87</ele>
        <time>2013-08-15T11:04:44Z</time>
      </trkpt>
      <trkpt lat="42.84703" lon="0.16592">
        <ele>2256.83</ele>
        <time>2013-08-15T11:04:58Z</time>
      </trkpt>
      <trkpt lat="42.84703" lon="0.16579">
        <ele>2256.83</ele>
        <time>2013-08-15T11:05:13Z</time>
      </trkpt>
      <trkpt lat="42.84703" lon="0.1658">
        <ele>2256.83</ele>
        <time>2013-08-15T11:05:27Z</time>
      </trkpt>
      <trkpt lat="42.84704" lon="0.16581">
        <ele>2256.83</ele>
        <time>2013-08-15T11:05:50Z</time>
      </trkpt>
      <trkpt lat="42.84704" lon="0.1658">
        <ele>2257.31</ele>
        <time>2013-08-15T11:06:07Z</time>
      </trkpt>
      <trkpt lat="42.84704" lon="0.1658">
        <ele>2257.79</ele>
        <time>2013-08-15T11:06:28Z</time>
      </trkpt>
      <trkpt lat="42.84704" lon="0.1658">
        <ele>2257.79</ele>
        <time>2013-08-15T11:06:52Z</time>
      </trkpt>
      <trkpt lat="42.84704" lon="0.1658">
        <ele>2257.79</ele>
        <time>2013-08-15T11:07:16Z</time>
      </trkpt>
      <trkpt lat="42.84704" lon="0.1658">
        <ele>2257.79</ele>
        <time>2013-08-15T11:07:41Z</time>
      </trkpt>
      <trkpt lat="42.84703" lon="0.1658">
        <ele>2258.27</ele>
        <time>2013-08-15T11:08:03Z</time>
      </trkpt>
      <trkpt lat="42.84703" lon="0.1658">
        <ele>2258.27</ele>
        <time>2013-08-15T11:08:24Z</time>
      </trkpt>
      <trkpt lat="42.84706" lon="0.16579">
        <ele>2257.31</ele>
        <time>2013-08-15T11:08:38Z</time>
      </trkpt>
      <trkpt lat="42.84707" lon="0.16575">
        <ele>2257.79</ele>
        <time>2013-08-15T11:08:53Z</time>
      </trkpt>
      <trkpt lat="42.84704" lon="0.16561">
        <ele>2260.2</ele>
        <time>2013-08-15T11:09:08Z</time>
      </trkpt>
      <trkpt lat="42.84705" lon="0.16556">
        <ele>2259.24</ele>
        <time>2013-08-15T11:09:13Z</time>
      </trkpt>
      <trkpt lat="42.84706" lon="0.16546">
        <ele>2260.2</ele>
        <time>2013-08-15T11:09:23Z</time>
      </trkpt>
      <trkpt lat="42.84707" lon="0.16542">
        <ele>2261.16</ele>
        <time>2013-08-15T11:09:27Z</time>
      </trkpt>
      <trkpt lat="42.84708" lon="0.16527">
        <ele>2261.64</ele>
        <time>2013-08-15T11:09:41Z</time>
      </trkpt>
      <trkpt lat="42.84709" lon="0.16519">
        <ele>2262.12</ele>
        <time>2013-08-15T11:09:50Z</time>
      </trkpt>
      <trkpt lat="42.84712" lon="0.16506">
        <ele>2263.08</ele>
        <time>2013-08-15T11:10:03Z</time>
      </trkpt>
      <trkpt lat="42.84715" lon="0.16501">
        <ele>2264.04</ele>
        <time>2013-08-15T11:10:13Z</time>
      </trkpt>
      <trkpt lat="42.84716" lon="0.16492">
        <ele>2264.52</ele>
        <time>2013-08-15T11:10:28Z</time>
      </trkpt>
      <trkpt lat="42.84717" lon="0.16487">
        <ele>2264.52</ele>
        <time>2013-08-15T11:10:36Z</time>
      </trkpt>
      <trkpt lat="42.84722" lon="0.16474">
        <ele>2266.45</ele>
        <time>2013-08-15T11:10:54Z</time>
      </trkpt>
      <trkpt lat="42.8473" lon="0.16463">
        <ele>2267.41</ele>
        <time>2013-08-15T11:11:09Z</time>
      </trkpt>
      <trkpt lat="42.84737" lon="0.16455">
        <ele>2267.89</ele>
        <time>2013-08-15T11:11:21Z</time>
      </trkpt>
      <trkpt lat="42.84745" lon="0.16443">
        <ele>2268.37</ele>
        <time>2013-08-15T11:11:36Z</time>
      </trkpt>
      <trkpt lat="42.84753" lon="0.16434">
        <ele>2268.37</ele>
        <time>2013-08-15T11:11:49Z</time>
      </trkpt>
      <trkpt lat="42.84759" lon="0.16421">
        <ele>2268.85</ele>
        <time>2013-08-15T11:12:04Z</time>
      </trkpt>
      <trkpt lat="42.84764" lon="0.16413">
        <ele>2268.85</ele>
        <time>2013-08-15T11:12:18Z</time>
      </trkpt>
      <trkpt lat="42.84766" lon="0.16409">
        <ele>2269.33</ele>
        <time>2013-08-15T11:12:30Z</time>
      </trkpt>
      <trkpt lat="42.84772" lon="0.16398">
        <ele>2269.33</ele>
        <time>2013-08-15T11:12:41Z</time>
      </trkpt>
      <trkpt lat="42.84778" lon="0.16388">
        <ele>2270.29</ele>
        <time>2013-08-15T11:12:53Z</time>
      </trkpt>
      <trkpt lat="42.84781" lon="0.16381">
        <ele>2272.21</ele>
        <time>2013-08-15T11:13:04Z</time>
      </trkpt>
      <trkpt lat="42.84785" lon="0.16373">
        <ele>2272.69</ele>
        <time>2013-08-15T11:13:16Z</time>
      </trkpt>
      <trkpt lat="42.84794" lon="0.16365">
        <ele>2273.17</ele>
        <time>2013-08-15T11:13:30Z</time>
      </trkpt>
      <trkpt lat="42.84801" lon="0.1636">
        <ele>2272.21</ele>
        <time>2013-08-15T11:13:43Z</time>
      </trkpt>
      <trkpt lat="42.84808" lon="0.16354">
        <ele>2271.25</ele>
        <time>2013-08-15T11:13:56Z</time>
      </trkpt>
      <trkpt lat="42.84815" lon="0.16353">
        <ele>2272.21</ele>
        <time>2013-08-15T11:14:07Z</time>
      </trkpt>
      <trkpt lat="42.84822" lon="0.16349">
        <ele>2274.14</ele>
        <time>2013-08-15T11:14:20Z</time>
      </trkpt>
      <trkpt lat="42.84828" lon="0.16349">
        <ele>2274.62</ele>
        <time>2013-08-15T11:14:29Z</time>
      </trkpt>
      <trkpt lat="42.8483" lon="0.16348">
        <ele>2276.06</ele>
        <time>2013-08-15T11:14:32Z</time>
      </trkpt>
      <trkpt lat="42.84833" lon="0.16346">
        <ele>2277.02</ele>
        <time>2013-08-15T11:14:43Z</time>
      </trkpt>
      <trkpt lat="42.84842" lon="0.1634">
        <ele>2277.98</ele>
        <time>2013-08-15T11:14:57Z</time>
      </trkpt>
      <trkpt lat="42.84847" lon="0.16337">
        <ele>2278.46</ele>
        <time>2013-08-15T11:15:10Z</time>
      </trkpt>
      <trkpt lat="42.84851" lon="0.16335">
        <ele>2278.94</ele>
        <time>2013-08-15T11:15:25Z</time>
      </trkpt>
      <trkpt lat="42.84856" lon="0.16332">
        <ele>2279.9</ele>
        <time>2013-08-15T11:15:36Z</time>
      </trkpt>
      <trkpt lat="42.84862" lon="0.16332">
        <ele>2278.94</ele>
        <time>2013-08-15T11:15:44Z</time>
      </trkpt>
      <trkpt lat="42.84869" lon="0.16333">
        <ele>2277.98</ele>
        <time>2013-08-15T11:15:56Z</time>
      </trkpt>
      <trkpt lat="42.8487" lon="0.16335">
        <ele>2277.98</ele>
        <time>2013-08-15T11:16:05Z</time>
      </trkpt>
      <trkpt lat="42.84879" lon="0.16343">
        <ele>2276.54</ele>
        <time>2013-08-15T11:16:17Z</time>
      </trkpt>
      <trkpt lat="42.84882" lon="0.16348">
        <ele>2276.54</ele>
        <time>2013-08-15T11:16:28Z</time>
      </trkpt>
      <trkpt lat="42.84894" lon="0.16359">
        <ele>2274.62</ele>
        <time>2013-08-15T11:16:43Z</time>
      </trkpt>
      <trkpt lat="42.849" lon="0.16361">
        <ele>2274.14</ele>
        <time>2013-08-15T11:16:56Z</time>
      </trkpt>
      <trkpt lat="42.84908" lon="0.16365">
        <ele>2272.21</ele>
        <time>2013-08-15T11:17:07Z</time>
      </trkpt>
      <trkpt lat="42.84914" lon="0.16369">
        <ele>2271.25</ele>
        <time>2013-08-15T11:17:20Z</time>
      </trkpt>
      <trkpt lat="42.84917" lon="0.1638">
        <ele>2270.29</ele>
        <time>2013-08-15T11:17:31Z</time>
      </trkpt>
      <trkpt lat="42.84918" lon="0.16384">
        <ele>2270.77</ele>
        <time>2013-08-15T11:17:36Z</time>
      </trkpt>
      <trkpt lat="42.84918" lon="0.16395">
        <ele>2271.25</ele>
        <time>2013-08-15T11:17:48Z</time>
      </trkpt>
      <trkpt lat="42.84923" lon="0.16404">
        <ele>2272.21</ele>
        <time>2013-08-15T11:18:00Z</time>
      </trkpt>
      <trkpt lat="42.84933" lon="0.16405">
        <ele>2271.25</ele>
        <time>2013-08-15T11:18:14Z</time>
      </trkpt>
      <trkpt lat="42.84939" lon="0.16405">
        <ele>2271.25</ele>
        <time>2013-08-15T11:18:21Z</time>
      </trkpt>
      <trkpt lat="42.84945" lon="0.16397">
        <ele>2270.77</ele>
        <time>2013-08-15T11:18:31Z</time>
      </trkpt>
      <trkpt lat="42.84956" lon="0.16391">
        <ele>2271.73</ele>
        <time>2013-08-15T11:18:46Z</time>
      </trkpt>
      <trkpt lat="42.84965" lon="0.1639">
        <ele>2272.21</ele>
        <time>2013-08-15T11:19:01Z</time>
      </trkpt>
      <trkpt lat="42.84975" lon="0.16389">
        <ele>2271.73</ele>
        <time>2013-08-15T11:19:18Z</time>
      </trkpt>
      <trkpt lat="42.84984" lon="0.16383">
        <ele>2271.73</ele>
        <time>2013-08-15T11:19:34Z</time>
      </trkpt>
      <trkpt lat="42.84995" lon="0.16377">
        <ele>2271.25</ele>
        <time>2013-08-15T11:19:46Z</time>
      </trkpt>
      <trkpt lat="42.85002" lon="0.16375">
        <ele>2271.73</ele>
        <time>2013-08-15T11:19:56Z</time>
      </trkpt>
      <trkpt lat="42.85009" lon="0.16373">
        <ele>2272.69</ele>
        <time>2013-08-15T11:20:04Z</time>
      </trkpt>
      <trkpt lat="42.85017" lon="0.16371">
        <ele>2274.62</ele>
        <time>2013-08-15T11:20:16Z</time>
      </trkpt>
      <trkpt lat="42.85028" lon="0.16365">
        <ele>2275.1</ele>
        <time>2013-08-15T11:20:31Z</time>
      </trkpt>
      <trkpt lat="42.85037" lon="0.16356">
        <ele>2275.58</ele>
        <time>2013-08-15T11:20:47Z</time>
      </trkpt>
      <trkpt lat="42.8505" lon="0.1635">
        <ele>2275.1</ele>
        <time>2013-08-15T11:21:04Z</time>
      </trkpt>
      <trkpt lat="42.85054" lon="0.16342">
        <ele>2273.17</ele>
        <time>2013-08-15T11:21:16Z</time>
      </trkpt>
      <trkpt lat="42.85056" lon="0.1634">
        <ele>2273.17</ele>
        <time>2013-08-15T11:21:23Z</time>
      </trkpt>
      <trkpt lat="42.85063" lon="0.16331">
        <ele>2272.69</ele>
        <time>2013-08-15T11:21:31Z</time>
      </trkpt>
      <trkpt lat="42.85072" lon="0.16317">
        <ele>2272.69</ele>
        <time>2013-08-15T11:21:45Z</time>
      </trkpt>
      <trkpt lat="42.8508" lon="0.16296">
        <ele>2271.73</ele>
        <time>2013-08-15T11:22:03Z</time>
      </trkpt>
      <trkpt lat="42.8508" lon="0.16285">
        <ele>2270.29</ele>
        <time>2013-08-15T11:22:13Z</time>
      </trkpt>
      <trkpt lat="42.85086" lon="0.16277">
        <ele>2271.25</ele>
        <time>2013-08-15T11:22:22Z</time>
      </trkpt>
      <trkpt lat="42.85093" lon="0.16269">
        <ele>2270.77</ele>
        <time>2013-08-15T11:22:33Z</time>
      </trkpt>
      <trkpt lat="42.85094" lon="0.16266">
        <ele>2271.73</ele>
        <time>2013-08-15T11:22:37Z</time>
      </trkpt>
      <trkpt lat="42.85101" lon="0.16252">
        <ele>2272.21</ele>
        <time>2013-08-15T11:22:52Z</time>
      </trkpt>
      <trkpt lat="42.85109" lon="0.16251">
        <ele>2271.73</ele>
        <time>2013-08-15T11:23:04Z</time>
      </trkpt>
      <trkpt lat="42.85118" lon="0.16242">
        <ele>2272.21</ele>
        <time>2013-08-15T11:23:18Z</time>
      </trkpt>
      <trkpt lat="42.85125" lon="0.16234">
        <ele>2271.73</ele>
        <time>2013-08-15T11:23:32Z</time>
      </trkpt>
      <trkpt lat="42.85127" lon="0.16227">
        <ele>2271.73</ele>
        <time>2013-08-15T11:23:45Z</time>
      </trkpt>
      <trkpt lat="42.8513" lon="0.16213">
        <ele>2271.73</ele>
        <time>2013-08-15T11:23:58Z</time>
      </trkpt>
      <trkpt lat="42.85135" lon="0.16205">
        <ele>2271.73</ele>
        <time>2013-08-15T11:24:06Z</time>
      </trkpt>
      <trkpt lat="42.8514" lon="0.1619">
        <ele>2272.21</ele>
        <time>2013-08-15T11:24:19Z</time>
      </trkpt>
      <trkpt lat="42.85142" lon="0.1618">
        <ele>2272.69</ele>
        <time>2013-08-15T11:24:30Z</time>
      </trkpt>
      <trkpt lat="42.8514" lon="0.16172">
        <ele>2273.17</ele>
        <time>2013-08-15T11:24:40Z</time>
      </trkpt>
      <trkpt lat="42.85139" lon="0.1617">
        <ele>2274.62</ele>
        <time>2013-08-15T11:24:53Z</time>
      </trkpt>
      <trkpt lat="42.85138" lon="0.16164">
        <ele>2274.14</ele>
        <time>2013-08-15T11:25:07Z</time>
      </trkpt>
      <trkpt lat="42.85139" lon="0.16159">
        <ele>2274.62</ele>
        <time>2013-08-15T11:25:11Z</time>
      </trkpt>
      <trkpt lat="42.85142" lon="0.16144">
        <ele>2276.06</ele>
        <time>2013-08-15T11:25:24Z</time>
      </trkpt>
      <trkpt lat="42.85149" lon="0.16133">
        <ele>2277.5</ele>
        <time>2013-08-15T11:25:35Z</time>
      </trkpt>
      <trkpt lat="42.85151" lon="0.16129">
        <ele>2277.5</ele>
        <time>2013-08-15T11:25:44Z</time>
      </trkpt>
      <trkpt lat="42.85159" lon="0.1612">
        <ele>2277.02</ele>
        <time>2013-08-15T11:25:56Z</time>
      </trkpt>
      <trkpt lat="42.85163" lon="0.16116">
        <ele>2277.02</ele>
        <time>2013-08-15T11:26:07Z</time>
      </trkpt>
      <trkpt lat="42.85169" lon="0.16108">
        <ele>2277.02</ele>
        <time>2013-08-15T11:26:20Z</time>
      </trkpt>
      <trkpt lat="42.85177" lon="0.16095">
        <ele>2278.46</ele>
        <time>2013-08-15T11:26:35Z</time>
      </trkpt>
      <trkpt lat="42.85181" lon="0.16088">
        <ele>2279.42</ele>
        <time>2013-08-15T11:26:49Z</time>
      </trkpt>
      <trkpt lat="42.85182" lon="0.16082">
        <ele>2280.38</ele>
        <time>2013-08-15T11:27:01Z</time>
      </trkpt>
      <trkpt lat="42.85191" lon="0.16072">
        <ele>2281.83</ele>
        <time>2013-08-15T11:27:14Z</time>
      </trkpt>
      <trkpt lat="42.85191" lon="0.16072">
        <ele>2282.79</ele>
        <time>2013-08-15T11:27:26Z</time>
      </trkpt>
      <trkpt lat="42.85193" lon="0.16072">
        <ele>2283.75</ele>
        <time>2013-08-15T11:27:38Z</time>
      </trkpt>
      <trkpt lat="42.85195" lon="0.16069">
        <ele>2285.19</ele>
        <time>2013-08-15T11:27:48Z</time>
      </trkpt>
      <trkpt lat="42.85195" lon="0.16069">
        <ele>2286.15</ele>
        <time>2013-08-15T11:27:58Z</time>
      </trkpt>
      <trkpt lat="42.85195" lon="0.16069">
        <ele>2287.11</ele>
        <time>2013-08-15T11:28:08Z</time>
      </trkpt>
      <trkpt lat="42.85199" lon="0.16068">
        <ele>2288.08</ele>
        <time>2013-08-15T11:28:20Z</time>
      </trkpt>
      <trkpt lat="42.85206" lon="0.16065">
        <ele>2289.04</ele>
        <time>2013-08-15T11:28:31Z</time>
      </trkpt>
      <trkpt lat="42.85206" lon="0.16065">
        <ele>2290</ele>
        <time>2013-08-15T11:28:44Z</time>
      </trkpt>
      <trkpt lat="42.85206" lon="0.16065">
        <ele>2291.44</ele>
        <time>2013-08-15T11:28:57Z</time>
      </trkpt>
      <trkpt lat="42.85206" lon="0.16065">
        <ele>2291.92</ele>
        <time>2013-08-15T11:29:02Z</time>
      </trkpt>
      <trkpt lat="42.85204" lon="0.16063">
        <ele>2292.88</ele>
        <time>2013-08-15T11:29:06Z</time>
      </trkpt>
      <trkpt lat="42.85202" lon="0.16058">
        <ele>2293.84</ele>
        <time>2013-08-15T11:29:17Z</time>
      </trkpt>
      <trkpt lat="42.85202" lon="0.16058">
        <ele>2294.8</ele>
        <time>2013-08-15T11:29:30Z</time>
      </trkpt>
      <trkpt lat="42.85205" lon="0.16057">
        <ele>2296.25</ele>
        <time>2013-08-15T11:29:41Z</time>
      </trkpt>
      <trkpt lat="42.85205" lon="0.16057">
        <ele>2295.77</ele>
        <time>2013-08-15T11:29:42Z</time>
      </trkpt>
      <trkpt lat="42.85212" lon="0.16057">
        <ele>2297.69</ele>
        <time>2013-08-15T11:29:56Z</time>
      </trkpt>
      <trkpt lat="42.85213" lon="0.16056">
        <ele>2298.65</ele>
        <time>2013-08-15T11:30:10Z</time>
      </trkpt>
      <trkpt lat="42.85213" lon="0.16056">
        <ele>2299.61</ele>
        <time>2013-08-15T11:30:20Z</time>
      </trkpt>
      <trkpt lat="42.85214" lon="0.1605">
        <ele>2301.05</ele>
        <time>2013-08-15T11:30:31Z</time>
      </trkpt>
      <trkpt lat="42.8522" lon="0.16049">
        <ele>2302.01</ele>
        <time>2013-08-15T11:30:45Z</time>
      </trkpt>
      <trkpt lat="42.85221" lon="0.16047">
        <ele>2303.94</ele>
        <time>2013-08-15T11:30:58Z</time>
      </trkpt>
      <trkpt lat="42.85222" lon="0.16045">
        <ele>2304.9</ele>
        <time>2013-08-15T11:31:09Z</time>
      </trkpt>
      <trkpt lat="42.85227" lon="0.16042">
        <ele>2306.34</ele>
        <time>2013-08-15T11:31:21Z</time>
      </trkpt>
      <trkpt lat="42.8523" lon="0.16041">
        <ele>2306.82</ele>
        <time>2013-08-15T11:31:31Z</time>
      </trkpt>
      <trkpt lat="42.8523" lon="0.16041">
        <ele>2308.26</ele>
        <time>2013-08-15T11:31:43Z</time>
      </trkpt>
      <trkpt lat="42.8523" lon="0.16041">
        <ele>2308.26</ele>
        <time>2013-08-15T11:31:55Z</time>
      </trkpt>
      <trkpt lat="42.85233" lon="0.16041">
        <ele>2310.19</ele>
        <time>2013-08-15T11:32:05Z</time>
      </trkpt>
      <trkpt lat="42.85255" lon="0.16039">
        <ele>2310.67</ele>
        <time>2013-08-15T11:32:18Z</time>
      </trkpt>
      <trkpt lat="42.85264" lon="0.16039">
        <ele>2311.63</ele>
        <time>2013-08-15T11:32:29Z</time>
      </trkpt>
      <trkpt lat="42.85265" lon="0.16039">
        <ele>2312.11</ele>
        <time>2013-08-15T11:32:34Z</time>
      </trkpt>
      <trkpt lat="42.8527" lon="0.16042">
        <ele>2313.07</ele>
        <time>2013-08-15T11:32:47Z</time>
      </trkpt>
      <trkpt lat="42.8527" lon="0.16042">
        <ele>2314.03</ele>
        <time>2013-08-15T11:32:54Z</time>
      </trkpt>
      <trkpt lat="42.85274" lon="0.16043">
        <ele>2314.03</ele>
        <time>2013-08-15T11:33:06Z</time>
      </trkpt>
      <trkpt lat="42.85274" lon="0.16043">
        <ele>2314.03</ele>
        <time>2013-08-15T11:33:21Z</time>
      </trkpt>
      <trkpt lat="42.85291" lon="0.16055">
        <ele>2314.03</ele>
        <time>2013-08-15T11:33:34Z</time>
      </trkpt>
      <trkpt lat="42.85295" lon="0.16062">
        <ele>2314.03</ele>
        <time>2013-08-15T11:33:45Z</time>
      </trkpt>
      <trkpt lat="42.85296" lon="0.16069">
        <ele>2316.43</ele>
        <time>2013-08-15T11:33:59Z</time>
      </trkpt>
      <trkpt lat="42.85299" lon="0.16086">
        <ele>2316.43</ele>
        <time>2013-08-15T11:34:11Z</time>
      </trkpt>
      <trkpt lat="42.853" lon="0.16092">
        <ele>2317.4</ele>
        <time>2013-08-15T11:34:22Z</time>
      </trkpt>
      <trkpt lat="42.85301" lon="0.16101">
        <ele>2318.36</ele>
        <time>2013-08-15T11:34:33Z</time>
      </trkpt>
      <trkpt lat="42.85296" lon="0.16111">
        <ele>2318.84</ele>
        <time>2013-08-15T11:34:44Z</time>
      </trkpt>
      <trkpt lat="42.85295" lon="0.16119">
        <ele>2319.8</ele>
        <time>2013-08-15T11:35:00Z</time>
      </trkpt>
      <trkpt lat="42.85295" lon="0.1613">
        <ele>2320.28</ele>
        <time>2013-08-15T11:35:15Z</time>
      </trkpt>
      <trkpt lat="42.8529" lon="0.1614">
        <ele>2319.32</ele>
        <time>2013-08-15T11:35:23Z</time>
      </trkpt>
      <trkpt lat="42.85291" lon="0.16152">
        <ele>2320.28</ele>
        <time>2013-08-15T11:35:34Z</time>
      </trkpt>
      <trkpt lat="42.85295" lon="0.16161">
        <ele>2320.28</ele>
        <time>2013-08-15T11:35:44Z</time>
      </trkpt>
      <trkpt lat="42.85297" lon="0.16171">
        <ele>2321.72</ele>
        <time>2013-08-15T11:35:59Z</time>
      </trkpt>
      <trkpt lat="42.85297" lon="0.16181">
        <ele>2322.68</ele>
        <time>2013-08-15T11:36:10Z</time>
      </trkpt>
      <trkpt lat="42.85297" lon="0.16191">
        <ele>2324.61</ele>
        <time>2013-08-15T11:36:23Z</time>
      </trkpt>
      <trkpt lat="42.85302" lon="0.162">
        <ele>2325.09</ele>
        <time>2013-08-15T11:36:40Z</time>
      </trkpt>
      <trkpt lat="42.85312" lon="0.16209">
        <ele>2326.05</ele>
        <time>2013-08-15T11:36:56Z</time>
      </trkpt>
      <trkpt lat="42.85318" lon="0.1622">
        <ele>2325.09</ele>
        <time>2013-08-15T11:37:12Z</time>
      </trkpt>
      <trkpt lat="42.8532" lon="0.16224">
        <ele>2326.05</ele>
        <time>2013-08-15T11:37:29Z</time>
      </trkpt>
      <trkpt lat="42.85324" lon="0.16237">
        <ele>2324.12</ele>
        <time>2013-08-15T11:37:44Z</time>
      </trkpt>
      <trkpt lat="42.85327" lon="0.16246">
        <ele>2324.12</ele>
        <time>2013-08-15T11:37:57Z</time>
      </trkpt>
      <trkpt lat="42.85328" lon="0.16253">
        <ele>2323.16</ele>
        <time>2013-08-15T11:38:07Z</time>
      </trkpt>
      <trkpt lat="42.85337" lon="0.16263">
        <ele>2323.64</ele>
        <time>2013-08-15T11:38:21Z</time>
      </trkpt>
      <trkpt lat="42.85337" lon="0.16264">
        <ele>2323.16</ele>
        <time>2013-08-15T11:38:22Z</time>
      </trkpt>
      <trkpt lat="42.85342" lon="0.16264">
        <ele>2321.24</ele>
        <time>2013-08-15T11:38:35Z</time>
      </trkpt>
      <trkpt lat="42.85348" lon="0.16268">
        <ele>2320.76</ele>
        <time>2013-08-15T11:38:40Z</time>
      </trkpt>
      <trkpt lat="42.85353" lon="0.16278">
        <ele>2321.24</ele>
        <time>2013-08-15T11:38:52Z</time>
      </trkpt>
      <trkpt lat="42.85364" lon="0.1628">
        <ele>2321.72</ele>
        <time>2013-08-15T11:39:07Z</time>
      </trkpt>
      <trkpt lat="42.85366" lon="0.16282">
        <ele>2321.72</ele>
        <time>2013-08-15T11:39:13Z</time>
      </trkpt>
      <trkpt lat="42.85372" lon="0.16281">
        <ele>2322.68</ele>
        <time>2013-08-15T11:39:26Z</time>
      </trkpt>
      <trkpt lat="42.85376" lon="0.16281">
        <ele>2322.68</ele>
        <time>2013-08-15T11:39:31Z</time>
      </trkpt>
      <trkpt lat="42.85383" lon="0.16277">
        <ele>2323.64</ele>
        <time>2013-08-15T11:39:46Z</time>
      </trkpt>
      <trkpt lat="42.85386" lon="0.16274">
        <ele>2325.09</ele>
        <time>2013-08-15T11:40:01Z</time>
      </trkpt>
      <trkpt lat="42.8539" lon="0.16275">
        <ele>2326.05</ele>
        <time>2013-08-15T11:40:17Z</time>
      </trkpt>
      <trkpt lat="42.85396" lon="0.16276">
        <ele>2326.53</ele>
        <time>2013-08-15T11:40:27Z</time>
      </trkpt>
      <trkpt lat="42.85408" lon="0.16279">
        <ele>2327.01</ele>
        <time>2013-08-15T11:40:44Z</time>
      </trkpt>
      <trkpt lat="42.85416" lon="0.16277">
        <ele>2327.49</ele>
        <time>2013-08-15T11:40:59Z</time>
      </trkpt>
      <trkpt lat="42.85425" lon="0.16278">
        <ele>2327.49</ele>
        <time>2013-08-15T11:41:14Z</time>
      </trkpt>
      <trkpt lat="42.85435" lon="0.16271">
        <ele>2327.97</ele>
        <time>2013-08-15T11:41:31Z</time>
      </trkpt>
      <trkpt lat="42.85442" lon="0.16267">
        <ele>2329.41</ele>
        <time>2013-08-15T11:41:50Z</time>
      </trkpt>
      <trkpt lat="42.8545" lon="0.16266">
        <ele>2330.37</ele>
        <time>2013-08-15T11:42:01Z</time>
      </trkpt>
      <trkpt lat="42.85456" lon="0.16264">
        <ele>2330.85</ele>
        <time>2013-08-15T11:42:12Z</time>
      </trkpt>
      <trkpt lat="42.85462" lon="0.16261">
        <ele>2331.81</ele>
        <time>2013-08-15T11:42:26Z</time>
      </trkpt>
      <trkpt lat="42.85467" lon="0.16264">
        <ele>2332.3</ele>
        <time>2013-08-15T11:42:40Z</time>
      </trkpt>
      <trkpt lat="42.8547" lon="0.16262">
        <ele>2333.74</ele>
        <time>2013-08-15T11:42:52Z</time>
      </trkpt>
      <trkpt lat="42.85471" lon="0.16265">
        <ele>2335.66</ele>
        <time>2013-08-15T11:43:08Z</time>
      </trkpt>
      <trkpt lat="42.8548" lon="0.16267">
        <ele>2337.1</ele>
        <time>2013-08-15T11:43:21Z</time>
      </trkpt>
      <trkpt lat="42.85491" lon="0.16268">
        <ele>2337.58</ele>
        <time>2013-08-15T11:43:31Z</time>
      </trkpt>
      <trkpt lat="42.85501" lon="0.16269">
        <ele>2339.51</ele>
        <time>2013-08-15T11:43:47Z</time>
      </trkpt>
      <trkpt lat="42.85509" lon="0.1627">
        <ele>2341.43</ele>
        <time>2013-08-15T11:44:06Z</time>
      </trkpt>
      <trkpt lat="42.85515" lon="0.1627">
        <ele>2342.39</ele>
        <time>2013-08-15T11:44:20Z</time>
      </trkpt>
      <trkpt lat="42.85524" lon="0.16272">
        <ele>2343.83</ele>
        <time>2013-08-15T11:44:39Z</time>
      </trkpt>
      <trkpt lat="42.85525" lon="0.16274">
        <ele>2344.79</ele>
        <time>2013-08-15T11:44:50Z</time>
      </trkpt>
      <trkpt lat="42.85537" lon="0.16278">
        <ele>2346.72</ele>
        <time>2013-08-15T11:45:04Z</time>
      </trkpt>
      <trkpt lat="42.85544" lon="0.16282">
        <ele>2346.72</ele>
        <time>2013-08-15T11:45:15Z</time>
      </trkpt>
      <trkpt lat="42.85552" lon="0.1629">
        <ele>2348.16</ele>
        <time>2013-08-15T11:45:28Z</time>
      </trkpt>
      <trkpt lat="42.85556" lon="0.16295">
        <ele>2348.64</ele>
        <time>2013-08-15T11:45:41Z</time>
      </trkpt>
      <trkpt lat="42.85564" lon="0.16295">
        <ele>2349.6</ele>
        <time>2013-08-15T11:45:55Z</time>
      </trkpt>
      <trkpt lat="42.85569" lon="0.16293">
        <ele>2350.08</ele>
        <time>2013-08-15T11:46:04Z</time>
      </trkpt>
      <trkpt lat="42.85574" lon="0.16294">
        <ele>2350.08</ele>
        <time>2013-08-15T11:46:14Z</time>
      </trkpt>
      <trkpt lat="42.85574" lon="0.16294">
        <ele>2350.08</ele>
        <time>2013-08-15T11:46:39Z</time>
      </trkpt>
      <trkpt lat="42.85573" lon="0.16294">
        <ele>2350.56</ele>
        <time>2013-08-15T11:47:15Z</time>
      </trkpt>
      <trkpt lat="42.85574" lon="0.16294">
        <ele>2350.56</ele>
        <time>2013-08-15T11:47:42Z</time>
      </trkpt>
      <trkpt lat="42.85574" lon="0.16293">
        <ele>2350.56</ele>
        <time>2013-08-15T11:48:14Z</time>
      </trkpt>
      <trkpt lat="42.85574" lon="0.16293">
        <ele>2351.04</ele>
        <time>2013-08-15T11:48:41Z</time>
      </trkpt>
      <trkpt lat="42.85574" lon="0.16294">
        <ele>2351.52</ele>
        <time>2013-08-15T11:49:06Z</time>
      </trkpt>
      <trkpt lat="42.85574" lon="0.16294">
        <ele>2355.37</ele>
        <time>2013-08-15T11:49:23Z</time>
      </trkpt>
      <trkpt lat="42.85574" lon="0.16294">
        <ele>2351.52</ele>
        <time>2013-08-15T11:49:24Z</time>
      </trkpt>
      <trkpt lat="42.85574" lon="0.16293">
        <ele>2351.04</ele>
        <time>2013-08-15T11:49:56Z</time>
      </trkpt>
      <trkpt lat="42.85575" lon="0.16293">
        <ele>2351.52</ele>
        <time>2013-08-15T11:50:19Z</time>
      </trkpt>
      <trkpt lat="42.85575" lon="0.16293">
        <ele>2351.52</ele>
        <time>2013-08-15T11:50:31Z</time>
      </trkpt>
      <trkpt lat="42.85582" lon="0.16292">
        <ele>2353.44</ele>
        <time>2013-08-15T11:50:46Z</time>
      </trkpt>
      <trkpt lat="42.85582" lon="0.16293">
        <ele>2353.44</ele>
        <time>2013-08-15T11:50:48Z</time>
      </trkpt>
      <trkpt lat="42.85588" lon="0.16299">
        <ele>2353.93</ele>
        <time>2013-08-15T11:50:55Z</time>
      </trkpt>
      <trkpt lat="42.8559" lon="0.16303">
        <ele>2354.41</ele>
        <time>2013-08-15T11:51:04Z</time>
      </trkpt>
      <trkpt lat="42.85594" lon="0.16305">
        <ele>2355.85</ele>
        <time>2013-08-15T11:51:15Z</time>
      </trkpt>
      <trkpt lat="42.85597" lon="0.16307">
        <ele>2357.29</ele>
        <time>2013-08-15T11:51:29Z</time>
      </trkpt>
      <trkpt lat="42.856" lon="0.16307">
        <ele>2358.25</ele>
        <time>2013-08-15T11:51:41Z</time>
      </trkpt>
      <trkpt lat="42.85603" lon="0.1631">
        <ele>2359.69</ele>
        <time>2013-08-15T11:51:54Z</time>
      </trkpt>
      <trkpt lat="42.85605" lon="0.1631">
        <ele>2360.65</ele>
        <time>2013-08-15T11:52:07Z</time>
      </trkpt>
      <trkpt lat="42.85607" lon="0.16309">
        <ele>2361.62</ele>
        <time>2013-08-15T11:52:20Z</time>
      </trkpt>
      <trkpt lat="42.85614" lon="0.16309">
        <ele>2363.54</ele>
        <time>2013-08-15T11:52:34Z</time>
      </trkpt>
      <trkpt lat="42.85621" lon="0.16306">
        <ele>2364.5</ele>
        <time>2013-08-15T11:52:48Z</time>
      </trkpt>
      <trkpt lat="42.85632" lon="0.163">
        <ele>2365.94</ele>
        <time>2013-08-15T11:53:03Z</time>
      </trkpt>
      <trkpt lat="42.85646" lon="0.16292">
        <ele>2365.94</ele>
        <time>2013-08-15T11:53:22Z</time>
      </trkpt>
      <trkpt lat="42.85646" lon="0.16293">
        <ele>2366.42</ele>
        <time>2013-08-15T11:53:28Z</time>
      </trkpt>
      <trkpt lat="42.8566" lon="0.16293">
        <ele>2366.42</ele>
        <time>2013-08-15T11:53:43Z</time>
      </trkpt>
      <trkpt lat="42.85669" lon="0.16293">
        <ele>2367.38</ele>
        <time>2013-08-15T11:53:57Z</time>
      </trkpt>
      <trkpt lat="42.85675" lon="0.16297">
        <ele>2368.83</ele>
        <time>2013-08-15T11:54:16Z</time>
      </trkpt>
      <trkpt lat="42.85676" lon="0.16299">
        <ele>2369.79</ele>
        <time>2013-08-15T11:54:30Z</time>
      </trkpt>
      <trkpt lat="42.85683" lon="0.16301">
        <ele>2370.75</ele>
        <time>2013-08-15T11:54:46Z</time>
      </trkpt>
      <trkpt lat="42.85697" lon="0.16303">
        <ele>2372.19</ele>
        <time>2013-08-15T11:55:02Z</time>
      </trkpt>
      <trkpt lat="42.85707" lon="0.16306">
        <ele>2373.63</ele>
        <time>2013-08-15T11:55:17Z</time>
      </trkpt>
      <trkpt lat="42.85715" lon="0.16309">
        <ele>2375.55</ele>
        <time>2013-08-15T11:55:32Z</time>
      </trkpt>
      <trkpt lat="42.85725" lon="0.16312">
        <ele>2376.52</ele>
        <time>2013-08-15T11:55:46Z</time>
      </trkpt>
      <trkpt lat="42.85728" lon="0.16314">
        <ele>2378.44</ele>
        <time>2013-08-15T11:56:01Z</time>
      </trkpt>
      <trkpt lat="42.85732" lon="0.16316">
        <ele>2379.4</ele>
        <time>2013-08-15T11:56:13Z</time>
      </trkpt>
      <trkpt lat="42.85739" lon="0.16318">
        <ele>2380.84</ele>
        <time>2013-08-15T11:56:27Z</time>
      </trkpt>
      <trkpt lat="42.85742" lon="0.16317">
        <ele>2381.8</ele>
        <time>2013-08-15T11:56:39Z</time>
      </trkpt>
      <trkpt lat="42.85747" lon="0.1632">
        <ele>2383.25</ele>
        <time>2013-08-15T11:56:54Z</time>
      </trkpt>
      <trkpt lat="42.85747" lon="0.1632">
        <ele>2384.69</ele>
        <time>2013-08-15T11:57:09Z</time>
      </trkpt>
      <trkpt lat="42.85751" lon="0.16322">
        <ele>2385.65</ele>
        <time>2013-08-15T11:57:23Z</time>
      </trkpt>
      <trkpt lat="42.85757" lon="0.16324">
        <ele>2387.57</ele>
        <time>2013-08-15T11:57:37Z</time>
      </trkpt>
      <trkpt lat="42.85769" lon="0.16326">
        <ele>2389.01</ele>
        <time>2013-08-15T11:57:49Z</time>
      </trkpt>
      <trkpt lat="42.85774" lon="0.16328">
        <ele>2389.01</ele>
        <time>2013-08-15T11:58:02Z</time>
      </trkpt>
      <trkpt lat="42.85777" lon="0.16329">
        <ele>2390.46</ele>
        <time>2013-08-15T11:58:15Z</time>
      </trkpt>
      <trkpt lat="42.85781" lon="0.16334">
        <ele>2391.9</ele>
        <time>2013-08-15T11:58:29Z</time>
      </trkpt>
      <trkpt lat="42.85784" lon="0.16337">
        <ele>2393.82</ele>
        <time>2013-08-15T11:58:44Z</time>
      </trkpt>
      <trkpt lat="42.85789" lon="0.16343">
        <ele>2394.78</ele>
        <time>2013-08-15T11:58:56Z</time>
      </trkpt>
      <trkpt lat="42.85795" lon="0.16342">
        <ele>2396.7</ele>
        <time>2013-08-15T11:59:11Z</time>
      </trkpt>
      <trkpt lat="42.85799" lon="0.16346">
        <ele>2397.67</ele>
        <time>2013-08-15T11:59:26Z</time>
      </trkpt>
      <trkpt lat="42.85801" lon="0.16352">
        <ele>2399.11</ele>
        <time>2013-08-15T11:59:37Z</time>
      </trkpt>
      <trkpt lat="42.85805" lon="0.16353">
        <ele>2400.55</ele>
        <time>2013-08-15T11:59:48Z</time>
      </trkpt>
      <trkpt lat="42.85805" lon="0.16358">
        <ele>2401.51</ele>
        <time>2013-08-15T12:00:08Z</time>
      </trkpt>
      <trkpt lat="42.85808" lon="0.16357">
        <ele>2403.43</ele>
        <time>2013-08-15T12:00:27Z</time>
      </trkpt>
      <trkpt lat="42.85814" lon="0.16359">
        <ele>2403.91</ele>
        <time>2013-08-15T12:00:35Z</time>
      </trkpt>
      <trkpt lat="42.8582" lon="0.16359">
        <ele>2405.84</ele>
        <time>2013-08-15T12:00:52Z</time>
      </trkpt>
      <trkpt lat="42.85828" lon="0.16358">
        <ele>2406.8</ele>
        <time>2013-08-15T12:01:10Z</time>
      </trkpt>
      <trkpt lat="42.85836" lon="0.16357">
        <ele>2407.76</ele>
        <time>2013-08-15T12:01:28Z</time>
      </trkpt>
      <trkpt lat="42.85848" lon="0.16351">
        <ele>2408.72</ele>
        <time>2013-08-15T12:01:46Z</time>
      </trkpt>
      <trkpt lat="42.85855" lon="0.1635">
        <ele>2410.16</ele>
        <time>2013-08-15T12:02:01Z</time>
      </trkpt>
      <trkpt lat="42.8586" lon="0.16348">
        <ele>2411.6</ele>
        <time>2013-08-15T12:02:14Z</time>
      </trkpt>
      <trkpt lat="42.85864" lon="0.1635">
        <ele>2412.57</ele>
        <time>2013-08-15T12:02:28Z</time>
      </trkpt>
      <trkpt lat="42.85869" lon="0.1635">
        <ele>2414.01</ele>
        <time>2013-08-15T12:02:43Z</time>
      </trkpt>
      <trkpt lat="42.8587" lon="0.16352">
        <ele>2414.97</ele>
        <time>2013-08-15T12:02:53Z</time>
      </trkpt>
      <trkpt lat="42.85873" lon="0.1635">
        <ele>2416.41</ele>
        <time>2013-08-15T12:03:02Z</time>
      </trkpt>
      <trkpt lat="42.85877" lon="0.16354">
        <ele>2416.89</ele>
        <time>2013-08-15T12:03:13Z</time>
      </trkpt>
      <trkpt lat="42.85882" lon="0.16355">
        <ele>2417.85</ele>
        <time>2013-08-15T12:03:28Z</time>
      </trkpt>
      <trkpt lat="42.85884" lon="0.16354">
        <ele>2419.78</ele>
        <time>2013-08-15T12:03:43Z</time>
      </trkpt>
      <trkpt lat="42.85891" lon="0.16348">
        <ele>2422.18</ele>
        <time>2013-08-15T12:04:02Z</time>
      </trkpt>
      <trkpt lat="42.85891" lon="0.16347">
        <ele>2423.62</ele>
        <time>2013-08-15T12:04:18Z</time>
      </trkpt>
      <trkpt lat="42.85897" lon="0.16342">
        <ele>2425.06</ele>
        <time>2013-08-15T12:04:36Z</time>
      </trkpt>
      <trkpt lat="42.85903" lon="0.16334">
        <ele>2426.02</ele>
        <time>2013-08-15T12:04:53Z</time>
      </trkpt>
      <trkpt lat="42.85904" lon="0.1633">
        <ele>2427.47</ele>
        <time>2013-08-15T12:05:07Z</time>
      </trkpt>
      <trkpt lat="42.85906" lon="0.16315">
        <ele>2429.39</ele>
        <time>2013-08-15T12:05:27Z</time>
      </trkpt>
      <trkpt lat="42.85901" lon="0.163">
        <ele>2430.35</ele>
        <time>2013-08-15T12:05:41Z</time>
      </trkpt>
      <trkpt lat="42.85903" lon="0.16293">
        <ele>2431.79</ele>
        <time>2013-08-15T12:05:58Z</time>
      </trkpt>
      <trkpt lat="42.85906" lon="0.16284">
        <ele>2433.71</ele>
        <time>2013-08-15T12:06:16Z</time>
      </trkpt>
      <trkpt lat="42.8591" lon="0.16275">
        <ele>2436.12</ele>
        <time>2013-08-15T12:06:35Z</time>
      </trkpt>
      <trkpt lat="42.85913" lon="0.16272">
        <ele>2436.6</ele>
        <time>2013-08-15T12:06:50Z</time>
      </trkpt>
      <trkpt lat="42.85912" lon="0.16274">
        <ele>2437.56</ele>
        <time>2013-08-15T12:07:05Z</time>
      </trkpt>
      <trkpt lat="42.85922" lon="0.16253">
        <ele>2438.04</ele>
        <time>2013-08-15T12:07:24Z</time>
      </trkpt>
      <trkpt lat="42.85922" lon="0.16238">
        <ele>2438.52</ele>
        <time>2013-08-15T12:07:38Z</time>
      </trkpt>
      <trkpt lat="42.85928" lon="0.16229">
        <ele>2439.96</ele>
        <time>2013-08-15T12:07:51Z</time>
      </trkpt>
      <trkpt lat="42.85934" lon="0.16223">
        <ele>2440.92</ele>
        <time>2013-08-15T12:08:03Z</time>
      </trkpt>
      <trkpt lat="42.85946" lon="0.16216">
        <ele>2441.89</ele>
        <time>2013-08-15T12:08:19Z</time>
      </trkpt>
      <trkpt lat="42.85951" lon="0.1621">
        <ele>2442.85</ele>
        <time>2013-08-15T12:08:33Z</time>
      </trkpt>
      <trkpt lat="42.85949" lon="0.16208">
        <ele>2443.81</ele>
        <time>2013-08-15T12:08:52Z</time>
      </trkpt>
      <trkpt lat="42.85956" lon="0.16205">
        <ele>2443.81</ele>
        <time>2013-08-15T12:09:09Z</time>
      </trkpt>
      <trkpt lat="42.85975" lon="0.16194">
        <ele>2444.77</ele>
        <time>2013-08-15T12:09:26Z</time>
      </trkpt>
      <trkpt lat="42.85983" lon="0.16186">
        <ele>2445.73</ele>
        <time>2013-08-15T12:09:41Z</time>
      </trkpt>
      <trkpt lat="42.85987" lon="0.16185">
        <ele>2446.21</ele>
        <time>2013-08-15T12:09:48Z</time>
      </trkpt>
      <trkpt lat="42.8599" lon="0.16184">
        <ele>2447.17</ele>
        <time>2013-08-15T12:09:51Z</time>
      </trkpt>
      <trkpt lat="42.8599" lon="0.16177">
        <ele>2447.17</ele>
        <time>2013-08-15T12:10:04Z</time>
      </trkpt>
      <trkpt lat="42.8599" lon="0.16179">
        <ele>2447.17</ele>
        <time>2013-08-15T12:10:17Z</time>
      </trkpt>
      <trkpt lat="42.85992" lon="0.16177">
        <ele>2447.17</ele>
        <time>2013-08-15T12:10:31Z</time>
      </trkpt>
      <trkpt lat="42.85992" lon="0.16177">
        <ele>2447.65</ele>
        <time>2013-08-15T12:10:53Z</time>
      </trkpt>
      <trkpt lat="42.85992" lon="0.16177">
        <ele>2448.13</ele>
        <time>2013-08-15T12:11:18Z</time>
      </trkpt>
      <trkpt lat="42.85992" lon="0.16177">
        <ele>2448.13</ele>
        <time>2013-08-15T12:11:44Z</time>
      </trkpt>
      <trkpt lat="42.85992" lon="0.16177">
        <ele>2453.9</ele>
        <time>2013-08-15T12:11:47Z</time>
      </trkpt>
      <trkpt lat="42.85992" lon="0.16177">
        <ele>2449.58</ele>
        <time>2013-08-15T12:11:48Z</time>
      </trkpt>
      <trkpt lat="42.85992" lon="0.16177">
        <ele>2445.73</ele>
        <time>2013-08-15T12:11:53Z</time>
      </trkpt>
      <trkpt lat="42.85992" lon="0.16177">
        <ele>2449.1</ele>
        <time>2013-08-15T12:11:54Z</time>
      </trkpt>
      <trkpt lat="42.85993" lon="0.16178">
        <ele>2448.13</ele>
        <time>2013-08-15T12:11:57Z</time>
      </trkpt>
      <trkpt lat="42.85999" lon="0.1617">
        <ele>2449.58</ele>
        <time>2013-08-15T12:12:10Z</time>
      </trkpt>
      <trkpt lat="42.86001" lon="0.16168">
        <ele>2449.1</ele>
        <time>2013-08-15T12:12:14Z</time>
      </trkpt>
      <trkpt lat="42.86008" lon="0.16162">
        <ele>2449.58</ele>
        <time>2013-08-15T12:12:24Z</time>
      </trkpt>
      <trkpt lat="42.8601" lon="0.16161">
        <ele>2449.1</ele>
        <time>2013-08-15T12:12:26Z</time>
      </trkpt>
      <trkpt lat="42.86022" lon="0.16147">
        <ele>2449.58</ele>
        <time>2013-08-15T12:12:41Z</time>
      </trkpt>
      <trkpt lat="42.86034" lon="0.16144">
        <ele>2450.06</ele>
        <time>2013-08-15T12:12:54Z</time>
      </trkpt>
      <trkpt lat="42.86042" lon="0.16148">
        <ele>2450.54</ele>
        <time>2013-08-15T12:13:09Z</time>
      </trkpt>
      <trkpt lat="42.86054" lon="0.16143">
        <ele>2451.02</ele>
        <time>2013-08-15T12:13:27Z</time>
      </trkpt>
      <trkpt lat="42.86063" lon="0.16141">
        <ele>2452.94</ele>
        <time>2013-08-15T12:13:37Z</time>
      </trkpt>
      <trkpt lat="42.86067" lon="0.16142">
        <ele>2453.9</ele>
        <time>2013-08-15T12:13:52Z</time>
      </trkpt>
      <trkpt lat="42.86071" lon="0.16145">
        <ele>2455.34</ele>
        <time>2013-08-15T12:14:07Z</time>
      </trkpt>
      <trkpt lat="42.86086" lon="0.16148">
        <ele>2456.31</ele>
        <time>2013-08-15T12:14:25Z</time>
      </trkpt>
      <trkpt lat="42.86108" lon="0.16151">
        <ele>2455.82</ele>
        <time>2013-08-15T12:14:43Z</time>
      </trkpt>
      <trkpt lat="42.86118" lon="0.16158">
        <ele>2455.82</ele>
        <time>2013-08-15T12:15:02Z</time>
      </trkpt>
      <trkpt lat="42.86126" lon="0.16161">
        <ele>2452.94</ele>
        <time>2013-08-15T12:15:22Z</time>
      </trkpt>
      <trkpt lat="42.86148" lon="0.1617">
        <ele>2451.02</ele>
        <time>2013-08-15T12:15:40Z</time>
      </trkpt>
      <trkpt lat="42.86156" lon="0.16168">
        <ele>2450.54</ele>
        <time>2013-08-15T12:15:55Z</time>
      </trkpt>
      <trkpt lat="42.86159" lon="0.16163">
        <ele>2451.5</ele>
        <time>2013-08-15T12:16:01Z</time>
      </trkpt>
      <trkpt lat="42.86162" lon="0.16162">
        <ele>2452.46</ele>
        <time>2013-08-15T12:16:11Z</time>
      </trkpt>
      <trkpt lat="42.86162" lon="0.16165">
        <ele>2453.42</ele>
        <time>2013-08-15T12:16:20Z</time>
      </trkpt>
      <trkpt lat="42.86164" lon="0.16168">
        <ele>2455.34</ele>
        <time>2013-08-15T12:16:32Z</time>
      </trkpt>
      <trkpt lat="42.86169" lon="0.16168">
        <ele>2456.31</ele>
        <time>2013-08-15T12:16:45Z</time>
      </trkpt>
      <trkpt lat="42.86171" lon="0.16167">
        <ele>2458.23</ele>
        <time>2013-08-15T12:16:59Z</time>
      </trkpt>
      <trkpt lat="42.86174" lon="0.16164">
        <ele>2459.19</ele>
        <time>2013-08-15T12:17:15Z</time>
      </trkpt>
      <trkpt lat="42.86174" lon="0.16166">
        <ele>2460.15</ele>
        <time>2013-08-15T12:17:17Z</time>
      </trkpt>
      <trkpt lat="42.86178" lon="0.16169">
        <ele>2460.15</ele>
        <time>2013-08-15T12:17:27Z</time>
      </trkpt>
      <trkpt lat="42.86179" lon="0.16169">
        <ele>2462.07</ele>
        <time>2013-08-15T12:17:37Z</time>
      </trkpt>
      <trkpt lat="42.8618" lon="0.16169">
        <ele>2462.55</ele>
        <time>2013-08-15T12:17:49Z</time>
      </trkpt>
      <trkpt lat="42.8618" lon="0.16167">
        <ele>2464.48</ele>
        <time>2013-08-15T12:18:03Z</time>
      </trkpt>
      <trkpt lat="42.86181" lon="0.16171">
        <ele>2465.44</ele>
        <time>2013-08-15T12:18:14Z</time>
      </trkpt>
      <trkpt lat="42.86184" lon="0.16172">
        <ele>2466.4</ele>
        <time>2013-08-15T12:18:26Z</time>
      </trkpt>
      <trkpt lat="42.86186" lon="0.16172">
        <ele>2467.36</ele>
        <time>2013-08-15T12:18:37Z</time>
      </trkpt>
      <trkpt lat="42.86187" lon="0.16171">
        <ele>2468.8</ele>
        <time>2013-08-15T12:18:49Z</time>
      </trkpt>
      <trkpt lat="42.86189" lon="0.16174">
        <ele>2469.28</ele>
        <time>2013-08-15T12:19:03Z</time>
      </trkpt>
      <trkpt lat="42.86191" lon="0.16173">
        <ele>2470.73</ele>
        <time>2013-08-15T12:19:11Z</time>
      </trkpt>
      <trkpt lat="42.86192" lon="0.16171">
        <ele>2472.17</ele>
        <time>2013-08-15T12:19:24Z</time>
      </trkpt>
      <trkpt lat="42.86193" lon="0.1617">
        <ele>2473.13</ele>
        <time>2013-08-15T12:19:37Z</time>
      </trkpt>
      <trkpt lat="42.86196" lon="0.16172">
        <ele>2474.09</ele>
        <time>2013-08-15T12:19:48Z</time>
      </trkpt>
      <trkpt lat="42.86197" lon="0.16174">
        <ele>2476.01</ele>
        <time>2013-08-15T12:20:01Z</time>
      </trkpt>
      <trkpt lat="42.86198" lon="0.16175">
        <ele>2476.49</ele>
        <time>2013-08-15T12:20:12Z</time>
      </trkpt>
      <trkpt lat="42.86198" lon="0.16179">
        <ele>2478.42</ele>
        <time>2013-08-15T12:20:25Z</time>
      </trkpt>
      <trkpt lat="42.86201" lon="0.16179">
        <ele>2478.9</ele>
        <time>2013-08-15T12:20:36Z</time>
      </trkpt>
      <trkpt lat="42.86204" lon="0.16177">
        <ele>2480.34</ele>
        <time>2013-08-15T12:20:49Z</time>
      </trkpt>
      <trkpt lat="42.86204" lon="0.16175">
        <ele>2481.78</ele>
        <time>2013-08-15T12:21:02Z</time>
      </trkpt>
      <trkpt lat="42.86209" lon="0.16174">
        <ele>2483.22</ele>
        <time>2013-08-15T12:21:15Z</time>
      </trkpt>
      <trkpt lat="42.8621" lon="0.16172">
        <ele>2484.18</ele>
        <time>2013-08-15T12:21:28Z</time>
      </trkpt>
      <trkpt lat="42.86211" lon="0.16171">
        <ele>2485.63</ele>
        <time>2013-08-15T12:21:43Z</time>
      </trkpt>
      <trkpt lat="42.86213" lon="0.1617">
        <ele>2486.59</ele>
        <time>2013-08-15T12:21:55Z</time>
      </trkpt>
      <trkpt lat="42.86214" lon="0.16168">
        <ele>2487.55</ele>
        <time>2013-08-15T12:22:09Z</time>
      </trkpt>
      <trkpt lat="42.86217" lon="0.16165">
        <ele>2489.47</ele>
        <time>2013-08-15T12:22:25Z</time>
      </trkpt>
      <trkpt lat="42.86218" lon="0.16166">
        <ele>2490.91</ele>
        <time>2013-08-15T12:22:41Z</time>
      </trkpt>
      <trkpt lat="42.86219" lon="0.16166">
        <ele>2492.36</ele>
        <time>2013-08-15T12:22:58Z</time>
      </trkpt>
      <trkpt lat="42.86224" lon="0.16164">
        <ele>2493.32</ele>
        <time>2013-08-15T12:23:10Z</time>
      </trkpt>
      <trkpt lat="42.86225" lon="0.16161">
        <ele>2493.8</ele>
        <time>2013-08-15T12:23:29Z</time>
      </trkpt>
      <trkpt lat="42.86231" lon="0.16158">
        <ele>2495.72</ele>
        <time>2013-08-15T12:23:43Z</time>
      </trkpt>
      <trkpt lat="42.86232" lon="0.16157">
        <ele>2497.16</ele>
        <time>2013-08-15T12:23:58Z</time>
      </trkpt>
      <trkpt lat="42.86234" lon="0.16155">
        <ele>2498.12</ele>
        <time>2013-08-15T12:24:12Z</time>
      </trkpt>
      <trkpt lat="42.86241" lon="0.16151">
        <ele>2499.08</ele>
        <time>2013-08-15T12:24:24Z</time>
      </trkpt>
      <trkpt lat="42.86243" lon="0.16149">
        <ele>2500.05</ele>
        <time>2013-08-15T12:24:42Z</time>
      </trkpt>
      <trkpt lat="42.86244" lon="0.16145">
        <ele>2501.49</ele>
        <time>2013-08-15T12:25:03Z</time>
      </trkpt>
      <trkpt lat="42.86248" lon="0.16144">
        <ele>2503.41</ele>
        <time>2013-08-15T12:25:21Z</time>
      </trkpt>
      <trkpt lat="42.86251" lon="0.16142">
        <ele>2504.85</ele>
        <time>2013-08-15T12:25:33Z</time>
      </trkpt>
      <trkpt lat="42.86253" lon="0.16137">
        <ele>2505.33</ele>
        <time>2013-08-15T12:25:45Z</time>
      </trkpt>
      <trkpt lat="42.86255" lon="0.16135">
        <ele>2507.26</ele>
        <time>2013-08-15T12:26:01Z</time>
      </trkpt>
      <trkpt lat="42.8626" lon="0.16131">
        <ele>2509.18</ele>
        <time>2013-08-15T12:26:18Z</time>
      </trkpt>
      <trkpt lat="42.86261" lon="0.16128">
        <ele>2510.14</ele>
        <time>2013-08-15T12:26:34Z</time>
      </trkpt>
      <trkpt lat="42.86266" lon="0.16123">
        <ele>2511.58</ele>
        <time>2013-08-15T12:26:52Z</time>
      </trkpt>
      <trkpt lat="42.86268" lon="0.16121">
        <ele>2513.02</ele>
        <time>2013-08-15T12:27:00Z</time>
      </trkpt>
      <trkpt lat="42.86269" lon="0.16121">
        <ele>2513.98</ele>
        <time>2013-08-15T12:27:13Z</time>
      </trkpt>
      <trkpt lat="42.8627" lon="0.16118">
        <ele>2514.47</ele>
        <time>2013-08-15T12:27:26Z</time>
      </trkpt>
      <trkpt lat="42.86272" lon="0.16116">
        <ele>2515.43</ele>
        <time>2013-08-15T12:27:39Z</time>
      </trkpt>
      <trkpt lat="42.86274" lon="0.16109">
        <ele>2515.91</ele>
        <time>2013-08-15T12:27:50Z</time>
      </trkpt>
      <trkpt lat="42.86279" lon="0.16101">
        <ele>2517.35</ele>
        <time>2013-08-15T12:28:00Z</time>
      </trkpt>
      <trkpt lat="42.86281" lon="0.16097">
        <ele>2518.79</ele>
        <time>2013-08-15T12:28:14Z</time>
      </trkpt>
      <trkpt lat="42.86283" lon="0.16094">
        <ele>2519.75</ele>
        <time>2013-08-15T12:28:28Z</time>
      </trkpt>
      <trkpt lat="42.86285" lon="0.16089">
        <ele>2521.19</ele>
        <time>2013-08-15T12:28:42Z</time>
      </trkpt>
      <trkpt lat="42.86289" lon="0.16084">
        <ele>2522.16</ele>
        <time>2013-08-15T12:28:55Z</time>
      </trkpt>
      <trkpt lat="42.86292" lon="0.16081">
        <ele>2524.08</ele>
        <time>2013-08-15T12:29:10Z</time>
      </trkpt>
      <trkpt lat="42.86293" lon="0.16079">
        <ele>2524.56</ele>
        <time>2013-08-15T12:29:25Z</time>
      </trkpt>
      <trkpt lat="42.86294" lon="0.16077">
        <ele>2526</ele>
        <time>2013-08-15T12:29:40Z</time>
      </trkpt>
      <trkpt lat="42.86296" lon="0.16074">
        <ele>2526.96</ele>
        <time>2013-08-15T12:29:58Z</time>
      </trkpt>
      <trkpt lat="42.863" lon="0.16071">
        <ele>2527.92</ele>
        <time>2013-08-15T12:30:06Z</time>
      </trkpt>
      <trkpt lat="42.86301" lon="0.16071">
        <ele>2528.89</ele>
        <time>2013-08-15T12:30:18Z</time>
      </trkpt>
      <trkpt lat="42.86302" lon="0.16074">
        <ele>2530.81</ele>
        <time>2013-08-15T12:30:30Z</time>
      </trkpt>
      <trkpt lat="42.86302" lon="0.16078">
        <ele>2531.77</ele>
        <time>2013-08-15T12:30:41Z</time>
      </trkpt>
      <trkpt lat="42.86304" lon="0.16082">
        <ele>2531.77</ele>
        <time>2013-08-15T12:30:52Z</time>
      </trkpt>
      <trkpt lat="42.86307" lon="0.16087">
        <ele>2533.69</ele>
        <time>2013-08-15T12:31:01Z</time>
      </trkpt>
      <trkpt lat="42.86308" lon="0.16088">
        <ele>2534.17</ele>
        <time>2013-08-15T12:31:14Z</time>
      </trkpt>
      <trkpt lat="42.86309" lon="0.1609">
        <ele>2536.1</ele>
        <time>2013-08-15T12:31:26Z</time>
      </trkpt>
      <trkpt lat="42.8631" lon="0.16094">
        <ele>2536.1</ele>
        <time>2013-08-15T12:31:33Z</time>
      </trkpt>
      <trkpt lat="42.86311" lon="0.16097">
        <ele>2537.06</ele>
        <time>2013-08-15T12:31:37Z</time>
      </trkpt>
      <trkpt lat="42.86312" lon="0.16104">
        <ele>2537.54</ele>
        <time>2013-08-15T12:31:53Z</time>
      </trkpt>
      <trkpt lat="42.86314" lon="0.16106">
        <ele>2538.98</ele>
        <time>2013-08-15T12:32:02Z</time>
      </trkpt>
      <trkpt lat="42.86315" lon="0.16111">
        <ele>2539.94</ele>
        <time>2013-08-15T12:32:12Z</time>
      </trkpt>
      <trkpt lat="42.86314" lon="0.16118">
        <ele>2540.42</ele>
        <time>2013-08-15T12:32:20Z</time>
      </trkpt>
      <trkpt lat="42.86316" lon="0.16125">
        <ele>2540.9</ele>
        <time>2013-08-15T12:32:33Z</time>
      </trkpt>
      <trkpt lat="42.86317" lon="0.16124">
        <ele>2542.34</ele>
        <time>2013-08-15T12:32:45Z</time>
      </trkpt>
      <trkpt lat="42.86319" lon="0.16122">
        <ele>2543.31</ele>
        <time>2013-08-15T12:33:01Z</time>
      </trkpt>
      <trkpt lat="42.86323" lon="0.16121">
        <ele>2543.79</ele>
        <time>2013-08-15T12:33:11Z</time>
      </trkpt>
      <trkpt lat="42.86326" lon="0.16123">
        <ele>2545.23</ele>
        <time>2013-08-15T12:33:22Z</time>
      </trkpt>
      <trkpt lat="42.86327" lon="0.16123">
        <ele>2546.67</ele>
        <time>2013-08-15T12:33:31Z</time>
      </trkpt>
      <trkpt lat="42.86331" lon="0.16121">
        <ele>2547.63</ele>
        <time>2013-08-15T12:33:42Z</time>
      </trkpt>
      <trkpt lat="42.86332" lon="0.16119">
        <ele>2548.59</ele>
        <time>2013-08-15T12:33:51Z</time>
      </trkpt>
      <trkpt lat="42.86335" lon="0.16118">
        <ele>2550.03</ele>
        <time>2013-08-15T12:34:00Z</time>
      </trkpt>
      <trkpt lat="42.86335" lon="0.16111">
        <ele>2551</ele>
        <time>2013-08-15T12:34:15Z</time>
      </trkpt>
      <trkpt lat="42.86339" lon="0.16102">
        <ele>2552.92</ele>
        <time>2013-08-15T12:34:32Z</time>
      </trkpt>
      <trkpt lat="42.86342" lon="0.16098">
        <ele>2554.84</ele>
        <time>2013-08-15T12:34:46Z</time>
      </trkpt>
      <trkpt lat="42.86342" lon="0.16098">
        <ele>2553.88</ele>
        <time>2013-08-15T12:35:06Z</time>
      </trkpt>
      <trkpt lat="42.86343" lon="0.16097">
        <ele>2556.76</ele>
        <time>2013-08-15T12:35:22Z</time>
      </trkpt>
      <trkpt lat="42.86344" lon="0.16097">
        <ele>2557.73</ele>
        <time>2013-08-15T12:35:35Z</time>
      </trkpt>
      <trkpt lat="42.86347" lon="0.16096">
        <ele>2559.65</ele>
        <time>2013-08-15T12:35:47Z</time>
      </trkpt>
      <trkpt lat="42.86351" lon="0.16099">
        <ele>2560.61</ele>
        <time>2013-08-15T12:35:57Z</time>
      </trkpt>
      <trkpt lat="42.86351" lon="0.16099">
        <ele>2562.53</ele>
        <time>2013-08-15T12:36:11Z</time>
      </trkpt>
      <trkpt lat="42.86351" lon="0.16099">
        <ele>2563.97</ele>
        <time>2013-08-15T12:36:25Z</time>
      </trkpt>
      <trkpt lat="42.86352" lon="0.16099">
        <ele>2564.93</ele>
        <time>2013-08-15T12:36:37Z</time>
      </trkpt>
      <trkpt lat="42.86352" lon="0.16099">
        <ele>2566.38</ele>
        <time>2013-08-15T12:36:49Z</time>
      </trkpt>
      <trkpt lat="42.86352" lon="0.16099">
        <ele>2566.86</ele>
        <time>2013-08-15T12:37:00Z</time>
      </trkpt>
      <trkpt lat="42.86352" lon="0.16099">
        <ele>2568.3</ele>
        <time>2013-08-15T12:37:12Z</time>
      </trkpt>
      <trkpt lat="42.86353" lon="0.16098">
        <ele>2569.74</ele>
        <time>2013-08-15T12:37:27Z</time>
      </trkpt>
      <trkpt lat="42.86356" lon="0.16095">
        <ele>2571.18</ele>
        <time>2013-08-15T12:37:43Z</time>
      </trkpt>
      <trkpt lat="42.86356" lon="0.16095">
        <ele>2573.11</ele>
        <time>2013-08-15T12:38:02Z</time>
      </trkpt>
      <trkpt lat="42.86359" lon="0.16094">
        <ele>2573.59</ele>
        <time>2013-08-15T12:38:15Z</time>
      </trkpt>
      <trkpt lat="42.86359" lon="0.16094">
        <ele>2574.55</ele>
        <time>2013-08-15T12:38:23Z</time>
      </trkpt>
      <trkpt lat="42.86359" lon="0.16094">
        <ele>2575.99</ele>
        <time>2013-08-15T12:38:38Z</time>
      </trkpt>
      <trkpt lat="42.86361" lon="0.16085">
        <ele>2575.99</ele>
        <time>2013-08-15T12:38:48Z</time>
      </trkpt>
      <trkpt lat="42.86361" lon="0.16085">
        <ele>2577.43</ele>
        <time>2013-08-15T12:39:00Z</time>
      </trkpt>
      <trkpt lat="42.86361" lon="0.16085">
        <ele>2578.39</ele>
        <time>2013-08-15T12:39:13Z</time>
      </trkpt>
      <trkpt lat="42.86371" lon="0.16067">
        <ele>2578.39</ele>
        <time>2013-08-15T12:39:24Z</time>
      </trkpt>
      <trkpt lat="42.86377" lon="0.16058">
        <ele>2580.32</ele>
        <time>2013-08-15T12:39:36Z</time>
      </trkpt>
      <trkpt lat="42.86384" lon="0.16049">
        <ele>2580.8</ele>
        <time>2013-08-15T12:39:47Z</time>
      </trkpt>
      <trkpt lat="42.86384" lon="0.16049">
        <ele>2581.76</ele>
        <time>2013-08-15T12:40:00Z</time>
      </trkpt>
      <trkpt lat="42.86384" lon="0.16049">
        <ele>2582.72</ele>
        <time>2013-08-15T12:40:11Z</time>
      </trkpt>
      <trkpt lat="42.86384" lon="0.16049">
        <ele>2585.12</ele>
        <time>2013-08-15T12:40:24Z</time>
      </trkpt>
      <trkpt lat="42.86385" lon="0.16049">
        <ele>2585.6</ele>
        <time>2013-08-15T12:40:36Z</time>
      </trkpt>
      <trkpt lat="42.86385" lon="0.16049">
        <ele>2587.04</ele>
        <time>2013-08-15T12:40:47Z</time>
      </trkpt>
      <trkpt lat="42.86385" lon="0.16049">
        <ele>2588.01</ele>
        <time>2013-08-15T12:41:01Z</time>
      </trkpt>
      <trkpt lat="42.86385" lon="0.16045">
        <ele>2588.49</ele>
        <time>2013-08-15T12:41:10Z</time>
      </trkpt>
      <trkpt lat="42.86387" lon="0.16034">
        <ele>2590.41</ele>
        <time>2013-08-15T12:41:23Z</time>
      </trkpt>
      <trkpt lat="42.86387" lon="0.16034">
        <ele>2592.33</ele>
        <time>2013-08-15T12:41:33Z</time>
      </trkpt>
      <trkpt lat="42.86387" lon="0.16034">
        <ele>2592.33</ele>
        <time>2013-08-15T12:41:44Z</time>
      </trkpt>
      <trkpt lat="42.8639" lon="0.16022">
        <ele>2593.77</ele>
        <time>2013-08-15T12:41:55Z</time>
      </trkpt>
      <trkpt lat="42.86395" lon="0.16014">
        <ele>2594.25</ele>
        <time>2013-08-15T12:42:06Z</time>
      </trkpt>
      <trkpt lat="42.86408" lon="0.15984">
        <ele>2595.22</ele>
        <time>2013-08-15T12:42:19Z</time>
      </trkpt>
      <trkpt lat="42.86412" lon="0.15978">
        <ele>2595.7</ele>
        <time>2013-08-15T12:42:31Z</time>
      </trkpt>
      <trkpt lat="42.86414" lon="0.15972">
        <ele>2597.62</ele>
        <time>2013-08-15T12:42:44Z</time>
      </trkpt>
      <trkpt lat="42.86417" lon="0.15968">
        <ele>2599.06</ele>
        <time>2013-08-15T12:42:58Z</time>
      </trkpt>
      <trkpt lat="42.86419" lon="0.15966">
        <ele>2600.02</ele>
        <time>2013-08-15T12:43:10Z</time>
      </trkpt>
      <trkpt lat="42.86419" lon="0.15966">
        <ele>2599.54</ele>
        <time>2013-08-15T12:43:27Z</time>
      </trkpt>
      <trkpt lat="42.8642" lon="0.15965">
        <ele>2600.02</ele>
        <time>2013-08-15T12:43:45Z</time>
      </trkpt>
      <trkpt lat="42.86421" lon="0.15965">
        <ele>2600.02</ele>
        <time>2013-08-15T12:44:08Z</time>
      </trkpt>
      <trkpt lat="42.86422" lon="0.15965">
        <ele>2603.39</ele>
        <time>2013-08-15T12:44:22Z</time>
      </trkpt>
      <trkpt lat="42.86422" lon="0.15965">
        <ele>2600.5</ele>
        <time>2013-08-15T12:44:23Z</time>
      </trkpt>
      <trkpt lat="42.86422" lon="0.15965">
        <ele>2599.54</ele>
        <time>2013-08-15T12:44:25Z</time>
      </trkpt>
      <trkpt lat="42.86422" lon="0.15965">
        <ele>2600.02</ele>
        <time>2013-08-15T12:44:51Z</time>
      </trkpt>
      <trkpt lat="42.86423" lon="0.15964">
        <ele>2600.02</ele>
        <time>2013-08-15T12:45:05Z</time>
      </trkpt>
      <trkpt lat="42.86423" lon="0.15962">
        <ele>2600.02</ele>
        <time>2013-08-15T12:45:22Z</time>
      </trkpt>
      <trkpt lat="42.86423" lon="0.15962">
        <ele>2600.02</ele>
        <time>2013-08-15T12:45:39Z</time>
      </trkpt>
      <trkpt lat="42.86422" lon="0.15961">
        <ele>2600.02</ele>
        <time>2013-08-15T12:45:58Z</time>
      </trkpt>
      <trkpt lat="42.86422" lon="0.15962">
        <ele>2600.5</ele>
        <time>2013-08-15T12:46:11Z</time>
      </trkpt>
      <trkpt lat="42.86422" lon="0.15962">
        <ele>2601.46</ele>
        <time>2013-08-15T12:46:31Z</time>
      </trkpt>
      <trkpt lat="42.86423" lon="0.15962">
        <ele>2600.5</ele>
        <time>2013-08-15T12:46:46Z</time>
      </trkpt>
      <trkpt lat="42.86423" lon="0.15962">
        <ele>2600.98</ele>
        <time>2013-08-15T12:47:12Z</time>
      </trkpt>
      <trkpt lat="42.86423" lon="0.15962">
        <ele>2601.46</ele>
        <time>2013-08-15T12:47:35Z</time>
      </trkpt>
      <trkpt lat="42.86423" lon="0.15962">
        <ele>2600.98</ele>
        <time>2013-08-15T12:47:55Z</time>
      </trkpt>
      <trkpt lat="42.86423" lon="0.15963">
        <ele>2601.46</ele>
        <time>2013-08-15T12:48:05Z</time>
      </trkpt>
      <trkpt lat="42.86423" lon="0.15964">
        <ele>2601.46</ele>
        <time>2013-08-15T12:48:22Z</time>
      </trkpt>
      <trkpt lat="42.86423" lon="0.15964">
        <ele>2601.46</ele>
        <time>2013-08-15T12:48:45Z</time>
      </trkpt>
      <trkpt lat="42.86423" lon="0.15964">
        <ele>2602.43</ele>
        <time>2013-08-15T12:49:03Z</time>
      </trkpt>
      <trkpt lat="42.86423" lon="0.15964">
        <ele>2601.95</ele>
        <time>2013-08-15T12:49:33Z</time>
      </trkpt>
      <trkpt lat="42.86424" lon="0.15964">
        <ele>2601.95</ele>
        <time>2013-08-15T12:50:00Z</time>
      </trkpt>
      <trkpt lat="42.86424" lon="0.15964">
        <ele>2602.91</ele>
        <time>2013-08-15T12:50:26Z</time>
      </trkpt>
      <trkpt lat="42.86424" lon="0.15963">
        <ele>2590.41</ele>
        <time>2013-08-15T12:50:39Z</time>
      </trkpt>
      <trkpt lat="42.86424" lon="0.15963">
        <ele>2606.27</ele>
        <time>2013-08-15T12:50:40Z</time>
      </trkpt>
      <trkpt lat="42.86424" lon="0.15963">
        <ele>2605.79</ele>
        <time>2013-08-15T12:50:41Z</time>
      </trkpt>
      <trkpt lat="42.86424" lon="0.15963">
        <ele>2602.43</ele>
        <time>2013-08-15T12:50:44Z</time>
      </trkpt>
      <trkpt lat="42.86424" lon="0.15963">
        <ele>2596.18</ele>
        <time>2013-08-15T12:50:45Z</time>
      </trkpt>
      <trkpt lat="42.86424" lon="0.15963">
        <ele>2603.87</ele>
        <time>2013-08-15T12:50:46Z</time>
      </trkpt>
      <trkpt lat="42.86424" lon="0.15964">
        <ele>2602.91</ele>
        <time>2013-08-15T12:51:03Z</time>
      </trkpt>
      <trkpt lat="42.86424" lon="0.15964">
        <ele>2603.87</ele>
        <time>2013-08-15T12:51:30Z</time>
      </trkpt>
      <trkpt lat="42.86424" lon="0.15964">
        <ele>2603.39</ele>
        <time>2013-08-15T12:51:59Z</time>
      </trkpt>
      <trkpt lat="42.86424" lon="0.15964">
        <ele>2602.91</ele>
        <time>2013-08-15T12:52:22Z</time>
      </trkpt>
      <trkpt lat="42.86424" lon="0.15964">
        <ele>2604.35</ele>
        <time>2013-08-15T12:52:43Z</time>
      </trkpt>
      <trkpt lat="42.86424" lon="0.15964">
        <ele>2603.87</ele>
        <time>2013-08-15T12:53:04Z</time>
      </trkpt>
      <trkpt lat="42.86424" lon="0.15964">
        <ele>2604.35</ele>
        <time>2013-08-15T12:53:29Z</time>
      </trkpt>
      <trkpt lat="42.86424" lon="0.15964">
        <ele>2603.39</ele>
        <time>2013-08-15T12:53:55Z</time>
      </trkpt>
      <trkpt lat="42.86424" lon="0.15964">
        <ele>2603.39</ele>
        <time>2013-08-15T12:54:18Z</time>
      </trkpt>
      <trkpt lat="42.86424" lon="0.15964">
        <ele>2603.87</ele>
        <time>2013-08-15T12:54:41Z</time>
      </trkpt>
      <trkpt lat="42.86424" lon="0.15963">
        <ele>2603.39</ele>
        <time>2013-08-15T12:55:08Z</time>
      </trkpt>
      <trkpt lat="42.86424" lon="0.15963">
        <ele>2603.87</ele>
        <time>2013-08-15T12:55:33Z</time>
      </trkpt>
      <trkpt lat="42.86424" lon="0.15963">
        <ele>2603.39</ele>
        <time>2013-08-15T12:55:56Z</time>
      </trkpt>
      <trkpt lat="42.86424" lon="0.15963">
        <ele>2603.87</ele>
        <time>2013-08-15T12:56:22Z</time>
      </trkpt>
      <trkpt lat="42.86424" lon="0.15963">
        <ele>2604.35</ele>
        <time>2013-08-15T12:56:53Z</time>
      </trkpt>
      <trkpt lat="42.86424" lon="0.15963">
        <ele>2604.35</ele>
        <time>2013-08-15T12:57:25Z</time>
      </trkpt>
      <trkpt lat="42.86424" lon="0.15964">
        <ele>2604.35</ele>
        <time>2013-08-15T12:57:49Z</time>
      </trkpt>
      <trkpt lat="42.86425" lon="0.15963">
        <ele>2604.35</ele>
        <time>2013-08-15T12:58:09Z</time>
      </trkpt>
      <trkpt lat="42.86425" lon="0.15963">
        <ele>2604.83</ele>
        <time>2013-08-15T12:58:32Z</time>
      </trkpt>
      <trkpt lat="42.86425" lon="0.15963">
        <ele>2604.83</ele>
        <time>2013-08-15T12:58:59Z</time>
      </trkpt>
      <trkpt lat="42.86424" lon="0.15959">
        <ele>2604.83</ele>
        <time>2013-08-15T12:59:22Z</time>
      </trkpt>
      <trkpt lat="42.86424" lon="0.1596">
        <ele>2605.79</ele>
        <time>2013-08-15T12:59:55Z</time>
      </trkpt>
      <trkpt lat="42.86424" lon="0.1596">
        <ele>2605.31</ele>
        <time>2013-08-15T13:00:16Z</time>
      </trkpt>
      <trkpt lat="42.86424" lon="0.15961">
        <ele>2605.31</ele>
        <time>2013-08-15T13:00:38Z</time>
      </trkpt>
      <trkpt lat="42.86425" lon="0.15961">
        <ele>2606.27</ele>
        <time>2013-08-15T13:01:00Z</time>
      </trkpt>
      <trkpt lat="42.86425" lon="0.15961">
        <ele>2613</ele>
        <time>2013-08-15T13:01:11Z</time>
      </trkpt>
      <trkpt lat="42.86425" lon="0.15961">
        <ele>2607.23</ele>
        <time>2013-08-15T13:01:12Z</time>
      </trkpt>
      <trkpt lat="42.86425" lon="0.15961">
        <ele>2602.43</ele>
        <time>2013-08-15T13:01:13Z</time>
      </trkpt>
      <trkpt lat="42.86425" lon="0.15961">
        <ele>2606.75</ele>
        <time>2013-08-15T13:01:14Z</time>
      </trkpt>
      <trkpt lat="42.86424" lon="0.1596">
        <ele>2601.95</ele>
        <time>2013-08-15T13:01:22Z</time>
      </trkpt>
      <trkpt lat="42.86424" lon="0.1596">
        <ele>2605.79</ele>
        <time>2013-08-15T13:01:23Z</time>
      </trkpt>
      <trkpt lat="42.86424" lon="0.15961">
        <ele>2605.79</ele>
        <time>2013-08-15T13:01:43Z</time>
      </trkpt>
      <trkpt lat="42.86424" lon="0.15961">
        <ele>2605.79</ele>
        <time>2013-08-15T13:02:08Z</time>
      </trkpt>
      <trkpt lat="42.86425" lon="0.15961">
        <ele>2605.79</ele>
        <time>2013-08-15T13:02:37Z</time>
      </trkpt>
      <trkpt lat="42.86424" lon="0.15961">
        <ele>2606.27</ele>
        <time>2013-08-15T13:02:59Z</time>
      </trkpt>
      <trkpt lat="42.86424" lon="0.15961">
        <ele>2606.27</ele>
        <time>2013-08-15T13:03:24Z</time>
      </trkpt>
      <trkpt lat="42.86425" lon="0.15961">
        <ele>2606.75</ele>
        <time>2013-08-15T13:03:47Z</time>
      </trkpt>
      <trkpt lat="42.86425" lon="0.15961">
        <ele>2606.75</ele>
        <time>2013-08-15T13:04:07Z</time>
      </trkpt>
      <trkpt lat="42.86425" lon="0.15962">
        <ele>2606.75</ele>
        <time>2013-08-15T13:04:26Z</time>
      </trkpt>
      <trkpt lat="42.86425" lon="0.15962">
        <ele>2606.75</ele>
        <time>2013-08-15T13:04:50Z</time>
      </trkpt>
      <trkpt lat="42.86425" lon="0.15962">
        <ele>2606.75</ele>
        <time>2013-08-15T13:05:08Z</time>
      </trkpt>
      <trkpt lat="42.86425" lon="0.15962">
        <ele>2607.23</ele>
        <time>2013-08-15T13:05:32Z</time>
      </trkpt>
      <trkpt lat="42.86425" lon="0.15962">
        <ele>2607.23</ele>
        <time>2013-08-15T13:05:54Z</time>
      </trkpt>
      <trkpt lat="42.86425" lon="0.15962">
        <ele>2608.19</ele>
        <time>2013-08-15T13:06:16Z</time>
      </trkpt>
      <trkpt lat="42.86425" lon="0.15962">
        <ele>2607.71</ele>
        <time>2013-08-15T13:06:37Z</time>
      </trkpt>
      <trkpt lat="42.86424" lon="0.15962">
        <ele>2608.19</ele>
        <time>2013-08-15T13:06:58Z</time>
      </trkpt>
      <trkpt lat="42.86424" lon="0.15962">
        <ele>2608.19</ele>
        <time>2013-08-15T13:07:12Z</time>
      </trkpt>
      <trkpt lat="42.86424" lon="0.15962">
        <ele>2607.71</ele>
        <time>2013-08-15T13:07:24Z</time>
      </trkpt>
      <trkpt lat="42.86425" lon="0.15963">
        <ele>2607.23</ele>
        <time>2013-08-15T13:07:38Z</time>
      </trkpt>
      <trkpt lat="42.86425" lon="0.15963">
        <ele>2608.19</ele>
        <time>2013-08-15T13:07:53Z</time>
      </trkpt>
      <trkpt lat="42.86425" lon="0.15963">
        <ele>2608.19</ele>
        <time>2013-08-15T13:08:07Z</time>
      </trkpt>
      <trkpt lat="42.86425" lon="0.15963">
        <ele>2608.19</ele>
        <time>2013-08-15T13:08:23Z</time>
      </trkpt>
      <trkpt lat="42.86425" lon="0.15963">
        <ele>2608.67</ele>
        <time>2013-08-15T13:08:47Z</time>
      </trkpt>
      <trkpt lat="42.86425" lon="0.15963">
        <ele>2608.19</ele>
        <time>2013-08-15T13:09:10Z</time>
      </trkpt>
      <trkpt lat="42.86425" lon="0.15963">
        <ele>2608.19</ele>
        <time>2013-08-15T13:09:30Z</time>
      </trkpt>
      <trkpt lat="42.86425" lon="0.15963">
        <ele>2606.75</ele>
        <time>2013-08-15T13:09:47Z</time>
      </trkpt>
      <trkpt lat="42.86425" lon="0.15963">
        <ele>2608.19</ele>
        <time>2013-08-15T13:10:10Z</time>
      </trkpt>
      <trkpt lat="42.86424" lon="0.15963">
        <ele>2607.71</ele>
        <time>2013-08-15T13:10:28Z</time>
      </trkpt>
      <trkpt lat="42.86424" lon="0.15963">
        <ele>2608.19</ele>
        <time>2013-08-15T13:10:42Z</time>
      </trkpt>
      <trkpt lat="42.86424" lon="0.15963">
        <ele>2608.19</ele>
        <time>2013-08-15T13:10:59Z</time>
      </trkpt>
      <trkpt lat="42.86424" lon="0.15963">
        <ele>2608.19</ele>
        <time>2013-08-15T13:11:15Z</time>
      </trkpt>
      <trkpt lat="42.86422" lon="0.15967">
        <ele>2606.75</ele>
        <time>2013-08-15T13:11:33Z</time>
      </trkpt>
      <trkpt lat="42.8642" lon="0.15968">
        <ele>2607.23</ele>
        <time>2013-08-15T13:11:36Z</time>
      </trkpt>
      <trkpt lat="42.86412" lon="0.15975">
        <ele>2605.31</ele>
        <time>2013-08-15T13:11:49Z</time>
      </trkpt>
      <trkpt lat="42.8641" lon="0.15985">
        <ele>2603.87</ele>
        <time>2013-08-15T13:12:04Z</time>
      </trkpt>
      <trkpt lat="42.8641" lon="0.15994">
        <ele>2601.95</ele>
        <time>2013-08-15T13:12:20Z</time>
      </trkpt>
      <trkpt lat="42.86405" lon="0.16001">
        <ele>2599.54</ele>
        <time>2013-08-15T13:12:35Z</time>
      </trkpt>
      <trkpt lat="42.86403" lon="0.1601">
        <ele>2596.66</ele>
        <time>2013-08-15T13:12:51Z</time>
      </trkpt>
      <trkpt lat="42.86406" lon="0.16022">
        <ele>2594.25</ele>
        <time>2013-08-15T13:13:06Z</time>
      </trkpt>
      <trkpt lat="42.86403" lon="0.16028">
        <ele>2592.33</ele>
        <time>2013-08-15T13:13:20Z</time>
      </trkpt>
      <trkpt lat="42.864" lon="0.16033">
        <ele>2590.89</ele>
        <time>2013-08-15T13:13:38Z</time>
      </trkpt>
      <trkpt lat="42.86397" lon="0.1604">
        <ele>2588.97</ele>
        <time>2013-08-15T13:13:51Z</time>
      </trkpt>
      <trkpt lat="42.86396" lon="0.16051">
        <ele>2586.56</ele>
        <time>2013-08-15T13:14:08Z</time>
      </trkpt>
      <trkpt lat="42.86394" lon="0.16063">
        <ele>2584.16</ele>
        <time>2013-08-15T13:14:23Z</time>
      </trkpt>
      <trkpt lat="42.86394" lon="0.16076">
        <ele>2582.24</ele>
        <time>2013-08-15T13:14:37Z</time>
      </trkpt>
      <trkpt lat="42.86396" lon="0.16093">
        <ele>2581.28</ele>
        <time>2013-08-15T13:14:53Z</time>
      </trkpt>
      <trkpt lat="42.86396" lon="0.16093">
        <ele>2581.28</ele>
        <time>2013-08-15T13:15:09Z</time>
      </trkpt>
      <trkpt lat="42.86384" lon="0.16091">
        <ele>2579.84</ele>
        <time>2013-08-15T13:15:24Z</time>
      </trkpt>
      <trkpt lat="42.86377" lon="0.16097">
        <ele>2578.39</ele>
        <time>2013-08-15T13:15:38Z</time>
      </trkpt>
      <trkpt lat="42.86374" lon="0.16105">
        <ele>2577.43</ele>
        <time>2013-08-15T13:15:51Z</time>
      </trkpt>
      <trkpt lat="42.86372" lon="0.16114">
        <ele>2576.95</ele>
        <time>2013-08-15T13:16:01Z</time>
      </trkpt>
      <trkpt lat="42.8637" lon="0.16123">
        <ele>2575.51</ele>
        <time>2013-08-15T13:16:16Z</time>
      </trkpt>
      <trkpt lat="42.86368" lon="0.16136">
        <ele>2574.55</ele>
        <time>2013-08-15T13:16:29Z</time>
      </trkpt>
      <trkpt lat="42.86368" lon="0.16142">
        <ele>2575.03</ele>
        <time>2013-08-15T13:16:40Z</time>
      </trkpt>
      <trkpt lat="42.8637" lon="0.16146">
        <ele>2574.07</ele>
        <time>2013-08-15T13:16:52Z</time>
      </trkpt>
      <trkpt lat="42.8637" lon="0.16147">
        <ele>2573.59</ele>
        <time>2013-08-15T13:17:06Z</time>
      </trkpt>
      <trkpt lat="42.8637" lon="0.16152">
        <ele>2572.14</ele>
        <time>2013-08-15T13:17:17Z</time>
      </trkpt>
      <trkpt lat="42.8637" lon="0.16154">
        <ele>2572.14</ele>
        <time>2013-08-15T13:17:29Z</time>
      </trkpt>
      <trkpt lat="42.86371" lon="0.16167">
        <ele>2570.22</ele>
        <time>2013-08-15T13:17:44Z</time>
      </trkpt>
      <trkpt lat="42.86376" lon="0.16176">
        <ele>2570.22</ele>
        <time>2013-08-15T13:17:54Z</time>
      </trkpt>
      <trkpt lat="42.86381" lon="0.16181">
        <ele>2569.26</ele>
        <time>2013-08-15T13:18:09Z</time>
      </trkpt>
      <trkpt lat="42.86381" lon="0.16181">
        <ele>2567.82</ele>
        <time>2013-08-15T13:18:14Z</time>
      </trkpt>
      <trkpt lat="42.86386" lon="0.16187">
        <ele>2567.34</ele>
        <time>2013-08-15T13:18:26Z</time>
      </trkpt>
      <trkpt lat="42.86386" lon="0.16183">
        <ele>2566.38</ele>
        <time>2013-08-15T13:18:38Z</time>
      </trkpt>
      <trkpt lat="42.86391" lon="0.16187">
        <ele>2564.45</ele>
        <time>2013-08-15T13:18:53Z</time>
      </trkpt>
      <trkpt lat="42.86396" lon="0.16181">
        <ele>2561.09</ele>
        <time>2013-08-15T13:19:08Z</time>
      </trkpt>
      <trkpt lat="42.864" lon="0.16181">
        <ele>2558.69</ele>
        <time>2013-08-15T13:19:23Z</time>
      </trkpt>
      <trkpt lat="42.86404" lon="0.16178">
        <ele>2558.69</ele>
        <time>2013-08-15T13:19:38Z</time>
      </trkpt>
      <trkpt lat="42.86405" lon="0.1618">
        <ele>2556.76</ele>
        <time>2013-08-15T13:19:47Z</time>
      </trkpt>
      <trkpt lat="42.86408" lon="0.16181">
        <ele>2554.84</ele>
        <time>2013-08-15T13:19:54Z</time>
      </trkpt>
      <trkpt lat="42.86411" lon="0.16179">
        <ele>2552.92</ele>
        <time>2013-08-15T13:20:04Z</time>
      </trkpt>
      <trkpt lat="42.86412" lon="0.1618">
        <ele>2553.88</ele>
        <time>2013-08-15T13:20:15Z</time>
      </trkpt>
      <trkpt lat="42.86415" lon="0.16184">
        <ele>2551.48</ele>
        <time>2013-08-15T13:20:34Z</time>
      </trkpt>
      <trkpt lat="42.86416" lon="0.16185">
        <ele>2550.03</ele>
        <time>2013-08-15T13:20:47Z</time>
      </trkpt>
      <trkpt lat="42.86419" lon="0.16189">
        <ele>2548.59</ele>
        <time>2013-08-15T13:20:59Z</time>
      </trkpt>
      <trkpt lat="42.86423" lon="0.16195">
        <ele>2546.19</ele>
        <time>2013-08-15T13:21:11Z</time>
      </trkpt>
      <trkpt lat="42.86425" lon="0.16196">
        <ele>2544.27</ele>
        <time>2013-08-15T13:21:23Z</time>
      </trkpt>
      <trkpt lat="42.86428" lon="0.16199">
        <ele>2543.31</ele>
        <time>2013-08-15T13:21:35Z</time>
      </trkpt>
      <trkpt lat="42.86429" lon="0.16202">
        <ele>2542.82</ele>
        <time>2013-08-15T13:21:41Z</time>
      </trkpt>
      <trkpt lat="42.86431" lon="0.16202">
        <ele>2540.42</ele>
        <time>2013-08-15T13:21:47Z</time>
      </trkpt>
      <trkpt lat="42.86435" lon="0.16209">
        <ele>2538.5</ele>
        <time>2013-08-15T13:22:02Z</time>
      </trkpt>
      <trkpt lat="42.86437" lon="0.1621">
        <ele>2537.54</ele>
        <time>2013-08-15T13:22:09Z</time>
      </trkpt>
      <trkpt lat="42.86438" lon="0.16209">
        <ele>2538.02</ele>
        <time>2013-08-15T13:22:20Z</time>
      </trkpt>
      <trkpt lat="42.86441" lon="0.16211">
        <ele>2536.1</ele>
        <time>2013-08-15T13:22:32Z</time>
      </trkpt>
      <trkpt lat="42.86445" lon="0.16214">
        <ele>2534.65</ele>
        <time>2013-08-15T13:22:42Z</time>
      </trkpt>
      <trkpt lat="42.86448" lon="0.16216">
        <ele>2533.21</ele>
        <time>2013-08-15T13:22:54Z</time>
      </trkpt>
      <trkpt lat="42.86451" lon="0.16221">
        <ele>2531.29</ele>
        <time>2013-08-15T13:23:06Z</time>
      </trkpt>
      <trkpt lat="42.86455" lon="0.16225">
        <ele>2530.33</ele>
        <time>2013-08-15T13:23:17Z</time>
      </trkpt>
      <trkpt lat="42.86458" lon="0.1623">
        <ele>2528.89</ele>
        <time>2013-08-15T13:23:28Z</time>
      </trkpt>
      <trkpt lat="42.8646" lon="0.16233">
        <ele>2526.48</ele>
        <time>2013-08-15T13:23:38Z</time>
      </trkpt>
      <trkpt lat="42.86461" lon="0.16237">
        <ele>2525.52</ele>
        <time>2013-08-15T13:23:48Z</time>
      </trkpt>
      <trkpt lat="42.86465" lon="0.16242">
        <ele>2523.6</ele>
        <time>2013-08-15T13:24:00Z</time>
      </trkpt>
      <trkpt lat="42.86468" lon="0.16243">
        <ele>2523.12</ele>
        <time>2013-08-15T13:24:09Z</time>
      </trkpt>
      <trkpt lat="42.86472" lon="0.16248">
        <ele>2522.16</ele>
        <time>2013-08-15T13:24:22Z</time>
      </trkpt>
      <trkpt lat="42.86477" lon="0.16253">
        <ele>2519.27</ele>
        <time>2013-08-15T13:24:35Z</time>
      </trkpt>
      <trkpt lat="42.8648" lon="0.16256">
        <ele>2518.79</ele>
        <time>2013-08-15T13:24:54Z</time>
      </trkpt>
      <trkpt lat="42.86486" lon="0.16262">
        <ele>2518.79</ele>
        <time>2013-08-15T13:25:04Z</time>
      </trkpt>
      <trkpt lat="42.86493" lon="0.16267">
        <ele>2515.91</ele>
        <time>2013-08-15T13:25:16Z</time>
      </trkpt>
      <trkpt lat="42.86502" lon="0.16272">
        <ele>2514.47</ele>
        <time>2013-08-15T13:25:32Z</time>
      </trkpt>
      <trkpt lat="42.86506" lon="0.16275">
        <ele>2514.47</ele>
        <time>2013-08-15T13:25:37Z</time>
      </trkpt>
      <trkpt lat="42.8651" lon="0.16277">
        <ele>2512.54</ele>
        <time>2013-08-15T13:25:42Z</time>
      </trkpt>
      <trkpt lat="42.86513" lon="0.16276">
        <ele>2511.1</ele>
        <time>2013-08-15T13:25:49Z</time>
      </trkpt>
      <trkpt lat="42.86523" lon="0.1628">
        <ele>2510.62</ele>
        <time>2013-08-15T13:26:02Z</time>
      </trkpt>
      <trkpt lat="42.86527" lon="0.1628">
        <ele>2509.18</ele>
        <time>2013-08-15T13:26:08Z</time>
      </trkpt>
      <trkpt lat="42.86538" lon="0.16282">
        <ele>2508.7</ele>
        <time>2013-08-15T13:26:21Z</time>
      </trkpt>
      <trkpt lat="42.86542" lon="0.16281">
        <ele>2505.81</ele>
        <time>2013-08-15T13:26:29Z</time>
      </trkpt>
      <trkpt lat="42.8655" lon="0.1628">
        <ele>2507.74</ele>
        <time>2013-08-15T13:26:40Z</time>
      </trkpt>
      <trkpt lat="42.86559" lon="0.16281">
        <ele>2507.26</ele>
        <time>2013-08-15T13:26:52Z</time>
      </trkpt>
      <trkpt lat="42.86561" lon="0.1628">
        <ele>2506.29</ele>
        <time>2013-08-15T13:26:55Z</time>
      </trkpt>
      <trkpt lat="42.86572" lon="0.16276">
        <ele>2503.89</ele>
        <time>2013-08-15T13:27:07Z</time>
      </trkpt>
      <trkpt lat="42.86582" lon="0.16271">
        <ele>2501.97</ele>
        <time>2013-08-15T13:27:22Z</time>
      </trkpt>
      <trkpt lat="42.86588" lon="0.16269">
        <ele>2501.01</ele>
        <time>2013-08-15T13:27:34Z</time>
      </trkpt>
      <trkpt lat="42.86604" lon="0.16266">
        <ele>2500.05</ele>
        <time>2013-08-15T13:27:50Z</time>
      </trkpt>
      <trkpt lat="42.86615" lon="0.16262">
        <ele>2498.12</ele>
        <time>2013-08-15T13:28:04Z</time>
      </trkpt>
      <trkpt lat="42.86623" lon="0.16258">
        <ele>2497.16</ele>
        <time>2013-08-15T13:28:19Z</time>
      </trkpt>
      <trkpt lat="42.8663" lon="0.16258">
        <ele>2496.68</ele>
        <time>2013-08-15T13:28:31Z</time>
      </trkpt>
      <trkpt lat="42.86639" lon="0.16255">
        <ele>2495.24</ele>
        <time>2013-08-15T13:28:44Z</time>
      </trkpt>
      <trkpt lat="42.86649" lon="0.16251">
        <ele>2495.72</ele>
        <time>2013-08-15T13:28:57Z</time>
      </trkpt>
      <trkpt lat="42.86656" lon="0.16249">
        <ele>2495.72</ele>
        <time>2013-08-15T13:29:06Z</time>
      </trkpt>
      <trkpt lat="42.86667" lon="0.16247">
        <ele>2494.76</ele>
        <time>2013-08-15T13:29:19Z</time>
      </trkpt>
      <trkpt lat="42.86668" lon="0.16245">
        <ele>2493.8</ele>
        <time>2013-08-15T13:29:22Z</time>
      </trkpt>
      <trkpt lat="42.86675" lon="0.16243">
        <ele>2492.84</ele>
        <time>2013-08-15T13:29:30Z</time>
      </trkpt>
      <trkpt lat="42.86682" lon="0.16235">
        <ele>2490.91</ele>
        <time>2013-08-15T13:29:42Z</time>
      </trkpt>
      <trkpt lat="42.86688" lon="0.16228">
        <ele>2488.99</ele>
        <time>2013-08-15T13:29:54Z</time>
      </trkpt>
      <trkpt lat="42.86689" lon="0.16227">
        <ele>2488.99</ele>
        <time>2013-08-15T13:29:56Z</time>
      </trkpt>
      <trkpt lat="42.86693" lon="0.16224">
        <ele>2488.03</ele>
        <time>2013-08-15T13:30:03Z</time>
      </trkpt>
      <trkpt lat="42.86698" lon="0.16217">
        <ele>2487.07</ele>
        <time>2013-08-15T13:30:15Z</time>
      </trkpt>
      <trkpt lat="42.86698" lon="0.16213">
        <ele>2485.15</ele>
        <time>2013-08-15T13:30:30Z</time>
      </trkpt>
      <trkpt lat="42.86698" lon="0.1621">
        <ele>2484.18</ele>
        <time>2013-08-15T13:30:33Z</time>
      </trkpt>
      <trkpt lat="42.86702" lon="0.16202">
        <ele>2482.74</ele>
        <time>2013-08-15T13:30:44Z</time>
      </trkpt>
      <trkpt lat="42.86702" lon="0.16201">
        <ele>2481.78</ele>
        <time>2013-08-15T13:30:46Z</time>
      </trkpt>
      <trkpt lat="42.86704" lon="0.16192">
        <ele>2479.86</ele>
        <time>2013-08-15T13:30:59Z</time>
      </trkpt>
      <trkpt lat="42.86704" lon="0.16189">
        <ele>2480.82</ele>
        <time>2013-08-15T13:31:02Z</time>
      </trkpt>
      <trkpt lat="42.86705" lon="0.16181">
        <ele>2477.94</ele>
        <time>2013-08-15T13:31:15Z</time>
      </trkpt>
      <trkpt lat="42.86706" lon="0.16172">
        <ele>2477.94</ele>
        <time>2013-08-15T13:31:28Z</time>
      </trkpt>
      <trkpt lat="42.86709" lon="0.16167">
        <ele>2474.57</ele>
        <time>2013-08-15T13:31:37Z</time>
      </trkpt>
      <trkpt lat="42.86713" lon="0.16156">
        <ele>2473.13</ele>
        <time>2013-08-15T13:31:52Z</time>
      </trkpt>
      <trkpt lat="42.86713" lon="0.16152">
        <ele>2471.69</ele>
        <time>2013-08-15T13:31:56Z</time>
      </trkpt>
      <trkpt lat="42.86716" lon="0.16143">
        <ele>2470.73</ele>
        <time>2013-08-15T13:32:08Z</time>
      </trkpt>
      <trkpt lat="42.86719" lon="0.16133">
        <ele>2468.8</ele>
        <time>2013-08-15T13:32:20Z</time>
      </trkpt>
      <trkpt lat="42.8672" lon="0.16129">
        <ele>2468.8</ele>
        <time>2013-08-15T13:32:25Z</time>
      </trkpt>
      <trkpt lat="42.86721" lon="0.16122">
        <ele>2468.32</ele>
        <time>2013-08-15T13:32:38Z</time>
      </trkpt>
      <trkpt lat="42.86724" lon="0.16116">
        <ele>2464.96</ele>
        <time>2013-08-15T13:32:54Z</time>
      </trkpt>
      <trkpt lat="42.86724" lon="0.16116">
        <ele>2464.48</ele>
        <time>2013-08-15T13:32:55Z</time>
      </trkpt>
      <trkpt lat="42.86724" lon="0.16112">
        <ele>2465.92</ele>
        <time>2013-08-15T13:33:07Z</time>
      </trkpt>
      <trkpt lat="42.86724" lon="0.16104">
        <ele>2464.96</ele>
        <time>2013-08-15T13:33:17Z</time>
      </trkpt>
      <trkpt lat="42.86725" lon="0.16101">
        <ele>2464</ele>
        <time>2013-08-15T13:33:21Z</time>
      </trkpt>
      <trkpt lat="42.86728" lon="0.16086">
        <ele>2462.55</ele>
        <time>2013-08-15T13:33:37Z</time>
      </trkpt>
      <trkpt lat="42.86731" lon="0.16072">
        <ele>2459.19</ele>
        <time>2013-08-15T13:33:52Z</time>
      </trkpt>
      <trkpt lat="42.86732" lon="0.16066">
        <ele>2458.71</ele>
        <time>2013-08-15T13:33:58Z</time>
      </trkpt>
      <trkpt lat="42.86729" lon="0.16052">
        <ele>2457.75</ele>
        <time>2013-08-15T13:34:11Z</time>
      </trkpt>
      <trkpt lat="42.86728" lon="0.16049">
        <ele>2454.86</ele>
        <time>2013-08-15T13:34:18Z</time>
      </trkpt>
      <trkpt lat="42.86727" lon="0.16043">
        <ele>2455.34</ele>
        <time>2013-08-15T13:34:31Z</time>
      </trkpt>
      <trkpt lat="42.86727" lon="0.16043">
        <ele>2452.46</ele>
        <time>2013-08-15T13:34:34Z</time>
      </trkpt>
      <trkpt lat="42.86728" lon="0.16041">
        <ele>2452.46</ele>
        <time>2013-08-15T13:34:38Z</time>
      </trkpt>
      <trkpt lat="42.86727" lon="0.16036">
        <ele>2450.54</ele>
        <time>2013-08-15T13:34:44Z</time>
      </trkpt>
      <trkpt lat="42.86728" lon="0.16036">
        <ele>2450.06</ele>
        <time>2013-08-15T13:34:45Z</time>
      </trkpt>
      <trkpt lat="42.86732" lon="0.16033">
        <ele>2448.62</ele>
        <time>2013-08-15T13:34:58Z</time>
      </trkpt>
      <trkpt lat="42.86729" lon="0.16027">
        <ele>2447.17</ele>
        <time>2013-08-15T13:35:10Z</time>
      </trkpt>
      <trkpt lat="42.86729" lon="0.16026">
        <ele>2446.21</ele>
        <time>2013-08-15T13:35:12Z</time>
      </trkpt>
      <trkpt lat="42.86729" lon="0.16022">
        <ele>2445.73</ele>
        <time>2013-08-15T13:35:20Z</time>
      </trkpt>
      <trkpt lat="42.86729" lon="0.16022">
        <ele>2444.77</ele>
        <time>2013-08-15T13:35:35Z</time>
      </trkpt>
      <trkpt lat="42.86732" lon="0.16016">
        <ele>2443.33</ele>
        <time>2013-08-15T13:35:45Z</time>
      </trkpt>
      <trkpt lat="42.86734" lon="0.16014">
        <ele>2441.89</ele>
        <time>2013-08-15T13:35:59Z</time>
      </trkpt>
      <trkpt lat="42.86735" lon="0.16013">
        <ele>2441.41</ele>
        <time>2013-08-15T13:36:04Z</time>
      </trkpt>
      <trkpt lat="42.86738" lon="0.16008">
        <ele>2439.48</ele>
        <time>2013-08-15T13:36:15Z</time>
      </trkpt>
      <trkpt lat="42.8674" lon="0.16004">
        <ele>2438.04</ele>
        <time>2013-08-15T13:36:27Z</time>
      </trkpt>
      <trkpt lat="42.86742" lon="0.16001">
        <ele>2436.12</ele>
        <time>2013-08-15T13:36:39Z</time>
      </trkpt>
      <trkpt lat="42.86742" lon="0.16">
        <ele>2436.12</ele>
        <time>2013-08-15T13:36:56Z</time>
      </trkpt>
      <trkpt lat="42.86742" lon="0.16">
        <ele>2434.2</ele>
        <time>2013-08-15T13:37:06Z</time>
      </trkpt>
      <trkpt lat="42.86743" lon="0.15997">
        <ele>2435.16</ele>
        <time>2013-08-15T13:37:12Z</time>
      </trkpt>
      <trkpt lat="42.86743" lon="0.15992">
        <ele>2432.27</ele>
        <time>2013-08-15T13:37:27Z</time>
      </trkpt>
      <trkpt lat="42.86743" lon="0.15991">
        <ele>2432.75</ele>
        <time>2013-08-15T13:37:40Z</time>
      </trkpt>
      <trkpt lat="42.86743" lon="0.15988">
        <ele>2431.31</ele>
        <time>2013-08-15T13:37:46Z</time>
      </trkpt>
      <trkpt lat="42.86743" lon="0.15987">
        <ele>2429.39</ele>
        <time>2013-08-15T13:37:54Z</time>
      </trkpt>
      <trkpt lat="42.86744" lon="0.15986">
        <ele>2427.95</ele>
        <time>2013-08-15T13:38:02Z</time>
      </trkpt>
      <trkpt lat="42.86745" lon="0.15985">
        <ele>2426.99</ele>
        <time>2013-08-15T13:38:13Z</time>
      </trkpt>
      <trkpt lat="42.86746" lon="0.15981">
        <ele>2426.02</ele>
        <time>2013-08-15T13:38:23Z</time>
      </trkpt>
      <trkpt lat="42.86747" lon="0.15975">
        <ele>2424.1</ele>
        <time>2013-08-15T13:38:36Z</time>
      </trkpt>
      <trkpt lat="42.86748" lon="0.15972">
        <ele>2424.58</ele>
        <time>2013-08-15T13:38:45Z</time>
      </trkpt>
      <trkpt lat="42.8675" lon="0.15969">
        <ele>2421.22</ele>
        <time>2013-08-15T13:38:54Z</time>
      </trkpt>
      <trkpt lat="42.86752" lon="0.15968">
        <ele>2420.74</ele>
        <time>2013-08-15T13:39:03Z</time>
      </trkpt>
      <trkpt lat="42.86752" lon="0.15967">
        <ele>2420.74</ele>
        <time>2013-08-15T13:39:04Z</time>
      </trkpt>
      <trkpt lat="42.86753" lon="0.15966">
        <ele>2420.26</ele>
        <time>2013-08-15T13:39:22Z</time>
      </trkpt>
      <trkpt lat="42.86754" lon="0.15958">
        <ele>2417.85</ele>
        <time>2013-08-15T13:39:34Z</time>
      </trkpt>
      <trkpt lat="42.86754" lon="0.15956">
        <ele>2417.37</ele>
        <time>2013-08-15T13:39:42Z</time>
      </trkpt>
      <trkpt lat="42.86754" lon="0.15955">
        <ele>2416.41</ele>
        <time>2013-08-15T13:39:51Z</time>
      </trkpt>
      <trkpt lat="42.86755" lon="0.15952">
        <ele>2414.97</ele>
        <time>2013-08-15T13:40:00Z</time>
      </trkpt>
      <trkpt lat="42.86757" lon="0.15949">
        <ele>2413.53</ele>
        <time>2013-08-15T13:40:11Z</time>
      </trkpt>
      <trkpt lat="42.86758" lon="0.15946">
        <ele>2413.05</ele>
        <time>2013-08-15T13:40:24Z</time>
      </trkpt>
      <trkpt lat="42.86758" lon="0.15942">
        <ele>2410.64</ele>
        <time>2013-08-15T13:40:33Z</time>
      </trkpt>
      <trkpt lat="42.86758" lon="0.15938">
        <ele>2410.16</ele>
        <time>2013-08-15T13:40:42Z</time>
      </trkpt>
      <trkpt lat="42.86758" lon="0.15938">
        <ele>2410.16</ele>
        <time>2013-08-15T13:41:01Z</time>
      </trkpt>
      <trkpt lat="42.86758" lon="0.15937">
        <ele>2407.28</ele>
        <time>2013-08-15T13:41:13Z</time>
      </trkpt>
      <trkpt lat="42.8676" lon="0.15935">
        <ele>2406.32</ele>
        <time>2013-08-15T13:41:25Z</time>
      </trkpt>
      <trkpt lat="42.8676" lon="0.15935">
        <ele>2404.88</ele>
        <time>2013-08-15T13:41:31Z</time>
      </trkpt>
      <trkpt lat="42.86761" lon="0.15932">
        <ele>2403.91</ele>
        <time>2013-08-15T13:41:45Z</time>
      </trkpt>
      <trkpt lat="42.86764" lon="0.15929">
        <ele>2402.95</ele>
        <time>2013-08-15T13:41:55Z</time>
      </trkpt>
      <trkpt lat="42.86765" lon="0.15928">
        <ele>2401.51</ele>
        <time>2013-08-15T13:42:05Z</time>
      </trkpt>
      <trkpt lat="42.86765" lon="0.15926">
        <ele>2400.07</ele>
        <time>2013-08-15T13:42:14Z</time>
      </trkpt>
      <trkpt lat="42.86766" lon="0.15922">
        <ele>2398.63</ele>
        <time>2013-08-15T13:42:24Z</time>
      </trkpt>
      <trkpt lat="42.86766" lon="0.15917">
        <ele>2398.15</ele>
        <time>2013-08-15T13:42:33Z</time>
      </trkpt>
      <trkpt lat="42.86766" lon="0.15912">
        <ele>2397.18</ele>
        <time>2013-08-15T13:42:41Z</time>
      </trkpt>
      <trkpt lat="42.86767" lon="0.1591">
        <ele>2396.7</ele>
        <time>2013-08-15T13:42:53Z</time>
      </trkpt>
      <trkpt lat="42.86767" lon="0.15905">
        <ele>2394.78</ele>
        <time>2013-08-15T13:42:59Z</time>
      </trkpt>
      <trkpt lat="42.86768" lon="0.159">
        <ele>2394.3</ele>
        <time>2013-08-15T13:43:09Z</time>
      </trkpt>
      <trkpt lat="42.86769" lon="0.15897">
        <ele>2391.9</ele>
        <time>2013-08-15T13:43:19Z</time>
      </trkpt>
      <trkpt lat="42.86775" lon="0.15887">
        <ele>2390.46</ele>
        <time>2013-08-15T13:43:31Z</time>
      </trkpt>
      <trkpt lat="42.86777" lon="0.15883">
        <ele>2389.49</ele>
        <time>2013-08-15T13:43:43Z</time>
      </trkpt>
      <trkpt lat="42.86779" lon="0.15882">
        <ele>2389.01</ele>
        <time>2013-08-15T13:43:55Z</time>
      </trkpt>
      <trkpt lat="42.86786" lon="0.15877">
        <ele>2387.09</ele>
        <time>2013-08-15T13:44:08Z</time>
      </trkpt>
      <trkpt lat="42.86788" lon="0.15875">
        <ele>2385.17</ele>
        <time>2013-08-15T13:44:11Z</time>
      </trkpt>
      <trkpt lat="42.86789" lon="0.15875">
        <ele>2384.21</ele>
        <time>2013-08-15T13:44:24Z</time>
      </trkpt>
      <trkpt lat="42.86796" lon="0.15878">
        <ele>2383.73</ele>
        <time>2013-08-15T13:44:35Z</time>
      </trkpt>
      <trkpt lat="42.86799" lon="0.15873">
        <ele>2380.36</ele>
        <time>2013-08-15T13:44:47Z</time>
      </trkpt>
      <trkpt lat="42.868" lon="0.15873">
        <ele>2378.44</ele>
        <time>2013-08-15T13:45:01Z</time>
      </trkpt>
      <trkpt lat="42.86802" lon="0.15871">
        <ele>2377</ele>
        <time>2013-08-15T13:45:12Z</time>
      </trkpt>
      <trkpt lat="42.86804" lon="0.15871">
        <ele>2375.07</ele>
        <time>2013-08-15T13:45:25Z</time>
      </trkpt>
      <trkpt lat="42.86805" lon="0.15872">
        <ele>2372.19</ele>
        <time>2013-08-15T13:45:33Z</time>
      </trkpt>
      <trkpt lat="42.86809" lon="0.1587">
        <ele>2371.23</ele>
        <time>2013-08-15T13:45:47Z</time>
      </trkpt>
      <trkpt lat="42.86815" lon="0.15874">
        <ele>2368.83</ele>
        <time>2013-08-15T13:46:01Z</time>
      </trkpt>
      <trkpt lat="42.86821" lon="0.15876">
        <ele>2366.42</ele>
        <time>2013-08-15T13:46:15Z</time>
      </trkpt>
      <trkpt lat="42.86834" lon="0.15867">
        <ele>2364.02</ele>
        <time>2013-08-15T13:46:25Z</time>
      </trkpt>
      <trkpt lat="42.86843" lon="0.15857">
        <ele>2362.58</ele>
        <time>2013-08-15T13:46:38Z</time>
      </trkpt>
      <trkpt lat="42.8685" lon="0.1585">
        <ele>2361.14</ele>
        <time>2013-08-15T13:46:49Z</time>
      </trkpt>
      <trkpt lat="42.86856" lon="0.15851">
        <ele>2359.21</ele>
        <time>2013-08-15T13:47:02Z</time>
      </trkpt>
      <trkpt lat="42.86863" lon="0.15849">
        <ele>2358.25</ele>
        <time>2013-08-15T13:47:15Z</time>
      </trkpt>
      <trkpt lat="42.86866" lon="0.15854">
        <ele>2355.37</ele>
        <time>2013-08-15T13:47:27Z</time>
      </trkpt>
      <trkpt lat="42.86871" lon="0.15858">
        <ele>2353.44</ele>
        <time>2013-08-15T13:47:42Z</time>
      </trkpt>
      <trkpt lat="42.86877" lon="0.15867">
        <ele>2353.44</ele>
        <time>2013-08-15T13:47:53Z</time>
      </trkpt>
      <trkpt lat="42.8688" lon="0.1587">
        <ele>2353.93</ele>
        <time>2013-08-15T13:48:05Z</time>
      </trkpt>
      <trkpt lat="42.8688" lon="0.1587">
        <ele>2353.44</ele>
        <time>2013-08-15T13:48:20Z</time>
      </trkpt>
      <trkpt lat="42.8688" lon="0.1587">
        <ele>2352.48</ele>
        <time>2013-08-15T13:48:31Z</time>
      </trkpt>
      <trkpt lat="42.86883" lon="0.15871">
        <ele>2352.48</ele>
        <time>2013-08-15T13:48:50Z</time>
      </trkpt>
      <trkpt lat="42.86883" lon="0.15871">
        <ele>2352.48</ele>
        <time>2013-08-15T13:49:07Z</time>
      </trkpt>
      <trkpt lat="42.86882" lon="0.1587">
        <ele>2352.96</ele>
        <time>2013-08-15T13:49:19Z</time>
      </trkpt>
      <trkpt lat="42.86882" lon="0.1587">
        <ele>2352.96</ele>
        <time>2013-08-15T13:49:33Z</time>
      </trkpt>
      <trkpt lat="42.86882" lon="0.15871">
        <ele>2353.44</ele>
        <time>2013-08-15T13:49:42Z</time>
      </trkpt>
      <trkpt lat="42.86885" lon="0.15871">
        <ele>2352.96</ele>
        <time>2013-08-15T13:49:56Z</time>
      </trkpt>
      <trkpt lat="42.8689" lon="0.15869">
        <ele>2352.48</ele>
        <time>2013-08-15T13:50:06Z</time>
      </trkpt>
      <trkpt lat="42.8689" lon="0.1587">
        <ele>2352</ele>
        <time>2013-08-15T13:50:22Z</time>
      </trkpt>
      <trkpt lat="42.86896" lon="0.15865">
        <ele>2352</ele>
        <time>2013-08-15T13:50:31Z</time>
      </trkpt>
      <trkpt lat="42.86906" lon="0.15857">
        <ele>2350.56</ele>
        <time>2013-08-15T13:50:45Z</time>
      </trkpt>
      <trkpt lat="42.86908" lon="0.15853">
        <ele>2349.6</ele>
        <time>2013-08-15T13:50:51Z</time>
      </trkpt>
      <trkpt lat="42.86911" lon="0.15845">
        <ele>2348.16</ele>
        <time>2013-08-15T13:51:04Z</time>
      </trkpt>
      <trkpt lat="42.86911" lon="0.15845">
        <ele>2348.16</ele>
        <time>2013-08-15T13:51:23Z</time>
      </trkpt>
      <trkpt lat="42.86917" lon="0.15839">
        <ele>2347.2</ele>
        <time>2013-08-15T13:51:33Z</time>
      </trkpt>
      <trkpt lat="42.86922" lon="0.15835">
        <ele>2347.68</ele>
        <time>2013-08-15T13:51:39Z</time>
      </trkpt>
      <trkpt lat="42.86936" lon="0.15821">
        <ele>2346.72</ele>
        <time>2013-08-15T13:51:55Z</time>
      </trkpt>
      <trkpt lat="42.86947" lon="0.15812">
        <ele>2345.27</ele>
        <time>2013-08-15T13:52:10Z</time>
      </trkpt>
      <trkpt lat="42.86956" lon="0.15805">
        <ele>2345.27</ele>
        <time>2013-08-15T13:52:23Z</time>
      </trkpt>
      <trkpt lat="42.86968" lon="0.15796">
        <ele>2344.79</ele>
        <time>2013-08-15T13:52:37Z</time>
      </trkpt>
      <trkpt lat="42.86975" lon="0.15788">
        <ele>2344.79</ele>
        <time>2013-08-15T13:52:50Z</time>
      </trkpt>
      <trkpt lat="42.86985" lon="0.15782">
        <ele>2344.79</ele>
        <time>2013-08-15T13:53:05Z</time>
      </trkpt>
      <trkpt lat="42.86995" lon="0.15774">
        <ele>2344.79</ele>
        <time>2013-08-15T13:53:19Z</time>
      </trkpt>
      <trkpt lat="42.87001" lon="0.15772">
        <ele>2343.35</ele>
        <time>2013-08-15T13:53:31Z</time>
      </trkpt>
      <trkpt lat="42.87002" lon="0.15769">
        <ele>2342.87</ele>
        <time>2013-08-15T13:53:44Z</time>
      </trkpt>
      <trkpt lat="42.87014" lon="0.15754">
        <ele>2341.91</ele>
        <time>2013-08-15T13:53:58Z</time>
      </trkpt>
      <trkpt lat="42.87021" lon="0.15746">
        <ele>2339.99</ele>
        <time>2013-08-15T13:54:11Z</time>
      </trkpt>
      <trkpt lat="42.87032" lon="0.15743">
        <ele>2339.51</ele>
        <time>2013-08-15T13:54:25Z</time>
      </trkpt>
      <trkpt lat="42.87039" lon="0.15749">
        <ele>2339.51</ele>
        <time>2013-08-15T13:54:40Z</time>
      </trkpt>
      <trkpt lat="42.87039" lon="0.15749">
        <ele>2339.02</ele>
        <time>2013-08-15T13:54:55Z</time>
      </trkpt>
      <trkpt lat="42.87041" lon="0.15753">
        <ele>2339.02</ele>
        <time>2013-08-15T13:54:59Z</time>
      </trkpt>
      <trkpt lat="42.8705" lon="0.15764">
        <ele>2338.06</ele>
        <time>2013-08-15T13:55:12Z</time>
      </trkpt>
      <trkpt lat="42.87056" lon="0.1577">
        <ele>2336.62</ele>
        <time>2013-08-15T13:55:20Z</time>
      </trkpt>
      <trkpt lat="42.87066" lon="0.15779">
        <ele>2334.22</ele>
        <time>2013-08-15T13:55:34Z</time>
      </trkpt>
      <trkpt lat="42.87067" lon="0.15779">
        <ele>2334.7</ele>
        <time>2013-08-15T13:55:46Z</time>
      </trkpt>
      <trkpt lat="42.87067" lon="0.15779">
        <ele>2334.22</ele>
        <time>2013-08-15T13:55:59Z</time>
      </trkpt>
      <trkpt lat="42.87067" lon="0.15779">
        <ele>2333.74</ele>
        <time>2013-08-15T13:56:06Z</time>
      </trkpt>
      <trkpt lat="42.87079" lon="0.1579">
        <ele>2331.81</ele>
        <time>2013-08-15T13:56:19Z</time>
      </trkpt>
      <trkpt lat="42.87089" lon="0.15788">
        <ele>2330.37</ele>
        <time>2013-08-15T13:56:32Z</time>
      </trkpt>
      <trkpt lat="42.87092" lon="0.15786">
        <ele>2328.93</ele>
        <time>2013-08-15T13:56:35Z</time>
      </trkpt>
      <trkpt lat="42.87098" lon="0.15779">
        <ele>2325.57</ele>
        <time>2013-08-15T13:56:47Z</time>
      </trkpt>
      <trkpt lat="42.87099" lon="0.15769">
        <ele>2326.05</ele>
        <time>2013-08-15T13:56:57Z</time>
      </trkpt>
      <trkpt lat="42.87098" lon="0.15763">
        <ele>2323.16</ele>
        <time>2013-08-15T13:57:03Z</time>
      </trkpt>
      <trkpt lat="42.87104" lon="0.15757">
        <ele>2322.68</ele>
        <time>2013-08-15T13:57:15Z</time>
      </trkpt>
      <trkpt lat="42.8711" lon="0.15758">
        <ele>2321.24</ele>
        <time>2013-08-15T13:57:24Z</time>
      </trkpt>
      <trkpt lat="42.87117" lon="0.1575">
        <ele>2318.84</ele>
        <time>2013-08-15T13:57:36Z</time>
      </trkpt>
      <trkpt lat="42.8712" lon="0.15745">
        <ele>2317.88</ele>
        <time>2013-08-15T13:57:42Z</time>
      </trkpt>
      <trkpt lat="42.87121" lon="0.15741">
        <ele>2317.88</ele>
        <time>2013-08-15T13:57:46Z</time>
      </trkpt>
      <trkpt lat="42.87126" lon="0.15731">
        <ele>2316.91</ele>
        <time>2013-08-15T13:57:56Z</time>
      </trkpt>
      <trkpt lat="42.87133" lon="0.15716">
        <ele>2314.99</ele>
        <time>2013-08-15T13:58:11Z</time>
      </trkpt>
      <trkpt lat="42.87139" lon="0.15705">
        <ele>2313.55</ele>
        <time>2013-08-15T13:58:24Z</time>
      </trkpt>
      <trkpt lat="42.87145" lon="0.15694">
        <ele>2313.07</ele>
        <time>2013-08-15T13:58:37Z</time>
      </trkpt>
      <trkpt lat="42.87145" lon="0.15692">
        <ele>2312.59</ele>
        <time>2013-08-15T13:58:40Z</time>
      </trkpt>
      <trkpt lat="42.87155" lon="0.15679">
        <ele>2311.15</ele>
        <time>2013-08-15T13:58:58Z</time>
      </trkpt>
      <trkpt lat="42.87167" lon="0.1567">
        <ele>2311.15</ele>
        <time>2013-08-15T13:59:16Z</time>
      </trkpt>
      <trkpt lat="42.87173" lon="0.15666">
        <ele>2309.22</ele>
        <time>2013-08-15T13:59:30Z</time>
      </trkpt>
      <trkpt lat="42.8718" lon="0.15659">
        <ele>2306.82</ele>
        <time>2013-08-15T13:59:42Z</time>
      </trkpt>
      <trkpt lat="42.87182" lon="0.15657">
        <ele>2306.34</ele>
        <time>2013-08-15T13:59:54Z</time>
      </trkpt>
      <trkpt lat="42.87186" lon="0.15644">
        <ele>2303.46</ele>
        <time>2013-08-15T14:00:07Z</time>
      </trkpt>
      <trkpt lat="42.87192" lon="0.15632">
        <ele>2302.01</ele>
        <time>2013-08-15T14:00:21Z</time>
      </trkpt>
      <trkpt lat="42.87198" lon="0.15622">
        <ele>2299.13</ele>
        <time>2013-08-15T14:00:33Z</time>
      </trkpt>
      <trkpt lat="42.87198" lon="0.15621">
        <ele>2299.13</ele>
        <time>2013-08-15T14:00:34Z</time>
      </trkpt>
      <trkpt lat="42.87201" lon="0.15616">
        <ele>2299.13</ele>
        <time>2013-08-15T14:00:45Z</time>
      </trkpt>
      <trkpt lat="42.87201" lon="0.15617">
        <ele>2299.13</ele>
        <time>2013-08-15T14:01:02Z</time>
      </trkpt>
      <trkpt lat="42.87201" lon="0.15617">
        <ele>2298.17</ele>
        <time>2013-08-15T14:01:04Z</time>
      </trkpt>
      <trkpt lat="42.8721" lon="0.15612">
        <ele>2295.77</ele>
        <time>2013-08-15T14:01:18Z</time>
      </trkpt>
      <trkpt lat="42.87215" lon="0.15616">
        <ele>2294.32</ele>
        <time>2013-08-15T14:01:29Z</time>
      </trkpt>
      <trkpt lat="42.87223" lon="0.15622">
        <ele>2291.44</ele>
        <time>2013-08-15T14:01:43Z</time>
      </trkpt>
      <trkpt lat="42.87226" lon="0.15622">
        <ele>2290.48</ele>
        <time>2013-08-15T14:01:49Z</time>
      </trkpt>
      <trkpt lat="42.8723" lon="0.15616">
        <ele>2287.59</ele>
        <time>2013-08-15T14:01:59Z</time>
      </trkpt>
      <trkpt lat="42.87237" lon="0.15604">
        <ele>2285.19</ele>
        <time>2013-08-15T14:02:14Z</time>
      </trkpt>
      <trkpt lat="42.87238" lon="0.15602">
        <ele>2285.19</ele>
        <time>2013-08-15T14:02:16Z</time>
      </trkpt>
      <trkpt lat="42.87244" lon="0.15593">
        <ele>2282.31</ele>
        <time>2013-08-15T14:02:27Z</time>
      </trkpt>
      <trkpt lat="42.87249" lon="0.15582">
        <ele>2280.87</ele>
        <time>2013-08-15T14:02:40Z</time>
      </trkpt>
      <trkpt lat="42.87249" lon="0.15579">
        <ele>2279.42</ele>
        <time>2013-08-15T14:02:43Z</time>
      </trkpt>
      <trkpt lat="42.87253" lon="0.15569">
        <ele>2277.5</ele>
        <time>2013-08-15T14:02:55Z</time>
      </trkpt>
      <trkpt lat="42.87256" lon="0.15555">
        <ele>2275.58</ele>
        <time>2013-08-15T14:03:10Z</time>
      </trkpt>
      <trkpt lat="42.87262" lon="0.15541">
        <ele>2273.66</ele>
        <time>2013-08-15T14:03:25Z</time>
      </trkpt>
      <trkpt lat="42.87263" lon="0.1554">
        <ele>2273.66</ele>
        <time>2013-08-15T14:03:26Z</time>
      </trkpt>
      <trkpt lat="42.87267" lon="0.15529">
        <ele>2271.25</ele>
        <time>2013-08-15T14:03:39Z</time>
      </trkpt>
      <trkpt lat="42.8727" lon="0.15517">
        <ele>2270.77</ele>
        <time>2013-08-15T14:03:52Z</time>
      </trkpt>
      <trkpt lat="42.87274" lon="0.1551">
        <ele>2268.85</ele>
        <time>2013-08-15T14:04:04Z</time>
      </trkpt>
      <trkpt lat="42.87275" lon="0.155">
        <ele>2267.41</ele>
        <time>2013-08-15T14:04:19Z</time>
      </trkpt>
      <trkpt lat="42.87276" lon="0.15491">
        <ele>2265</ele>
        <time>2013-08-15T14:04:31Z</time>
      </trkpt>
      <trkpt lat="42.87282" lon="0.1549">
        <ele>2262.6</ele>
        <time>2013-08-15T14:04:43Z</time>
      </trkpt>
      <trkpt lat="42.87287" lon="0.15484">
        <ele>2259.72</ele>
        <time>2013-08-15T14:04:58Z</time>
      </trkpt>
      <trkpt lat="42.87289" lon="0.15479">
        <ele>2258.27</ele>
        <time>2013-08-15T14:05:09Z</time>
      </trkpt>
      <trkpt lat="42.87292" lon="0.15477">
        <ele>2255.87</ele>
        <time>2013-08-15T14:05:21Z</time>
      </trkpt>
      <trkpt lat="42.87297" lon="0.15472">
        <ele>2252.99</ele>
        <time>2013-08-15T14:05:34Z</time>
      </trkpt>
      <trkpt lat="42.87299" lon="0.15467">
        <ele>2251.06</ele>
        <time>2013-08-15T14:05:46Z</time>
      </trkpt>
      <trkpt lat="42.87302" lon="0.1546">
        <ele>2249.14</ele>
        <time>2013-08-15T14:05:57Z</time>
      </trkpt>
      <trkpt lat="42.87305" lon="0.15457">
        <ele>2246.74</ele>
        <time>2013-08-15T14:06:10Z</time>
      </trkpt>
      <trkpt lat="42.87309" lon="0.1545">
        <ele>2245.3</ele>
        <time>2013-08-15T14:06:23Z</time>
      </trkpt>
      <trkpt lat="42.87309" lon="0.15445">
        <ele>2243.85</ele>
        <time>2013-08-15T14:06:32Z</time>
      </trkpt>
      <trkpt lat="42.87312" lon="0.15442">
        <ele>2242.89</ele>
        <time>2013-08-15T14:06:39Z</time>
      </trkpt>
      <trkpt lat="42.87316" lon="0.15436">
        <ele>2241.45</ele>
        <time>2013-08-15T14:06:50Z</time>
      </trkpt>
      <trkpt lat="42.87318" lon="0.15429">
        <ele>2238.57</ele>
        <time>2013-08-15T14:07:01Z</time>
      </trkpt>
      <trkpt lat="42.8732" lon="0.15426">
        <ele>2237.13</ele>
        <time>2013-08-15T14:07:15Z</time>
      </trkpt>
      <trkpt lat="42.87321" lon="0.15415">
        <ele>2234.72</ele>
        <time>2013-08-15T14:07:28Z</time>
      </trkpt>
      <trkpt lat="42.87323" lon="0.15413">
        <ele>2232.32</ele>
        <time>2013-08-15T14:07:35Z</time>
      </trkpt>
      <trkpt lat="42.87323" lon="0.15407">
        <ele>2231.36</ele>
        <time>2013-08-15T14:07:46Z</time>
      </trkpt>
      <trkpt lat="42.87323" lon="0.15402">
        <ele>2229.92</ele>
        <time>2013-08-15T14:07:52Z</time>
      </trkpt>
      <trkpt lat="42.87328" lon="0.15395">
        <ele>2229.43</ele>
        <time>2013-08-15T14:08:04Z</time>
      </trkpt>
      <trkpt lat="42.87331" lon="0.15391">
        <ele>2227.51</ele>
        <time>2013-08-15T14:08:15Z</time>
      </trkpt>
      <trkpt lat="42.87331" lon="0.1539">
        <ele>2227.03</ele>
        <time>2013-08-15T14:08:18Z</time>
      </trkpt>
      <trkpt lat="42.87331" lon="0.15385">
        <ele>2225.11</ele>
        <time>2013-08-15T14:08:31Z</time>
      </trkpt>
      <trkpt lat="42.87334" lon="0.15381">
        <ele>2222.71</ele>
        <time>2013-08-15T14:08:41Z</time>
      </trkpt>
      <trkpt lat="42.87338" lon="0.15376">
        <ele>2222.71</ele>
        <time>2013-08-15T14:08:50Z</time>
      </trkpt>
      <trkpt lat="42.87343" lon="0.1537">
        <ele>2220.78</ele>
        <time>2013-08-15T14:08:59Z</time>
      </trkpt>
      <trkpt lat="42.87345" lon="0.1537">
        <ele>2218.38</ele>
        <time>2013-08-15T14:09:13Z</time>
      </trkpt>
      <trkpt lat="42.87349" lon="0.15364">
        <ele>2217.9</ele>
        <time>2013-08-15T14:09:24Z</time>
      </trkpt>
      <trkpt lat="42.8735" lon="0.15359">
        <ele>2215.5</ele>
        <time>2013-08-15T14:09:36Z</time>
      </trkpt>
      <trkpt lat="42.87352" lon="0.15358">
        <ele>2214.53</ele>
        <time>2013-08-15T14:09:38Z</time>
      </trkpt>
      <trkpt lat="42.87356" lon="0.15352">
        <ele>2213.09</ele>
        <time>2013-08-15T14:09:50Z</time>
      </trkpt>
      <trkpt lat="42.87358" lon="0.15352">
        <ele>2210.69</ele>
        <time>2013-08-15T14:10:02Z</time>
      </trkpt>
      <trkpt lat="42.87362" lon="0.1535">
        <ele>2208.29</ele>
        <time>2013-08-15T14:10:16Z</time>
      </trkpt>
      <trkpt lat="42.87366" lon="0.15349">
        <ele>2205.88</ele>
        <time>2013-08-15T14:10:27Z</time>
      </trkpt>
      <trkpt lat="42.87371" lon="0.15342">
        <ele>2203.48</ele>
        <time>2013-08-15T14:10:41Z</time>
      </trkpt>
      <trkpt lat="42.87373" lon="0.15342">
        <ele>2203.48</ele>
        <time>2013-08-15T14:10:58Z</time>
      </trkpt>
      <trkpt lat="42.87373" lon="0.15337">
        <ele>2202.52</ele>
        <time>2013-08-15T14:11:21Z</time>
      </trkpt>
      <trkpt lat="42.87375" lon="0.15328">
        <ele>2200.59</ele>
        <time>2013-08-15T14:11:33Z</time>
      </trkpt>
      <trkpt lat="42.87378" lon="0.15317">
        <ele>2197.71</ele>
        <time>2013-08-15T14:11:46Z</time>
      </trkpt>
      <trkpt lat="42.87383" lon="0.15309">
        <ele>2194.83</ele>
        <time>2013-08-15T14:12:00Z</time>
      </trkpt>
      <trkpt lat="42.87385" lon="0.15305">
        <ele>2193.39</ele>
        <time>2013-08-15T14:12:07Z</time>
      </trkpt>
      <trkpt lat="42.87392" lon="0.15296">
        <ele>2191.94</ele>
        <time>2013-08-15T14:12:23Z</time>
      </trkpt>
      <trkpt lat="42.874" lon="0.15285">
        <ele>2188.58</ele>
        <time>2013-08-15T14:12:38Z</time>
      </trkpt>
      <trkpt lat="42.87407" lon="0.15274">
        <ele>2186.66</ele>
        <time>2013-08-15T14:12:52Z</time>
      </trkpt>
      <trkpt lat="42.87411" lon="0.15269">
        <ele>2183.77</ele>
        <time>2013-08-15T14:13:03Z</time>
      </trkpt>
      <trkpt lat="42.87413" lon="0.15265">
        <ele>2184.25</ele>
        <time>2013-08-15T14:13:08Z</time>
      </trkpt>
      <trkpt lat="42.87419" lon="0.15261">
        <ele>2181.85</ele>
        <time>2013-08-15T14:13:19Z</time>
      </trkpt>
      <trkpt lat="42.87421" lon="0.15257">
        <ele>2179.45</ele>
        <time>2013-08-15T14:13:35Z</time>
      </trkpt>
      <trkpt lat="42.87431" lon="0.15249">
        <ele>2177.04</ele>
        <time>2013-08-15T14:13:49Z</time>
      </trkpt>
      <trkpt lat="42.87439" lon="0.15247">
        <ele>2175.12</ele>
        <time>2013-08-15T14:14:02Z</time>
      </trkpt>
      <trkpt lat="42.87444" lon="0.15243">
        <ele>2172.24</ele>
        <time>2013-08-15T14:14:14Z</time>
      </trkpt>
      <trkpt lat="42.87452" lon="0.1524">
        <ele>2171.27</ele>
        <time>2013-08-15T14:14:29Z</time>
      </trkpt>
      <trkpt lat="42.87456" lon="0.15233">
        <ele>2167.91</ele>
        <time>2013-08-15T14:14:40Z</time>
      </trkpt>
      <trkpt lat="42.87462" lon="0.15226">
        <ele>2166.95</ele>
        <time>2013-08-15T14:14:53Z</time>
      </trkpt>
      <trkpt lat="42.87469" lon="0.1522">
        <ele>2164.55</ele>
        <time>2013-08-15T14:15:08Z</time>
      </trkpt>
      <trkpt lat="42.87476" lon="0.15219">
        <ele>2163.1</ele>
        <time>2013-08-15T14:15:19Z</time>
      </trkpt>
      <trkpt lat="42.87485" lon="0.15214">
        <ele>2161.66</ele>
        <time>2013-08-15T14:15:31Z</time>
      </trkpt>
      <trkpt lat="42.87496" lon="0.15203">
        <ele>2159.74</ele>
        <time>2013-08-15T14:15:46Z</time>
      </trkpt>
      <trkpt lat="42.87498" lon="0.15202">
        <ele>2160.7</ele>
        <time>2013-08-15T14:16:01Z</time>
      </trkpt>
      <trkpt lat="42.87498" lon="0.15203">
        <ele>2160.22</ele>
        <time>2013-08-15T14:16:17Z</time>
      </trkpt>
      <trkpt lat="42.87505" lon="0.15205">
        <ele>2160.22</ele>
        <time>2013-08-15T14:16:28Z</time>
      </trkpt>
      <trkpt lat="42.87505" lon="0.15205">
        <ele>2159.74</ele>
        <time>2013-08-15T14:16:42Z</time>
      </trkpt>
      <trkpt lat="42.87512" lon="0.15211">
        <ele>2160.22</ele>
        <time>2013-08-15T14:16:54Z</time>
      </trkpt>
      <trkpt lat="42.87517" lon="0.15213">
        <ele>2161.66</ele>
        <time>2013-08-15T14:17:07Z</time>
      </trkpt>
      <trkpt lat="42.87517" lon="0.15214">
        <ele>2161.18</ele>
        <time>2013-08-15T14:17:25Z</time>
      </trkpt>
      <trkpt lat="42.87512" lon="0.15213">
        <ele>2161.18</ele>
        <time>2013-08-15T14:17:36Z</time>
      </trkpt>
      <trkpt lat="42.87513" lon="0.15212">
        <ele>2161.18</ele>
        <time>2013-08-15T14:17:46Z</time>
      </trkpt>
      <trkpt lat="42.87517" lon="0.15221">
        <ele>2162.62</ele>
        <time>2013-08-15T14:17:58Z</time>
      </trkpt>
      <trkpt lat="42.87519" lon="0.15221">
        <ele>2161.66</ele>
        <time>2013-08-15T14:18:13Z</time>
      </trkpt>
      <trkpt lat="42.87518" lon="0.15221">
        <ele>2161.66</ele>
        <time>2013-08-15T14:18:14Z</time>
      </trkpt>
      <trkpt lat="42.87518" lon="0.15217">
        <ele>2162.14</ele>
        <time>2013-08-15T14:18:24Z</time>
      </trkpt>
      <trkpt lat="42.87519" lon="0.15215">
        <ele>2161.66</ele>
        <time>2013-08-15T14:18:26Z</time>
      </trkpt>
      <trkpt lat="42.87519" lon="0.15213">
        <ele>2161.66</ele>
        <time>2013-08-15T14:18:36Z</time>
      </trkpt>
      <trkpt lat="42.87518" lon="0.15214">
        <ele>2161.18</ele>
        <time>2013-08-15T14:18:53Z</time>
      </trkpt>
      <trkpt lat="42.87515" lon="0.15215">
        <ele>2161.66</ele>
        <time>2013-08-15T14:19:06Z</time>
      </trkpt>
      <trkpt lat="42.87512" lon="0.15215">
        <ele>2160.7</ele>
        <time>2013-08-15T14:19:09Z</time>
      </trkpt>
      <trkpt lat="42.87509" lon="0.15215">
        <ele>2159.74</ele>
        <time>2013-08-15T14:19:21Z</time>
      </trkpt>
      <trkpt lat="42.87509" lon="0.15215">
        <ele>2159.26</ele>
        <time>2013-08-15T14:19:38Z</time>
      </trkpt>
      <trkpt lat="42.87509" lon="0.15215">
        <ele>2159.26</ele>
        <time>2013-08-15T14:20:01Z</time>
      </trkpt>
      <trkpt lat="42.8751" lon="0.15215">
        <ele>2163.58</ele>
        <time>2013-08-15T14:20:08Z</time>
      </trkpt>
      <trkpt lat="42.8751" lon="0.15215">
        <ele>2161.66</ele>
        <time>2013-08-15T14:20:09Z</time>
      </trkpt>
      <trkpt lat="42.8751" lon="0.15215">
        <ele>2159.26</ele>
        <time>2013-08-15T14:20:11Z</time>
      </trkpt>
      <trkpt lat="42.8751" lon="0.15215">
        <ele>2154.93</ele>
        <time>2013-08-15T14:20:17Z</time>
      </trkpt>
      <trkpt lat="42.8751" lon="0.15215">
        <ele>2160.22</ele>
        <time>2013-08-15T14:20:18Z</time>
      </trkpt>
      <trkpt lat="42.8751" lon="0.15215">
        <ele>2166.95</ele>
        <time>2013-08-15T14:20:24Z</time>
      </trkpt>
      <trkpt lat="42.8751" lon="0.15215">
        <ele>2159.74</ele>
        <time>2013-08-15T14:20:25Z</time>
      </trkpt>
      <trkpt lat="42.8751" lon="0.15215">
        <ele>2163.58</ele>
        <time>2013-08-15T14:20:26Z</time>
      </trkpt>
      <trkpt lat="42.8751" lon="0.15215">
        <ele>2159.74</ele>
        <time>2013-08-15T14:20:27Z</time>
      </trkpt>
      <trkpt lat="42.8751" lon="0.15215">
        <ele>2153.49</ele>
        <time>2013-08-15T14:20:30Z</time>
      </trkpt>
      <trkpt lat="42.8751" lon="0.15215">
        <ele>2159.74</ele>
        <time>2013-08-15T14:20:31Z</time>
      </trkpt>
      <trkpt lat="42.8751" lon="0.15215">
        <ele>2161.18</ele>
        <time>2013-08-15T14:20:38Z</time>
      </trkpt>
      <trkpt lat="42.8751" lon="0.15215">
        <ele>2158.78</ele>
        <time>2013-08-15T14:20:41Z</time>
      </trkpt>
      <trkpt lat="42.8751" lon="0.15216">
        <ele>2160.7</ele>
        <time>2013-08-15T14:20:43Z</time>
      </trkpt>
      <trkpt lat="42.8751" lon="0.15216">
        <ele>2156.37</ele>
        <time>2013-08-15T14:20:44Z</time>
      </trkpt>
      <trkpt lat="42.8751" lon="0.15216">
        <ele>2162.62</ele>
        <time>2013-08-15T14:20:45Z</time>
      </trkpt>
      <trkpt lat="42.8751" lon="0.15216">
        <ele>2159.74</ele>
        <time>2013-08-15T14:20:46Z</time>
      </trkpt>
      <trkpt lat="42.8751" lon="0.15216">
        <ele>2153.01</ele>
        <time>2013-08-15T14:20:52Z</time>
      </trkpt>
      <trkpt lat="42.8751" lon="0.15216">
        <ele>2159.26</ele>
        <time>2013-08-15T14:20:53Z</time>
      </trkpt>
      <trkpt lat="42.8751" lon="0.15216">
        <ele>2146.76</ele>
        <time>2013-08-15T14:21:02Z</time>
      </trkpt>
      <trkpt lat="42.8751" lon="0.15216">
        <ele>2158.78</ele>
        <time>2013-08-15T14:21:03Z</time>
      </trkpt>
      <trkpt lat="42.8751" lon="0.15216">
        <ele>2162.62</ele>
        <time>2013-08-15T14:21:05Z</time>
      </trkpt>
      <trkpt lat="42.8751" lon="0.15216">
        <ele>2166.47</ele>
        <time>2013-08-15T14:21:06Z</time>
      </trkpt>
      <trkpt lat="42.8751" lon="0.15216">
        <ele>2159.74</ele>
        <time>2013-08-15T14:21:07Z</time>
      </trkpt>
      <trkpt lat="42.8751" lon="0.15216">
        <ele>2154.93</ele>
        <time>2013-08-15T14:21:08Z</time>
      </trkpt>
    </trkseg>
  </trk>
</gpx>